<?xml version="1.0" encoding="UTF-8" standalone="no" ?>
<gpx xmlns="http://www.topografix.com/GPX/1/1" xmlns:xsi="http://www.w3.org/2001/XMLSchema-instance" xsi:schemaLocation="http://www.topografix.com/GPX/1/1 http://www.topografix.com/GPX/1/1/gpx.xsd" version="1.1" creator="VisuGPX - https://www.visugpx.com">
  <metadata>
    <name>52 Km Gennes - Saumur</name>
  </metadata>
  <trk>
    <name><![CDATA[52 Km Gennes - Saumur_1]]></name>
    <desc><![CDATA[]]></desc>
    <trkseg>
      <trkpt lat="47.32401" lon="-0.22932">
        <ele>70</ele>
        <time>2026-03-12T21:32:19Z</time>
      </trkpt>
      <trkpt lat="47.32431" lon="-0.22928">
        <ele>70</ele>
        <time>2026-03-12T21:32:26Z</time>
      </trkpt>
      <trkpt lat="47.32498" lon="-0.22908">
        <ele>69</ele>
        <time>2026-03-12T21:32:42Z</time>
      </trkpt>
      <trkpt lat="47.32545" lon="-0.22887">
        <ele>68</ele>
        <time>2026-03-12T21:32:53Z</time>
      </trkpt>
      <trkpt lat="47.32591" lon="-0.22858">
        <ele>68</ele>
        <time>2026-03-12T21:33:05Z</time>
      </trkpt>
      <trkpt lat="47.32654" lon="-0.22829">
        <ele>69</ele>
        <time>2026-03-12T21:33:21Z</time>
      </trkpt>
      <trkpt lat="47.32683" lon="-0.2281">
        <ele>68</ele>
        <time>2026-03-12T21:33:28Z</time>
      </trkpt>
      <trkpt lat="47.32725" lon="-0.22791">
        <ele>67</ele>
        <time>2026-03-12T21:33:38Z</time>
      </trkpt>
      <trkpt lat="47.32733" lon="-0.22776">
        <ele>67</ele>
        <time>2026-03-12T21:33:41Z</time>
      </trkpt>
      <trkpt lat="47.3273" lon="-0.22765">
        <ele>67</ele>
        <time>2026-03-12T21:33:43Z</time>
      </trkpt>
      <trkpt lat="47.32726" lon="-0.2271">
        <ele>67</ele>
        <time>2026-03-12T21:33:52Z</time>
      </trkpt>
      <trkpt lat="47.3272" lon="-0.22692">
        <ele>67</ele>
        <time>2026-03-12T21:33:55Z</time>
      </trkpt>
      <trkpt lat="47.3272" lon="-0.2267">
        <ele>67</ele>
        <time>2026-03-12T21:33:59Z</time>
      </trkpt>
      <trkpt lat="47.32732" lon="-0.22645">
        <ele>67</ele>
        <time>2026-03-12T21:34:03Z</time>
      </trkpt>
      <trkpt lat="47.32741" lon="-0.22632">
        <ele>67</ele>
        <time>2026-03-12T21:34:06Z</time>
      </trkpt>
      <trkpt lat="47.32759" lon="-0.22611">
        <ele>66</ele>
        <time>2026-03-12T21:34:12Z</time>
      </trkpt>
      <trkpt lat="47.3278" lon="-0.22603">
        <ele>66</ele>
        <time>2026-03-12T21:34:17Z</time>
      </trkpt>
      <trkpt lat="47.32793" lon="-0.22582">
        <ele>66</ele>
        <time>2026-03-12T21:34:21Z</time>
      </trkpt>
      <trkpt lat="47.32811" lon="-0.22571">
        <ele>66</ele>
        <time>2026-03-12T21:34:26Z</time>
      </trkpt>
      <trkpt lat="47.32818" lon="-0.22564">
        <ele>66</ele>
        <time>2026-03-12T21:34:28Z</time>
      </trkpt>
      <trkpt lat="47.32827" lon="-0.22547">
        <ele>67</ele>
        <time>2026-03-12T21:34:31Z</time>
      </trkpt>
      <trkpt lat="47.32842" lon="-0.22546">
        <ele>67</ele>
        <time>2026-03-12T21:34:35Z</time>
      </trkpt>
      <trkpt lat="47.32855" lon="-0.22559">
        <ele>66</ele>
        <time>2026-03-12T21:34:38Z</time>
      </trkpt>
      <trkpt lat="47.32862" lon="-0.2256">
        <ele>66</ele>
        <time>2026-03-12T21:34:40Z</time>
      </trkpt>
      <trkpt lat="47.32869" lon="-0.22556">
        <ele>66</ele>
        <time>2026-03-12T21:34:42Z</time>
      </trkpt>
      <trkpt lat="47.3288" lon="-0.22567">
        <ele>65</ele>
        <time>2026-03-12T21:34:45Z</time>
      </trkpt>
      <trkpt lat="47.32914" lon="-0.22573">
        <ele>64</ele>
        <time>2026-03-12T21:34:53Z</time>
      </trkpt>
      <trkpt lat="47.32918" lon="-0.22571">
        <ele>64</ele>
        <time>2026-03-12T21:34:54Z</time>
      </trkpt>
      <trkpt lat="47.32942" lon="-0.2255">
        <ele>64</ele>
        <time>2026-03-12T21:35:00Z</time>
      </trkpt>
      <trkpt lat="47.32965" lon="-0.22497">
        <ele>66</ele>
        <time>2026-03-12T21:35:10Z</time>
      </trkpt>
      <trkpt lat="47.33023" lon="-0.22426">
        <ele>66</ele>
        <time>2026-03-12T21:35:28Z</time>
      </trkpt>
      <trkpt lat="47.33033" lon="-0.22378">
        <ele>69</ele>
        <time>2026-03-12T21:35:36Z</time>
      </trkpt>
      <trkpt lat="47.33033" lon="-0.22368">
        <ele>70</ele>
        <time>2026-03-12T21:35:37Z</time>
      </trkpt>
      <trkpt lat="47.33019" lon="-0.22349">
        <ele>72</ele>
        <time>2026-03-12T21:35:42Z</time>
      </trkpt>
      <trkpt lat="47.33014" lon="-0.22332">
        <ele>73</ele>
        <time>2026-03-12T21:35:45Z</time>
      </trkpt>
      <trkpt lat="47.33" lon="-0.22321">
        <ele>73</ele>
        <time>2026-03-12T21:35:49Z</time>
      </trkpt>
      <trkpt lat="47.32997" lon="-0.22314">
        <ele>74</ele>
        <time>2026-03-12T21:35:50Z</time>
      </trkpt>
      <trkpt lat="47.32985" lon="-0.22303">
        <ele>74</ele>
        <time>2026-03-12T21:35:53Z</time>
      </trkpt>
      <trkpt lat="47.32987" lon="-0.22287">
        <ele>74</ele>
        <time>2026-03-12T21:35:56Z</time>
      </trkpt>
      <trkpt lat="47.32984" lon="-0.22267">
        <ele>75</ele>
        <time>2026-03-12T21:35:59Z</time>
      </trkpt>
      <trkpt lat="47.32979" lon="-0.22258">
        <ele>75</ele>
        <time>2026-03-12T21:36:01Z</time>
      </trkpt>
      <trkpt lat="47.32978" lon="-0.22251">
        <ele>75</ele>
        <time>2026-03-12T21:36:02Z</time>
      </trkpt>
      <trkpt lat="47.32972" lon="-0.22247">
        <ele>75</ele>
        <time>2026-03-12T21:36:03Z</time>
      </trkpt>
      <trkpt lat="47.32968" lon="-0.2224">
        <ele>74</ele>
        <time>2026-03-12T21:36:05Z</time>
      </trkpt>
      <trkpt lat="47.3297" lon="-0.2223">
        <ele>74</ele>
        <time>2026-03-12T21:36:07Z</time>
      </trkpt>
      <trkpt lat="47.32987" lon="-0.22212">
        <ele>75</ele>
        <time>2026-03-12T21:36:11Z</time>
      </trkpt>
      <trkpt lat="47.33016" lon="-0.22193">
        <ele>75</ele>
        <time>2026-03-12T21:36:19Z</time>
      </trkpt>
      <trkpt lat="47.33016" lon="-0.22181">
        <ele>75</ele>
        <time>2026-03-12T21:36:21Z</time>
      </trkpt>
      <trkpt lat="47.33023" lon="-0.22164">
        <ele>74</ele>
        <time>2026-03-12T21:36:24Z</time>
      </trkpt>
      <trkpt lat="47.33012" lon="-0.22149">
        <ele>74</ele>
        <time>2026-03-12T21:36:27Z</time>
      </trkpt>
      <trkpt lat="47.33004" lon="-0.22146">
        <ele>75</ele>
        <time>2026-03-12T21:36:29Z</time>
      </trkpt>
      <trkpt lat="47.33001" lon="-0.22142">
        <ele>75</ele>
        <time>2026-03-12T21:36:30Z</time>
      </trkpt>
      <trkpt lat="47.33004" lon="-0.2212">
        <ele>74</ele>
        <time>2026-03-12T21:36:34Z</time>
      </trkpt>
      <trkpt lat="47.33001" lon="-0.2211">
        <ele>74</ele>
        <time>2026-03-12T21:36:36Z</time>
      </trkpt>
      <trkpt lat="47.32982" lon="-0.22088">
        <ele>74</ele>
        <time>2026-03-12T21:36:41Z</time>
      </trkpt>
      <trkpt lat="47.32972" lon="-0.22087">
        <ele>75</ele>
        <time>2026-03-12T21:36:44Z</time>
      </trkpt>
      <trkpt lat="47.32955" lon="-0.2208">
        <ele>75</ele>
        <time>2026-03-12T21:36:48Z</time>
      </trkpt>
      <trkpt lat="47.32948" lon="-0.22063">
        <ele>75</ele>
        <time>2026-03-12T21:36:51Z</time>
      </trkpt>
      <trkpt lat="47.32942" lon="-0.22038">
        <ele>76</ele>
        <time>2026-03-12T21:36:55Z</time>
      </trkpt>
      <trkpt lat="47.32948" lon="-0.22014">
        <ele>76</ele>
        <time>2026-03-12T21:36:59Z</time>
      </trkpt>
      <trkpt lat="47.32948" lon="-0.22001">
        <ele>76</ele>
        <time>2026-03-12T21:37:01Z</time>
      </trkpt>
      <trkpt lat="47.32942" lon="-0.21984">
        <ele>76</ele>
        <time>2026-03-12T21:37:04Z</time>
      </trkpt>
      <trkpt lat="47.32938" lon="-0.21933">
        <ele>77</ele>
        <time>2026-03-12T21:37:12Z</time>
      </trkpt>
      <trkpt lat="47.32905" lon="-0.21813">
        <ele>79</ele>
        <time>2026-03-12T21:37:33Z</time>
      </trkpt>
      <trkpt lat="47.32902" lon="-0.21793">
        <ele>79</ele>
        <time>2026-03-12T21:37:36Z</time>
      </trkpt>
      <trkpt lat="47.32895" lon="-0.21777">
        <ele>79</ele>
        <time>2026-03-12T21:37:39Z</time>
      </trkpt>
      <trkpt lat="47.32892" lon="-0.21756">
        <ele>79</ele>
        <time>2026-03-12T21:37:42Z</time>
      </trkpt>
      <trkpt lat="47.32872" lon="-0.21679">
        <ele>79</ele>
        <time>2026-03-12T21:37:55Z</time>
      </trkpt>
      <trkpt lat="47.32866" lon="-0.21641">
        <ele>79</ele>
        <time>2026-03-12T21:38:02Z</time>
      </trkpt>
      <trkpt lat="47.32855" lon="-0.21602">
        <ele>78</ele>
        <time>2026-03-12T21:38:08Z</time>
      </trkpt>
      <trkpt lat="47.3285" lon="-0.21602">
        <ele>78</ele>
        <time>2026-03-12T21:38:10Z</time>
      </trkpt>
      <trkpt lat="47.32819" lon="-0.21628">
        <ele>78</ele>
        <time>2026-03-12T21:38:18Z</time>
      </trkpt>
      <trkpt lat="47.32814" lon="-0.21627">
        <ele>78</ele>
        <time>2026-03-12T21:38:19Z</time>
      </trkpt>
      <trkpt lat="47.32806" lon="-0.21619">
        <ele>78</ele>
        <time>2026-03-12T21:38:21Z</time>
      </trkpt>
      <trkpt lat="47.32802" lon="-0.21618">
        <ele>78</ele>
        <time>2026-03-12T21:38:22Z</time>
      </trkpt>
      <trkpt lat="47.32771" lon="-0.21649">
        <ele>78</ele>
        <time>2026-03-12T21:38:31Z</time>
      </trkpt>
      <trkpt lat="47.32735" lon="-0.21675">
        <ele>79</ele>
        <time>2026-03-12T21:38:40Z</time>
      </trkpt>
      <trkpt lat="47.32701" lon="-0.21695">
        <ele>81</ele>
        <time>2026-03-12T21:38:49Z</time>
      </trkpt>
      <trkpt lat="47.32677" lon="-0.21718">
        <ele>82</ele>
        <time>2026-03-12T21:38:56Z</time>
      </trkpt>
      <trkpt lat="47.32673" lon="-0.21719">
        <ele>82</ele>
        <time>2026-03-12T21:38:57Z</time>
      </trkpt>
      <trkpt lat="47.32657" lon="-0.21714">
        <ele>82</ele>
        <time>2026-03-12T21:39:00Z</time>
      </trkpt>
      <trkpt lat="47.32639" lon="-0.21714">
        <ele>83</ele>
        <time>2026-03-12T21:39:05Z</time>
      </trkpt>
      <trkpt lat="47.3262" lon="-0.21707">
        <ele>83</ele>
        <time>2026-03-12T21:39:09Z</time>
      </trkpt>
      <trkpt lat="47.3261" lon="-0.21709">
        <ele>83</ele>
        <time>2026-03-12T21:39:11Z</time>
      </trkpt>
      <trkpt lat="47.32578" lon="-0.21744">
        <ele>84</ele>
        <time>2026-03-12T21:39:21Z</time>
      </trkpt>
      <trkpt lat="47.32542" lon="-0.21796">
        <ele>83</ele>
        <time>2026-03-12T21:39:33Z</time>
      </trkpt>
      <trkpt lat="47.32521" lon="-0.21813">
        <ele>83</ele>
        <time>2026-03-12T21:39:38Z</time>
      </trkpt>
      <trkpt lat="47.32512" lon="-0.21812">
        <ele>83</ele>
        <time>2026-03-12T21:39:40Z</time>
      </trkpt>
      <trkpt lat="47.32471" lon="-0.21793">
        <ele>81</ele>
        <time>2026-03-12T21:39:50Z</time>
      </trkpt>
      <trkpt lat="47.32443" lon="-0.21798">
        <ele>81</ele>
        <time>2026-03-12T21:39:57Z</time>
      </trkpt>
      <trkpt lat="47.32423" lon="-0.21807">
        <ele>80</ele>
        <time>2026-03-12T21:40:02Z</time>
      </trkpt>
      <trkpt lat="47.32401" lon="-0.21805">
        <ele>80</ele>
        <time>2026-03-12T21:40:07Z</time>
      </trkpt>
      <trkpt lat="47.32365" lon="-0.21794">
        <ele>79</ele>
        <time>2026-03-12T21:40:15Z</time>
      </trkpt>
      <trkpt lat="47.32319" lon="-0.21803">
        <ele>79</ele>
        <time>2026-03-12T21:40:26Z</time>
      </trkpt>
      <trkpt lat="47.323" lon="-0.21804">
        <ele>79</ele>
        <time>2026-03-12T21:40:31Z</time>
      </trkpt>
      <trkpt lat="47.32294" lon="-0.21812">
        <ele>79</ele>
        <time>2026-03-12T21:40:33Z</time>
      </trkpt>
      <trkpt lat="47.32292" lon="-0.21819">
        <ele>79</ele>
        <time>2026-03-12T21:40:34Z</time>
      </trkpt>
      <trkpt lat="47.32285" lon="-0.21867">
        <ele>79</ele>
        <time>2026-03-12T21:40:42Z</time>
      </trkpt>
      <trkpt lat="47.32281" lon="-0.21872">
        <ele>79</ele>
        <time>2026-03-12T21:40:43Z</time>
      </trkpt>
      <trkpt lat="47.32263" lon="-0.21878">
        <ele>79</ele>
        <time>2026-03-12T21:40:47Z</time>
      </trkpt>
      <trkpt lat="47.32242" lon="-0.21891">
        <ele>79</ele>
        <time>2026-03-12T21:40:52Z</time>
      </trkpt>
      <trkpt lat="47.32216" lon="-0.21935">
        <ele>79</ele>
        <time>2026-03-12T21:41:02Z</time>
      </trkpt>
      <trkpt lat="47.32203" lon="-0.21951">
        <ele>79</ele>
        <time>2026-03-12T21:41:06Z</time>
      </trkpt>
      <trkpt lat="47.32099" lon="-0.21934">
        <ele>82</ele>
        <time>2026-03-12T21:41:30Z</time>
      </trkpt>
      <trkpt lat="47.32067" lon="-0.21917">
        <ele>82</ele>
        <time>2026-03-12T21:41:38Z</time>
      </trkpt>
      <trkpt lat="47.32045" lon="-0.21915">
        <ele>82</ele>
        <time>2026-03-12T21:41:43Z</time>
      </trkpt>
      <trkpt lat="47.32011" lon="-0.21897">
        <ele>81</ele>
        <time>2026-03-12T21:41:52Z</time>
      </trkpt>
      <trkpt lat="47.32003" lon="-0.21895">
        <ele>81</ele>
        <time>2026-03-12T21:41:54Z</time>
      </trkpt>
      <trkpt lat="47.31996" lon="-0.21901">
        <ele>81</ele>
        <time>2026-03-12T21:41:55Z</time>
      </trkpt>
      <trkpt lat="47.31989" lon="-0.2193">
        <ele>82</ele>
        <time>2026-03-12T21:42:00Z</time>
      </trkpt>
      <trkpt lat="47.31988" lon="-0.21946">
        <ele>82</ele>
        <time>2026-03-12T21:42:03Z</time>
      </trkpt>
      <trkpt lat="47.31994" lon="-0.22012">
        <ele>81</ele>
        <time>2026-03-12T21:42:13Z</time>
      </trkpt>
      <trkpt lat="47.31988" lon="-0.22029">
        <ele>80</ele>
        <time>2026-03-12T21:42:16Z</time>
      </trkpt>
      <trkpt lat="47.31973" lon="-0.22045">
        <ele>79</ele>
        <time>2026-03-12T21:42:21Z</time>
      </trkpt>
      <trkpt lat="47.31931" lon="-0.22077">
        <ele>77</ele>
        <time>2026-03-12T21:42:32Z</time>
      </trkpt>
      <trkpt lat="47.31893" lon="-0.22099">
        <ele>77</ele>
        <time>2026-03-12T21:42:41Z</time>
      </trkpt>
      <trkpt lat="47.31873" lon="-0.22117">
        <ele>77</ele>
        <time>2026-03-12T21:42:47Z</time>
      </trkpt>
      <trkpt lat="47.31864" lon="-0.2212">
        <ele>78</ele>
        <time>2026-03-12T21:42:49Z</time>
      </trkpt>
      <trkpt lat="47.31829" lon="-0.22108">
        <ele>79</ele>
        <time>2026-03-12T21:42:57Z</time>
      </trkpt>
      <trkpt lat="47.31785" lon="-0.22081">
        <ele>80</ele>
        <time>2026-03-12T21:43:08Z</time>
      </trkpt>
      <trkpt lat="47.31763" lon="-0.22061">
        <ele>81</ele>
        <time>2026-03-12T21:43:14Z</time>
      </trkpt>
      <trkpt lat="47.3172" lon="-0.22006">
        <ele>83</ele>
        <time>2026-03-12T21:43:28Z</time>
      </trkpt>
      <trkpt lat="47.3165" lon="-0.21901">
        <ele>84</ele>
        <time>2026-03-12T21:43:51Z</time>
      </trkpt>
      <trkpt lat="47.3162" lon="-0.21844">
        <ele>83</ele>
        <time>2026-03-12T21:44:03Z</time>
      </trkpt>
      <trkpt lat="47.3158" lon="-0.21758">
        <ele>82</ele>
        <time>2026-03-12T21:44:19Z</time>
      </trkpt>
      <trkpt lat="47.31492" lon="-0.21695">
        <ele>83</ele>
        <time>2026-03-12T21:44:42Z</time>
      </trkpt>
      <trkpt lat="47.31456" lon="-0.21681">
        <ele>84</ele>
        <time>2026-03-12T21:44:51Z</time>
      </trkpt>
      <trkpt lat="47.31441" lon="-0.21678">
        <ele>84</ele>
        <time>2026-03-12T21:44:54Z</time>
      </trkpt>
      <trkpt lat="47.31428" lon="-0.21669">
        <ele>85</ele>
        <time>2026-03-12T21:44:57Z</time>
      </trkpt>
      <trkpt lat="47.31411" lon="-0.21632">
        <ele>85</ele>
        <time>2026-03-12T21:45:05Z</time>
      </trkpt>
      <trkpt lat="47.31407" lon="-0.21619">
        <ele>85</ele>
        <time>2026-03-12T21:45:07Z</time>
      </trkpt>
      <trkpt lat="47.31402" lon="-0.21584">
        <ele>85</ele>
        <time>2026-03-12T21:45:12Z</time>
      </trkpt>
      <trkpt lat="47.31398" lon="-0.21577">
        <ele>85</ele>
        <time>2026-03-12T21:45:14Z</time>
      </trkpt>
      <trkpt lat="47.31384" lon="-0.21583">
        <ele>85</ele>
        <time>2026-03-12T21:45:17Z</time>
      </trkpt>
      <trkpt lat="47.31307" lon="-0.21639">
        <ele>85</ele>
        <time>2026-03-12T21:45:37Z</time>
      </trkpt>
      <trkpt lat="47.31303" lon="-0.21641">
        <ele>85</ele>
        <time>2026-03-12T21:45:38Z</time>
      </trkpt>
      <trkpt lat="47.31297" lon="-0.21636">
        <ele>86</ele>
        <time>2026-03-12T21:45:40Z</time>
      </trkpt>
      <trkpt lat="47.31283" lon="-0.21571">
        <ele>86</ele>
        <time>2026-03-12T21:45:51Z</time>
      </trkpt>
      <trkpt lat="47.31226" lon="-0.2134">
        <ele>84</ele>
        <time>2026-03-12T21:46:30Z</time>
      </trkpt>
      <trkpt lat="47.31216" lon="-0.21304">
        <ele>85</ele>
        <time>2026-03-12T21:46:36Z</time>
      </trkpt>
      <trkpt lat="47.31194" lon="-0.21249">
        <ele>86</ele>
        <time>2026-03-12T21:46:46Z</time>
      </trkpt>
      <trkpt lat="47.31182" lon="-0.21187">
        <ele>86</ele>
        <time>2026-03-12T21:46:56Z</time>
      </trkpt>
      <trkpt lat="47.31167" lon="-0.2113">
        <ele>87</ele>
        <time>2026-03-12T21:47:06Z</time>
      </trkpt>
      <trkpt lat="47.31164" lon="-0.21107">
        <ele>88</ele>
        <time>2026-03-12T21:47:10Z</time>
      </trkpt>
      <trkpt lat="47.31166" lon="-0.21093">
        <ele>88</ele>
        <time>2026-03-12T21:47:12Z</time>
      </trkpt>
      <trkpt lat="47.31174" lon="-0.21086">
        <ele>88</ele>
        <time>2026-03-12T21:47:14Z</time>
      </trkpt>
      <trkpt lat="47.31281" lon="-0.21028">
        <ele>85</ele>
        <time>2026-03-12T21:47:41Z</time>
      </trkpt>
      <trkpt lat="47.3129" lon="-0.21018">
        <ele>85</ele>
        <time>2026-03-12T21:47:43Z</time>
      </trkpt>
      <trkpt lat="47.31305" lon="-0.20994">
        <ele>84</ele>
        <time>2026-03-12T21:47:48Z</time>
      </trkpt>
      <trkpt lat="47.31317" lon="-0.20981">
        <ele>83</ele>
        <time>2026-03-12T21:47:52Z</time>
      </trkpt>
      <trkpt lat="47.31375" lon="-0.20944">
        <ele>81</ele>
        <time>2026-03-12T21:48:07Z</time>
      </trkpt>
      <trkpt lat="47.31418" lon="-0.2091">
        <ele>79</ele>
        <time>2026-03-12T21:48:18Z</time>
      </trkpt>
      <trkpt lat="47.31432" lon="-0.20902">
        <ele>79</ele>
        <time>2026-03-12T21:48:22Z</time>
      </trkpt>
      <trkpt lat="47.31461" lon="-0.20892">
        <ele>79</ele>
        <time>2026-03-12T21:48:28Z</time>
      </trkpt>
      <trkpt lat="47.31468" lon="-0.20885">
        <ele>79</ele>
        <time>2026-03-12T21:48:30Z</time>
      </trkpt>
      <trkpt lat="47.31477" lon="-0.2085">
        <ele>80</ele>
        <time>2026-03-12T21:48:36Z</time>
      </trkpt>
      <trkpt lat="47.31483" lon="-0.2079">
        <ele>81</ele>
        <time>2026-03-12T21:48:46Z</time>
      </trkpt>
      <trkpt lat="47.31487" lon="-0.20775">
        <ele>82</ele>
        <time>2026-03-12T21:48:49Z</time>
      </trkpt>
      <trkpt lat="47.31495" lon="-0.20751">
        <ele>82</ele>
        <time>2026-03-12T21:48:53Z</time>
      </trkpt>
      <trkpt lat="47.3155" lon="-0.20629">
        <ele>82</ele>
        <time>2026-03-12T21:49:16Z</time>
      </trkpt>
      <trkpt lat="47.31578" lon="-0.20487">
        <ele>83</ele>
        <time>2026-03-12T21:49:39Z</time>
      </trkpt>
      <trkpt lat="47.316" lon="-0.20431">
        <ele>83</ele>
        <time>2026-03-12T21:49:50Z</time>
      </trkpt>
      <trkpt lat="47.31621" lon="-0.2036">
        <ele>83</ele>
        <time>2026-03-12T21:50:02Z</time>
      </trkpt>
      <trkpt lat="47.31671" lon="-0.20249">
        <ele>84</ele>
        <time>2026-03-12T21:50:23Z</time>
      </trkpt>
      <trkpt lat="47.31678" lon="-0.20202">
        <ele>83</ele>
        <time>2026-03-12T21:50:31Z</time>
      </trkpt>
      <trkpt lat="47.3168" lon="-0.20199">
        <ele>83</ele>
        <time>2026-03-12T21:50:31Z</time>
      </trkpt>
      <trkpt lat="47.31687" lon="-0.20221">
        <ele>83</ele>
        <time>2026-03-12T21:50:35Z</time>
      </trkpt>
      <trkpt lat="47.31692" lon="-0.20227">
        <ele>83</ele>
        <time>2026-03-12T21:50:37Z</time>
      </trkpt>
      <trkpt lat="47.31705" lon="-0.20223">
        <ele>82</ele>
        <time>2026-03-12T21:50:40Z</time>
      </trkpt>
      <trkpt lat="47.31764" lon="-0.20192">
        <ele>80</ele>
        <time>2026-03-12T21:50:54Z</time>
      </trkpt>
      <trkpt lat="47.31772" lon="-0.20183">
        <ele>80</ele>
        <time>2026-03-12T21:50:57Z</time>
      </trkpt>
      <trkpt lat="47.3177" lon="-0.20168">
        <ele>80</ele>
        <time>2026-03-12T21:50:59Z</time>
      </trkpt>
      <trkpt lat="47.31759" lon="-0.20145">
        <ele>79</ele>
        <time>2026-03-12T21:51:04Z</time>
      </trkpt>
      <trkpt lat="47.31759" lon="-0.20139">
        <ele>79</ele>
        <time>2026-03-12T21:51:05Z</time>
      </trkpt>
      <trkpt lat="47.31765" lon="-0.2013">
        <ele>79</ele>
        <time>2026-03-12T21:51:07Z</time>
      </trkpt>
      <trkpt lat="47.31799" lon="-0.20113">
        <ele>79</ele>
        <time>2026-03-12T21:51:15Z</time>
      </trkpt>
      <trkpt lat="47.31909" lon="-0.20049">
        <ele>83</ele>
        <time>2026-03-12T21:51:43Z</time>
      </trkpt>
      <trkpt lat="47.31917" lon="-0.20042">
        <ele>83</ele>
        <time>2026-03-12T21:51:45Z</time>
      </trkpt>
      <trkpt lat="47.3192" lon="-0.20031">
        <ele>83</ele>
        <time>2026-03-12T21:51:47Z</time>
      </trkpt>
      <trkpt lat="47.319" lon="-0.19951">
        <ele>79</ele>
        <time>2026-03-12T21:52:00Z</time>
      </trkpt>
      <trkpt lat="47.319" lon="-0.19937">
        <ele>78</ele>
        <time>2026-03-12T21:52:02Z</time>
      </trkpt>
      <trkpt lat="47.31906" lon="-0.19928">
        <ele>78</ele>
        <time>2026-03-12T21:52:04Z</time>
      </trkpt>
      <trkpt lat="47.31935" lon="-0.19914">
        <ele>78</ele>
        <time>2026-03-12T21:52:11Z</time>
      </trkpt>
      <trkpt lat="47.31939" lon="-0.19908">
        <ele>78</ele>
        <time>2026-03-12T21:52:13Z</time>
      </trkpt>
      <trkpt lat="47.31937" lon="-0.19896">
        <ele>78</ele>
        <time>2026-03-12T21:52:15Z</time>
      </trkpt>
      <trkpt lat="47.31916" lon="-0.19846">
        <ele>76</ele>
        <time>2026-03-12T21:52:24Z</time>
      </trkpt>
      <trkpt lat="47.31909" lon="-0.19821">
        <ele>76</ele>
        <time>2026-03-12T21:52:28Z</time>
      </trkpt>
      <trkpt lat="47.31906" lon="-0.19795">
        <ele>76</ele>
        <time>2026-03-12T21:52:32Z</time>
      </trkpt>
      <trkpt lat="47.31895" lon="-0.1976">
        <ele>75</ele>
        <time>2026-03-12T21:52:39Z</time>
      </trkpt>
      <trkpt lat="47.31838" lon="-0.19605">
        <ele>73</ele>
        <time>2026-03-12T21:53:07Z</time>
      </trkpt>
      <trkpt lat="47.31731" lon="-0.19397">
        <ele>72</ele>
        <time>2026-03-12T21:53:48Z</time>
      </trkpt>
      <trkpt lat="47.3171" lon="-0.19349">
        <ele>72</ele>
        <time>2026-03-12T21:53:57Z</time>
      </trkpt>
      <trkpt lat="47.31672" lon="-0.1924">
        <ele>69</ele>
        <time>2026-03-12T21:54:16Z</time>
      </trkpt>
      <trkpt lat="47.31655" lon="-0.19156">
        <ele>66</ele>
        <time>2026-03-12T21:54:30Z</time>
      </trkpt>
      <trkpt lat="47.31635" lon="-0.19078">
        <ele>64</ele>
        <time>2026-03-12T21:54:43Z</time>
      </trkpt>
      <trkpt lat="47.31602" lon="-0.18978">
        <ele>66</ele>
        <time>2026-03-12T21:55:01Z</time>
      </trkpt>
      <trkpt lat="47.31594" lon="-0.18969">
        <ele>67</ele>
        <time>2026-03-12T21:55:03Z</time>
      </trkpt>
      <trkpt lat="47.31589" lon="-0.1897">
        <ele>67</ele>
        <time>2026-03-12T21:55:05Z</time>
      </trkpt>
      <trkpt lat="47.31575" lon="-0.18981">
        <ele>66</ele>
        <time>2026-03-12T21:55:08Z</time>
      </trkpt>
      <trkpt lat="47.31491" lon="-0.19016">
        <ele>66</ele>
        <time>2026-03-12T21:55:29Z</time>
      </trkpt>
      <trkpt lat="47.3147" lon="-0.19029">
        <ele>66</ele>
        <time>2026-03-12T21:55:34Z</time>
      </trkpt>
      <trkpt lat="47.31419" lon="-0.19071">
        <ele>67</ele>
        <time>2026-03-12T21:55:48Z</time>
      </trkpt>
      <trkpt lat="47.31402" lon="-0.1908">
        <ele>68</ele>
        <time>2026-03-12T21:55:52Z</time>
      </trkpt>
      <trkpt lat="47.31385" lon="-0.19084">
        <ele>69</ele>
        <time>2026-03-12T21:55:56Z</time>
      </trkpt>
      <trkpt lat="47.31361" lon="-0.19083">
        <ele>70</ele>
        <time>2026-03-12T21:56:01Z</time>
      </trkpt>
      <trkpt lat="47.31336" lon="-0.19087">
        <ele>71</ele>
        <time>2026-03-12T21:56:07Z</time>
      </trkpt>
      <trkpt lat="47.31262" lon="-0.19122">
        <ele>77</ele>
        <time>2026-03-12T21:56:25Z</time>
      </trkpt>
      <trkpt lat="47.31236" lon="-0.19131">
        <ele>78</ele>
        <time>2026-03-12T21:56:32Z</time>
      </trkpt>
      <trkpt lat="47.31192" lon="-0.19142">
        <ele>78</ele>
        <time>2026-03-12T21:56:42Z</time>
      </trkpt>
      <trkpt lat="47.31116" lon="-0.19154">
        <ele>79</ele>
        <time>2026-03-12T21:57:00Z</time>
      </trkpt>
      <trkpt lat="47.31023" lon="-0.19175">
        <ele>81</ele>
        <time>2026-03-12T21:57:22Z</time>
      </trkpt>
      <trkpt lat="47.30994" lon="-0.19179">
        <ele>81</ele>
        <time>2026-03-12T21:57:29Z</time>
      </trkpt>
      <trkpt lat="47.30982" lon="-0.19184">
        <ele>81</ele>
        <time>2026-03-12T21:57:32Z</time>
      </trkpt>
      <trkpt lat="47.30964" lon="-0.19198">
        <ele>82</ele>
        <time>2026-03-12T21:57:36Z</time>
      </trkpt>
      <trkpt lat="47.30955" lon="-0.19199">
        <ele>82</ele>
        <time>2026-03-12T21:57:38Z</time>
      </trkpt>
      <trkpt lat="47.30949" lon="-0.19194">
        <ele>82</ele>
        <time>2026-03-12T21:57:40Z</time>
      </trkpt>
      <trkpt lat="47.30943" lon="-0.19173">
        <ele>82</ele>
        <time>2026-03-12T21:57:44Z</time>
      </trkpt>
      <trkpt lat="47.3092" lon="-0.19012">
        <ele>84</ele>
        <time>2026-03-12T21:58:10Z</time>
      </trkpt>
      <trkpt lat="47.30915" lon="-0.18902">
        <ele>83</ele>
        <time>2026-03-12T21:58:27Z</time>
      </trkpt>
      <trkpt lat="47.30912" lon="-0.18891">
        <ele>83</ele>
        <time>2026-03-12T21:58:29Z</time>
      </trkpt>
      <trkpt lat="47.30906" lon="-0.18881">
        <ele>83</ele>
        <time>2026-03-12T21:58:31Z</time>
      </trkpt>
      <trkpt lat="47.30898" lon="-0.18877">
        <ele>83</ele>
        <time>2026-03-12T21:58:33Z</time>
      </trkpt>
      <trkpt lat="47.30847" lon="-0.18869">
        <ele>84</ele>
        <time>2026-03-12T21:58:45Z</time>
      </trkpt>
      <trkpt lat="47.30688" lon="-0.18833">
        <ele>85</ele>
        <time>2026-03-12T21:59:23Z</time>
      </trkpt>
      <trkpt lat="47.30611" lon="-0.18813">
        <ele>83</ele>
        <time>2026-03-12T21:59:41Z</time>
      </trkpt>
      <trkpt lat="47.30549" lon="-0.18803">
        <ele>80</ele>
        <time>2026-03-12T21:59:56Z</time>
      </trkpt>
      <trkpt lat="47.3053" lon="-0.18796">
        <ele>79</ele>
        <time>2026-03-12T22:00:00Z</time>
      </trkpt>
      <trkpt lat="47.30517" lon="-0.18788">
        <ele>78</ele>
        <time>2026-03-12T22:00:03Z</time>
      </trkpt>
      <trkpt lat="47.30423" lon="-0.18701">
        <ele>73</ele>
        <time>2026-03-12T22:00:29Z</time>
      </trkpt>
      <trkpt lat="47.30349" lon="-0.18642">
        <ele>77</ele>
        <time>2026-03-12T22:00:49Z</time>
      </trkpt>
      <trkpt lat="47.30275" lon="-0.18602">
        <ele>81</ele>
        <time>2026-03-12T22:01:07Z</time>
      </trkpt>
      <trkpt lat="47.30204" lon="-0.18572">
        <ele>83</ele>
        <time>2026-03-12T22:01:25Z</time>
      </trkpt>
      <trkpt lat="47.30178" lon="-0.18551">
        <ele>83</ele>
        <time>2026-03-12T22:01:32Z</time>
      </trkpt>
      <trkpt lat="47.30155" lon="-0.18536">
        <ele>82</ele>
        <time>2026-03-12T22:01:37Z</time>
      </trkpt>
      <trkpt lat="47.30128" lon="-0.18514">
        <ele>81</ele>
        <time>2026-03-12T22:01:45Z</time>
      </trkpt>
      <trkpt lat="47.30071" lon="-0.18461">
        <ele>78</ele>
        <time>2026-03-12T22:02:00Z</time>
      </trkpt>
      <trkpt lat="47.30027" lon="-0.18409">
        <ele>75</ele>
        <time>2026-03-12T22:02:14Z</time>
      </trkpt>
      <trkpt lat="47.30009" lon="-0.18395">
        <ele>74</ele>
        <time>2026-03-12T22:02:18Z</time>
      </trkpt>
      <trkpt lat="47.29975" lon="-0.18397">
        <ele>71</ele>
        <time>2026-03-12T22:02:26Z</time>
      </trkpt>
      <trkpt lat="47.29939" lon="-0.18409">
        <ele>69</ele>
        <time>2026-03-12T22:02:35Z</time>
      </trkpt>
      <trkpt lat="47.29891" lon="-0.18434">
        <ele>69</ele>
        <time>2026-03-12T22:02:47Z</time>
      </trkpt>
      <trkpt lat="47.29877" lon="-0.18437">
        <ele>69</ele>
        <time>2026-03-12T22:02:50Z</time>
      </trkpt>
      <trkpt lat="47.29872" lon="-0.18436">
        <ele>69</ele>
        <time>2026-03-12T22:02:51Z</time>
      </trkpt>
      <trkpt lat="47.29838" lon="-0.18416">
        <ele>68</ele>
        <time>2026-03-12T22:03:00Z</time>
      </trkpt>
      <trkpt lat="47.29796" lon="-0.18379">
        <ele>70</ele>
        <time>2026-03-12T22:03:11Z</time>
      </trkpt>
      <trkpt lat="47.29765" lon="-0.18344">
        <ele>70</ele>
        <time>2026-03-12T22:03:20Z</time>
      </trkpt>
      <trkpt lat="47.29744" lon="-0.1833">
        <ele>70</ele>
        <time>2026-03-12T22:03:26Z</time>
      </trkpt>
      <trkpt lat="47.29713" lon="-0.18304">
        <ele>68</ele>
        <time>2026-03-12T22:03:34Z</time>
      </trkpt>
      <trkpt lat="47.29697" lon="-0.18287">
        <ele>66</ele>
        <time>2026-03-12T22:03:39Z</time>
      </trkpt>
      <trkpt lat="47.29669" lon="-0.18216">
        <ele>61</ele>
        <time>2026-03-12T22:03:52Z</time>
      </trkpt>
      <trkpt lat="47.29657" lon="-0.18192">
        <ele>60</ele>
        <time>2026-03-12T22:03:56Z</time>
      </trkpt>
      <trkpt lat="47.29627" lon="-0.18154">
        <ele>57</ele>
        <time>2026-03-12T22:04:06Z</time>
      </trkpt>
      <trkpt lat="47.29564" lon="-0.18083">
        <ele>55</ele>
        <time>2026-03-12T22:04:24Z</time>
      </trkpt>
      <trkpt lat="47.29549" lon="-0.18058">
        <ele>57</ele>
        <time>2026-03-12T22:04:29Z</time>
      </trkpt>
      <trkpt lat="47.29486" lon="-0.17966">
        <ele>65</ele>
        <time>2026-03-12T22:04:50Z</time>
      </trkpt>
      <trkpt lat="47.2945" lon="-0.17919">
        <ele>71</ele>
        <time>2026-03-12T22:05:01Z</time>
      </trkpt>
      <trkpt lat="47.29443" lon="-0.17906">
        <ele>72</ele>
        <time>2026-03-12T22:05:04Z</time>
      </trkpt>
      <trkpt lat="47.29425" lon="-0.17843">
        <ele>77</ele>
        <time>2026-03-12T22:05:15Z</time>
      </trkpt>
      <trkpt lat="47.29382" lon="-0.17755">
        <ele>82</ele>
        <time>2026-03-12T22:05:32Z</time>
      </trkpt>
      <trkpt lat="47.29357" lon="-0.17691">
        <ele>84</ele>
        <time>2026-03-12T22:05:44Z</time>
      </trkpt>
      <trkpt lat="47.29349" lon="-0.17655">
        <ele>85</ele>
        <time>2026-03-12T22:05:50Z</time>
      </trkpt>
      <trkpt lat="47.29318" lon="-0.17589">
        <ele>86</ele>
        <time>2026-03-12T22:06:02Z</time>
      </trkpt>
      <trkpt lat="47.29302" lon="-0.17538">
        <ele>86</ele>
        <time>2026-03-12T22:06:11Z</time>
      </trkpt>
      <trkpt lat="47.29283" lon="-0.17491">
        <ele>85</ele>
        <time>2026-03-12T22:06:20Z</time>
      </trkpt>
      <trkpt lat="47.29275" lon="-0.17452">
        <ele>85</ele>
        <time>2026-03-12T22:06:26Z</time>
      </trkpt>
      <trkpt lat="47.29263" lon="-0.17414">
        <ele>85</ele>
        <time>2026-03-12T22:06:33Z</time>
      </trkpt>
      <trkpt lat="47.29243" lon="-0.17366">
        <ele>86</ele>
        <time>2026-03-12T22:06:42Z</time>
      </trkpt>
      <trkpt lat="47.29236" lon="-0.1732">
        <ele>86</ele>
        <time>2026-03-12T22:06:49Z</time>
      </trkpt>
      <trkpt lat="47.2922" lon="-0.17247">
        <ele>87</ele>
        <time>2026-03-12T22:07:02Z</time>
      </trkpt>
      <trkpt lat="47.29206" lon="-0.172">
        <ele>89</ele>
        <time>2026-03-12T22:07:10Z</time>
      </trkpt>
      <trkpt lat="47.292" lon="-0.17167">
        <ele>90</ele>
        <time>2026-03-12T22:07:15Z</time>
      </trkpt>
      <trkpt lat="47.29198" lon="-0.17128">
        <ele>91</ele>
        <time>2026-03-12T22:07:21Z</time>
      </trkpt>
      <trkpt lat="47.29206" lon="-0.16981">
        <ele>89</ele>
        <time>2026-03-12T22:07:45Z</time>
      </trkpt>
      <trkpt lat="47.29187" lon="-0.16937">
        <ele>89</ele>
        <time>2026-03-12T22:07:53Z</time>
      </trkpt>
      <trkpt lat="47.29174" lon="-0.16897">
        <ele>89</ele>
        <time>2026-03-12T22:08:00Z</time>
      </trkpt>
      <trkpt lat="47.29155" lon="-0.16859">
        <ele>89</ele>
        <time>2026-03-12T22:08:07Z</time>
      </trkpt>
      <trkpt lat="47.29145" lon="-0.16821">
        <ele>89</ele>
        <time>2026-03-12T22:08:14Z</time>
      </trkpt>
      <trkpt lat="47.29136" lon="-0.16802">
        <ele>89</ele>
        <time>2026-03-12T22:08:18Z</time>
      </trkpt>
      <trkpt lat="47.29135" lon="-0.16795">
        <ele>89</ele>
        <time>2026-03-12T22:08:19Z</time>
      </trkpt>
      <trkpt lat="47.29136" lon="-0.16787">
        <ele>89</ele>
        <time>2026-03-12T22:08:20Z</time>
      </trkpt>
      <trkpt lat="47.29145" lon="-0.16767">
        <ele>89</ele>
        <time>2026-03-12T22:08:24Z</time>
      </trkpt>
      <trkpt lat="47.29187" lon="-0.16712">
        <ele>90</ele>
        <time>2026-03-12T22:08:37Z</time>
      </trkpt>
      <trkpt lat="47.29196" lon="-0.16697">
        <ele>90</ele>
        <time>2026-03-12T22:08:40Z</time>
      </trkpt>
      <trkpt lat="47.29199" lon="-0.16686">
        <ele>90</ele>
        <time>2026-03-12T22:08:42Z</time>
      </trkpt>
      <trkpt lat="47.29201" lon="-0.16672">
        <ele>90</ele>
        <time>2026-03-12T22:08:44Z</time>
      </trkpt>
      <trkpt lat="47.29199" lon="-0.16655">
        <ele>90</ele>
        <time>2026-03-12T22:08:47Z</time>
      </trkpt>
      <trkpt lat="47.29188" lon="-0.16596">
        <ele>91</ele>
        <time>2026-03-12T22:08:57Z</time>
      </trkpt>
      <trkpt lat="47.29169" lon="-0.16552">
        <ele>92</ele>
        <time>2026-03-12T22:09:05Z</time>
      </trkpt>
      <trkpt lat="47.29143" lon="-0.16503">
        <ele>91</ele>
        <time>2026-03-12T22:09:15Z</time>
      </trkpt>
      <trkpt lat="47.29095" lon="-0.1643">
        <ele>93</ele>
        <time>2026-03-12T22:09:31Z</time>
      </trkpt>
      <trkpt lat="47.29051" lon="-0.16348">
        <ele>94</ele>
        <time>2026-03-12T22:09:47Z</time>
      </trkpt>
      <trkpt lat="47.28993" lon="-0.16262">
        <ele>95</ele>
        <time>2026-03-12T22:10:07Z</time>
      </trkpt>
      <trkpt lat="47.28953" lon="-0.16188">
        <ele>96</ele>
        <time>2026-03-12T22:10:22Z</time>
      </trkpt>
      <trkpt lat="47.28886" lon="-0.16048">
        <ele>95</ele>
        <time>2026-03-12T22:10:49Z</time>
      </trkpt>
      <trkpt lat="47.28869" lon="-0.16022">
        <ele>95</ele>
        <time>2026-03-12T22:10:54Z</time>
      </trkpt>
      <trkpt lat="47.2884" lon="-0.15988">
        <ele>95</ele>
        <time>2026-03-12T22:11:03Z</time>
      </trkpt>
      <trkpt lat="47.28839" lon="-0.1598">
        <ele>95</ele>
        <time>2026-03-12T22:11:04Z</time>
      </trkpt>
      <trkpt lat="47.28842" lon="-0.15967">
        <ele>94</ele>
        <time>2026-03-12T22:11:07Z</time>
      </trkpt>
      <trkpt lat="47.28854" lon="-0.15948">
        <ele>94</ele>
        <time>2026-03-12T22:11:11Z</time>
      </trkpt>
      <trkpt lat="47.28901" lon="-0.15901">
        <ele>93</ele>
        <time>2026-03-12T22:11:24Z</time>
      </trkpt>
      <trkpt lat="47.28925" lon="-0.15882">
        <ele>92</ele>
        <time>2026-03-12T22:11:30Z</time>
      </trkpt>
      <trkpt lat="47.28935" lon="-0.1587">
        <ele>92</ele>
        <time>2026-03-12T22:11:33Z</time>
      </trkpt>
      <trkpt lat="47.28952" lon="-0.15839">
        <ele>92</ele>
        <time>2026-03-12T22:11:40Z</time>
      </trkpt>
      <trkpt lat="47.29007" lon="-0.15754">
        <ele>87</ele>
        <time>2026-03-12T22:11:58Z</time>
      </trkpt>
      <trkpt lat="47.29021" lon="-0.15726">
        <ele>87</ele>
        <time>2026-03-12T22:12:04Z</time>
      </trkpt>
      <trkpt lat="47.2905" lon="-0.15651">
        <ele>86</ele>
        <time>2026-03-12T22:12:17Z</time>
      </trkpt>
      <trkpt lat="47.29076" lon="-0.15602">
        <ele>86</ele>
        <time>2026-03-12T22:12:27Z</time>
      </trkpt>
      <trkpt lat="47.2922" lon="-0.15395">
        <ele>85</ele>
        <time>2026-03-12T22:13:14Z</time>
      </trkpt>
      <trkpt lat="47.29242" lon="-0.15351">
        <ele>85</ele>
        <time>2026-03-12T22:13:23Z</time>
      </trkpt>
      <trkpt lat="47.29302" lon="-0.15199">
        <ele>83</ele>
        <time>2026-03-12T22:13:51Z</time>
      </trkpt>
      <trkpt lat="47.29352" lon="-0.15098">
        <ele>84</ele>
        <time>2026-03-12T22:14:11Z</time>
      </trkpt>
      <trkpt lat="47.29359" lon="-0.15078">
        <ele>84</ele>
        <time>2026-03-12T22:14:14Z</time>
      </trkpt>
      <trkpt lat="47.29356" lon="-0.15059">
        <ele>84</ele>
        <time>2026-03-12T22:14:17Z</time>
      </trkpt>
      <trkpt lat="47.29348" lon="-0.15045">
        <ele>83</ele>
        <time>2026-03-12T22:14:20Z</time>
      </trkpt>
      <trkpt lat="47.29149" lon="-0.14803">
        <ele>78</ele>
        <time>2026-03-12T22:15:20Z</time>
      </trkpt>
      <trkpt lat="47.2914" lon="-0.14794">
        <ele>78</ele>
        <time>2026-03-12T22:15:23Z</time>
      </trkpt>
      <trkpt lat="47.29131" lon="-0.14794">
        <ele>78</ele>
        <time>2026-03-12T22:15:25Z</time>
      </trkpt>
      <trkpt lat="47.29115" lon="-0.14805">
        <ele>77</ele>
        <time>2026-03-12T22:15:29Z</time>
      </trkpt>
      <trkpt lat="47.29087" lon="-0.14833">
        <ele>77</ele>
        <time>2026-03-12T22:15:37Z</time>
      </trkpt>
      <trkpt lat="47.29038" lon="-0.1487">
        <ele>78</ele>
        <time>2026-03-12T22:15:50Z</time>
      </trkpt>
      <trkpt lat="47.29012" lon="-0.14894">
        <ele>78</ele>
        <time>2026-03-12T22:15:57Z</time>
      </trkpt>
      <trkpt lat="47.28921" lon="-0.14989">
        <ele>81</ele>
        <time>2026-03-12T22:16:23Z</time>
      </trkpt>
      <trkpt lat="47.28864" lon="-0.15054">
        <ele>83</ele>
        <time>2026-03-12T22:16:40Z</time>
      </trkpt>
      <trkpt lat="47.28771" lon="-0.15176">
        <ele>87</ele>
        <time>2026-03-12T22:17:09Z</time>
      </trkpt>
      <trkpt lat="47.28663" lon="-0.15352">
        <ele>93</ele>
        <time>2026-03-12T22:17:47Z</time>
      </trkpt>
      <trkpt lat="47.28612" lon="-0.15407">
        <ele>91</ele>
        <time>2026-03-12T22:18:01Z</time>
      </trkpt>
      <trkpt lat="47.28579" lon="-0.15451">
        <ele>90</ele>
        <time>2026-03-12T22:18:12Z</time>
      </trkpt>
      <trkpt lat="47.28562" lon="-0.15479">
        <ele>90</ele>
        <time>2026-03-12T22:18:18Z</time>
      </trkpt>
      <trkpt lat="47.28548" lon="-0.1549">
        <ele>90</ele>
        <time>2026-03-12T22:18:21Z</time>
      </trkpt>
      <trkpt lat="47.28473" lon="-0.15506">
        <ele>90</ele>
        <time>2026-03-12T22:18:39Z</time>
      </trkpt>
      <trkpt lat="47.28463" lon="-0.15504">
        <ele>90</ele>
        <time>2026-03-12T22:18:41Z</time>
      </trkpt>
      <trkpt lat="47.2846" lon="-0.15501">
        <ele>90</ele>
        <time>2026-03-12T22:18:42Z</time>
      </trkpt>
      <trkpt lat="47.28451" lon="-0.15471">
        <ele>89</ele>
        <time>2026-03-12T22:18:48Z</time>
      </trkpt>
      <trkpt lat="47.28429" lon="-0.15332">
        <ele>89</ele>
        <time>2026-03-12T22:19:10Z</time>
      </trkpt>
      <trkpt lat="47.28422" lon="-0.1521">
        <ele>91</ele>
        <time>2026-03-12T22:19:30Z</time>
      </trkpt>
      <trkpt lat="47.28419" lon="-0.15198">
        <ele>91</ele>
        <time>2026-03-12T22:19:32Z</time>
      </trkpt>
      <trkpt lat="47.28411" lon="-0.1519">
        <ele>91</ele>
        <time>2026-03-12T22:19:34Z</time>
      </trkpt>
      <trkpt lat="47.2836" lon="-0.15167">
        <ele>88</ele>
        <time>2026-03-12T22:19:46Z</time>
      </trkpt>
      <trkpt lat="47.28315" lon="-0.1514">
        <ele>87</ele>
        <time>2026-03-12T22:19:58Z</time>
      </trkpt>
      <trkpt lat="47.28299" lon="-0.15135">
        <ele>87</ele>
        <time>2026-03-12T22:20:01Z</time>
      </trkpt>
      <trkpt lat="47.28282" lon="-0.15136">
        <ele>87</ele>
        <time>2026-03-12T22:20:05Z</time>
      </trkpt>
      <trkpt lat="47.28134" lon="-0.1516">
        <ele>85</ele>
        <time>2026-03-12T22:20:40Z</time>
      </trkpt>
      <trkpt lat="47.28096" lon="-0.15161">
        <ele>86</ele>
        <time>2026-03-12T22:20:49Z</time>
      </trkpt>
      <trkpt lat="47.28079" lon="-0.15158">
        <ele>86</ele>
        <time>2026-03-12T22:20:53Z</time>
      </trkpt>
      <trkpt lat="47.28039" lon="-0.15131">
        <ele>86</ele>
        <time>2026-03-12T22:21:03Z</time>
      </trkpt>
      <trkpt lat="47.27932" lon="-0.15043">
        <ele>87</ele>
        <time>2026-03-12T22:21:32Z</time>
      </trkpt>
      <trkpt lat="47.27911" lon="-0.15019">
        <ele>87</ele>
        <time>2026-03-12T22:21:38Z</time>
      </trkpt>
      <trkpt lat="47.27898" lon="-0.1499">
        <ele>87</ele>
        <time>2026-03-12T22:21:44Z</time>
      </trkpt>
      <trkpt lat="47.27885" lon="-0.14906">
        <ele>87</ele>
        <time>2026-03-12T22:21:57Z</time>
      </trkpt>
      <trkpt lat="47.27895" lon="-0.14679">
        <ele>87</ele>
        <time>2026-03-12T22:22:33Z</time>
      </trkpt>
      <trkpt lat="47.27894" lon="-0.14532">
        <ele>87</ele>
        <time>2026-03-12T22:22:57Z</time>
      </trkpt>
      <trkpt lat="47.27884" lon="-0.14454">
        <ele>87</ele>
        <time>2026-03-12T22:23:09Z</time>
      </trkpt>
      <trkpt lat="47.27871" lon="-0.14387">
        <ele>86</ele>
        <time>2026-03-12T22:23:20Z</time>
      </trkpt>
      <trkpt lat="47.27859" lon="-0.14346">
        <ele>86</ele>
        <time>2026-03-12T22:23:27Z</time>
      </trkpt>
      <trkpt lat="47.27801" lon="-0.14214">
        <ele>84</ele>
        <time>2026-03-12T22:23:52Z</time>
      </trkpt>
      <trkpt lat="47.27795" lon="-0.14196">
        <ele>84</ele>
        <time>2026-03-12T22:23:55Z</time>
      </trkpt>
      <trkpt lat="47.27773" lon="-0.14091">
        <ele>80</ele>
        <time>2026-03-12T22:24:13Z</time>
      </trkpt>
      <trkpt lat="47.2777" lon="-0.14044">
        <ele>79</ele>
        <time>2026-03-12T22:24:20Z</time>
      </trkpt>
      <trkpt lat="47.27768" lon="-0.13934">
        <ele>78</ele>
        <time>2026-03-12T22:24:38Z</time>
      </trkpt>
      <trkpt lat="47.27772" lon="-0.13906">
        <ele>78</ele>
        <time>2026-03-12T22:24:42Z</time>
      </trkpt>
      <trkpt lat="47.27786" lon="-0.13871">
        <ele>80</ele>
        <time>2026-03-12T22:24:49Z</time>
      </trkpt>
      <trkpt lat="47.2779" lon="-0.13853">
        <ele>80</ele>
        <time>2026-03-12T22:24:52Z</time>
      </trkpt>
      <trkpt lat="47.27795" lon="-0.13727">
        <ele>80</ele>
        <time>2026-03-12T22:25:12Z</time>
      </trkpt>
      <trkpt lat="47.27793" lon="-0.13676">
        <ele>80</ele>
        <time>2026-03-12T22:25:20Z</time>
      </trkpt>
      <trkpt lat="47.27788" lon="-0.1365">
        <ele>80</ele>
        <time>2026-03-12T22:25:24Z</time>
      </trkpt>
      <trkpt lat="47.27778" lon="-0.13623">
        <ele>79</ele>
        <time>2026-03-12T22:25:29Z</time>
      </trkpt>
      <trkpt lat="47.27767" lon="-0.136">
        <ele>79</ele>
        <time>2026-03-12T22:25:33Z</time>
      </trkpt>
      <trkpt lat="47.27758" lon="-0.13587">
        <ele>78</ele>
        <time>2026-03-12T22:25:36Z</time>
      </trkpt>
      <trkpt lat="47.27716" lon="-0.13548">
        <ele>77</ele>
        <time>2026-03-12T22:25:48Z</time>
      </trkpt>
      <trkpt lat="47.27694" lon="-0.13536">
        <ele>76</ele>
        <time>2026-03-12T22:25:53Z</time>
      </trkpt>
      <trkpt lat="47.27669" lon="-0.13537">
        <ele>74</ele>
        <time>2026-03-12T22:25:59Z</time>
      </trkpt>
      <trkpt lat="47.27627" lon="-0.13558">
        <ele>71</ele>
        <time>2026-03-12T22:26:10Z</time>
      </trkpt>
      <trkpt lat="47.27465" lon="-0.13663">
        <ele>65</ele>
        <time>2026-03-12T22:26:51Z</time>
      </trkpt>
      <trkpt lat="47.27388" lon="-0.13706">
        <ele>63</ele>
        <time>2026-03-12T22:27:10Z</time>
      </trkpt>
      <trkpt lat="47.27382" lon="-0.13709">
        <ele>63</ele>
        <time>2026-03-12T22:27:12Z</time>
      </trkpt>
      <trkpt lat="47.27375" lon="-0.13709">
        <ele>62</ele>
        <time>2026-03-12T22:27:13Z</time>
      </trkpt>
      <trkpt lat="47.27367" lon="-0.13697">
        <ele>62</ele>
        <time>2026-03-12T22:27:16Z</time>
      </trkpt>
      <trkpt lat="47.27352" lon="-0.13634">
        <ele>63</ele>
        <time>2026-03-12T22:27:27Z</time>
      </trkpt>
      <trkpt lat="47.27305" lon="-0.13496">
        <ele>65</ele>
        <time>2026-03-12T22:27:51Z</time>
      </trkpt>
      <trkpt lat="47.27258" lon="-0.13382">
        <ele>65</ele>
        <time>2026-03-12T22:28:12Z</time>
      </trkpt>
      <trkpt lat="47.27207" lon="-0.13206">
        <ele>64</ele>
        <time>2026-03-12T22:28:42Z</time>
      </trkpt>
      <trkpt lat="47.272" lon="-0.13169">
        <ele>63</ele>
        <time>2026-03-12T22:28:49Z</time>
      </trkpt>
      <trkpt lat="47.27197" lon="-0.13132">
        <ele>61</ele>
        <time>2026-03-12T22:28:54Z</time>
      </trkpt>
      <trkpt lat="47.27194" lon="-0.13128">
        <ele>61</ele>
        <time>2026-03-12T22:28:55Z</time>
      </trkpt>
      <trkpt lat="47.27191" lon="-0.13129">
        <ele>61</ele>
        <time>2026-03-12T22:28:56Z</time>
      </trkpt>
      <trkpt lat="47.27178" lon="-0.13154">
        <ele>63</ele>
        <time>2026-03-12T22:29:01Z</time>
      </trkpt>
      <trkpt lat="47.27134" lon="-0.13205">
        <ele>65</ele>
        <time>2026-03-12T22:29:14Z</time>
      </trkpt>
      <trkpt lat="47.27122" lon="-0.13215">
        <ele>65</ele>
        <time>2026-03-12T22:29:17Z</time>
      </trkpt>
      <trkpt lat="47.27095" lon="-0.1323">
        <ele>65</ele>
        <time>2026-03-12T22:29:24Z</time>
      </trkpt>
      <trkpt lat="47.27064" lon="-0.13258">
        <ele>63</ele>
        <time>2026-03-12T22:29:33Z</time>
      </trkpt>
      <trkpt lat="47.27038" lon="-0.13271">
        <ele>61</ele>
        <time>2026-03-12T22:29:39Z</time>
      </trkpt>
      <trkpt lat="47.27006" lon="-0.13265">
        <ele>58</ele>
        <time>2026-03-12T22:29:47Z</time>
      </trkpt>
      <trkpt lat="47.26981" lon="-0.13268">
        <ele>58</ele>
        <time>2026-03-12T22:29:52Z</time>
      </trkpt>
      <trkpt lat="47.26963" lon="-0.1328">
        <ele>58</ele>
        <time>2026-03-12T22:29:57Z</time>
      </trkpt>
      <trkpt lat="47.26957" lon="-0.13293">
        <ele>59</ele>
        <time>2026-03-12T22:30:00Z</time>
      </trkpt>
      <trkpt lat="47.26957" lon="-0.1331">
        <ele>59</ele>
        <time>2026-03-12T22:30:02Z</time>
      </trkpt>
      <trkpt lat="47.26963" lon="-0.13337">
        <ele>59</ele>
        <time>2026-03-12T22:30:07Z</time>
      </trkpt>
      <trkpt lat="47.26958" lon="-0.13363">
        <ele>59</ele>
        <time>2026-03-12T22:30:11Z</time>
      </trkpt>
      <trkpt lat="47.26955" lon="-0.13412">
        <ele>59</ele>
        <time>2026-03-12T22:30:19Z</time>
      </trkpt>
      <trkpt lat="47.26961" lon="-0.13443">
        <ele>60</ele>
        <time>2026-03-12T22:30:24Z</time>
      </trkpt>
      <trkpt lat="47.26962" lon="-0.13469">
        <ele>60</ele>
        <time>2026-03-12T22:30:28Z</time>
      </trkpt>
      <trkpt lat="47.26978" lon="-0.13539">
        <ele>61</ele>
        <time>2026-03-12T22:30:40Z</time>
      </trkpt>
      <trkpt lat="47.2698" lon="-0.13564">
        <ele>61</ele>
        <time>2026-03-12T22:30:44Z</time>
      </trkpt>
      <trkpt lat="47.26992" lon="-0.13624">
        <ele>62</ele>
        <time>2026-03-12T22:30:54Z</time>
      </trkpt>
      <trkpt lat="47.26992" lon="-0.1371">
        <ele>64</ele>
        <time>2026-03-12T22:31:07Z</time>
      </trkpt>
      <trkpt lat="47.26989" lon="-0.13723">
        <ele>64</ele>
        <time>2026-03-12T22:31:09Z</time>
      </trkpt>
      <trkpt lat="47.26988" lon="-0.13752">
        <ele>65</ele>
        <time>2026-03-12T22:31:14Z</time>
      </trkpt>
      <trkpt lat="47.26979" lon="-0.13781">
        <ele>67</ele>
        <time>2026-03-12T22:31:19Z</time>
      </trkpt>
      <trkpt lat="47.26977" lon="-0.13801">
        <ele>67</ele>
        <time>2026-03-12T22:31:22Z</time>
      </trkpt>
      <trkpt lat="47.2699" lon="-0.13872">
        <ele>68</ele>
        <time>2026-03-12T22:31:34Z</time>
      </trkpt>
      <trkpt lat="47.26992" lon="-0.13911">
        <ele>68</ele>
        <time>2026-03-12T22:31:40Z</time>
      </trkpt>
      <trkpt lat="47.26993" lon="-0.13967">
        <ele>69</ele>
        <time>2026-03-12T22:31:49Z</time>
      </trkpt>
      <trkpt lat="47.26991" lon="-0.13994">
        <ele>70</ele>
        <time>2026-03-12T22:31:53Z</time>
      </trkpt>
      <trkpt lat="47.26993" lon="-0.14014">
        <ele>70</ele>
        <time>2026-03-12T22:31:57Z</time>
      </trkpt>
      <trkpt lat="47.26988" lon="-0.14063">
        <ele>71</ele>
        <time>2026-03-12T22:32:04Z</time>
      </trkpt>
      <trkpt lat="47.2699" lon="-0.14088">
        <ele>71</ele>
        <time>2026-03-12T22:32:08Z</time>
      </trkpt>
      <trkpt lat="47.26986" lon="-0.14132">
        <ele>70</ele>
        <time>2026-03-12T22:32:15Z</time>
      </trkpt>
      <trkpt lat="47.26987" lon="-0.14179">
        <ele>70</ele>
        <time>2026-03-12T22:32:23Z</time>
      </trkpt>
      <trkpt lat="47.26976" lon="-0.1427">
        <ele>70</ele>
        <time>2026-03-12T22:32:38Z</time>
      </trkpt>
      <trkpt lat="47.26966" lon="-0.14296">
        <ele>71</ele>
        <time>2026-03-12T22:32:42Z</time>
      </trkpt>
      <trkpt lat="47.26962" lon="-0.14314">
        <ele>71</ele>
        <time>2026-03-12T22:32:45Z</time>
      </trkpt>
      <trkpt lat="47.26948" lon="-0.14349">
        <ele>71</ele>
        <time>2026-03-12T22:32:52Z</time>
      </trkpt>
      <trkpt lat="47.26926" lon="-0.14391">
        <ele>71</ele>
        <time>2026-03-12T22:33:00Z</time>
      </trkpt>
      <trkpt lat="47.26898" lon="-0.14425">
        <ele>72</ele>
        <time>2026-03-12T22:33:09Z</time>
      </trkpt>
      <trkpt lat="47.26886" lon="-0.14448">
        <ele>72</ele>
        <time>2026-03-12T22:33:13Z</time>
      </trkpt>
      <trkpt lat="47.26876" lon="-0.14487">
        <ele>72</ele>
        <time>2026-03-12T22:33:20Z</time>
      </trkpt>
      <trkpt lat="47.26862" lon="-0.1451">
        <ele>72</ele>
        <time>2026-03-12T22:33:25Z</time>
      </trkpt>
      <trkpt lat="47.26855" lon="-0.14531">
        <ele>73</ele>
        <time>2026-03-12T22:33:28Z</time>
      </trkpt>
      <trkpt lat="47.26855" lon="-0.14543">
        <ele>73</ele>
        <time>2026-03-12T22:33:30Z</time>
      </trkpt>
      <trkpt lat="47.26859" lon="-0.14553">
        <ele>73</ele>
        <time>2026-03-12T22:33:32Z</time>
      </trkpt>
      <trkpt lat="47.26871" lon="-0.14573">
        <ele>73</ele>
        <time>2026-03-12T22:33:36Z</time>
      </trkpt>
      <trkpt lat="47.26887" lon="-0.14591">
        <ele>72</ele>
        <time>2026-03-12T22:33:41Z</time>
      </trkpt>
      <trkpt lat="47.2689" lon="-0.14603">
        <ele>72</ele>
        <time>2026-03-12T22:33:43Z</time>
      </trkpt>
      <trkpt lat="47.26886" lon="-0.1461">
        <ele>72</ele>
        <time>2026-03-12T22:33:45Z</time>
      </trkpt>
      <trkpt lat="47.26869" lon="-0.14615">
        <ele>74</ele>
        <time>2026-03-12T22:33:49Z</time>
      </trkpt>
      <trkpt lat="47.26856" lon="-0.14624">
        <ele>75</ele>
        <time>2026-03-12T22:33:52Z</time>
      </trkpt>
      <trkpt lat="47.26839" lon="-0.14629">
        <ele>76</ele>
        <time>2026-03-12T22:33:56Z</time>
      </trkpt>
      <trkpt lat="47.26826" lon="-0.14639">
        <ele>77</ele>
        <time>2026-03-12T22:33:59Z</time>
      </trkpt>
      <trkpt lat="47.26814" lon="-0.14643">
        <ele>78</ele>
        <time>2026-03-12T22:34:02Z</time>
      </trkpt>
      <trkpt lat="47.26805" lon="-0.14651">
        <ele>78</ele>
        <time>2026-03-12T22:34:05Z</time>
      </trkpt>
      <trkpt lat="47.26799" lon="-0.14664">
        <ele>78</ele>
        <time>2026-03-12T22:34:07Z</time>
      </trkpt>
      <trkpt lat="47.26795" lon="-0.14725">
        <ele>80</ele>
        <time>2026-03-12T22:34:17Z</time>
      </trkpt>
      <trkpt lat="47.268" lon="-0.14785">
        <ele>81</ele>
        <time>2026-03-12T22:34:27Z</time>
      </trkpt>
      <trkpt lat="47.26811" lon="-0.14826">
        <ele>82</ele>
        <time>2026-03-12T22:34:34Z</time>
      </trkpt>
      <trkpt lat="47.26814" lon="-0.14846">
        <ele>82</ele>
        <time>2026-03-12T22:34:37Z</time>
      </trkpt>
      <trkpt lat="47.2682" lon="-0.14855">
        <ele>82</ele>
        <time>2026-03-12T22:34:39Z</time>
      </trkpt>
      <trkpt lat="47.26824" lon="-0.14873">
        <ele>82</ele>
        <time>2026-03-12T22:34:42Z</time>
      </trkpt>
      <trkpt lat="47.26834" lon="-0.14897">
        <ele>81</ele>
        <time>2026-03-12T22:34:46Z</time>
      </trkpt>
      <trkpt lat="47.26839" lon="-0.14924">
        <ele>81</ele>
        <time>2026-03-12T22:34:51Z</time>
      </trkpt>
      <trkpt lat="47.26839" lon="-0.14955">
        <ele>81</ele>
        <time>2026-03-12T22:34:56Z</time>
      </trkpt>
      <trkpt lat="47.26833" lon="-0.14976">
        <ele>81</ele>
        <time>2026-03-12T22:34:59Z</time>
      </trkpt>
      <trkpt lat="47.26831" lon="-0.14997">
        <ele>81</ele>
        <time>2026-03-12T22:35:03Z</time>
      </trkpt>
      <trkpt lat="47.26831" lon="-0.15048">
        <ele>82</ele>
        <time>2026-03-12T22:35:11Z</time>
      </trkpt>
      <trkpt lat="47.26819" lon="-0.15081">
        <ele>83</ele>
        <time>2026-03-12T22:35:17Z</time>
      </trkpt>
      <trkpt lat="47.26815" lon="-0.15085">
        <ele>83</ele>
        <time>2026-03-12T22:35:18Z</time>
      </trkpt>
      <trkpt lat="47.268" lon="-0.15088">
        <ele>83</ele>
        <time>2026-03-12T22:35:21Z</time>
      </trkpt>
      <trkpt lat="47.26781" lon="-0.15098">
        <ele>83</ele>
        <time>2026-03-12T22:35:26Z</time>
      </trkpt>
      <trkpt lat="47.26753" lon="-0.15103">
        <ele>83</ele>
        <time>2026-03-12T22:35:33Z</time>
      </trkpt>
      <trkpt lat="47.26739" lon="-0.15165">
        <ele>84</ele>
        <time>2026-03-12T22:35:43Z</time>
      </trkpt>
      <trkpt lat="47.26752" lon="-0.15196">
        <ele>84</ele>
        <time>2026-03-12T22:35:49Z</time>
      </trkpt>
      <trkpt lat="47.2678" lon="-0.15235">
        <ele>84</ele>
        <time>2026-03-12T22:35:58Z</time>
      </trkpt>
      <trkpt lat="47.26794" lon="-0.15263">
        <ele>84</ele>
        <time>2026-03-12T22:36:03Z</time>
      </trkpt>
      <trkpt lat="47.26802" lon="-0.15286">
        <ele>84</ele>
        <time>2026-03-12T22:36:07Z</time>
      </trkpt>
      <trkpt lat="47.2679" lon="-0.15325">
        <ele>85</ele>
        <time>2026-03-12T22:36:14Z</time>
      </trkpt>
      <trkpt lat="47.26785" lon="-0.15333">
        <ele>85</ele>
        <time>2026-03-12T22:36:16Z</time>
      </trkpt>
      <trkpt lat="47.26772" lon="-0.15338">
        <ele>85</ele>
        <time>2026-03-12T22:36:19Z</time>
      </trkpt>
      <trkpt lat="47.26752" lon="-0.15335">
        <ele>85</ele>
        <time>2026-03-12T22:36:24Z</time>
      </trkpt>
      <trkpt lat="47.2674" lon="-0.15353">
        <ele>86</ele>
        <time>2026-03-12T22:36:28Z</time>
      </trkpt>
      <trkpt lat="47.26716" lon="-0.15353">
        <ele>86</ele>
        <time>2026-03-12T22:36:33Z</time>
      </trkpt>
      <trkpt lat="47.26702" lon="-0.15344">
        <ele>85</ele>
        <time>2026-03-12T22:36:37Z</time>
      </trkpt>
      <trkpt lat="47.26696" lon="-0.15335">
        <ele>85</ele>
        <time>2026-03-12T22:36:39Z</time>
      </trkpt>
      <trkpt lat="47.26685" lon="-0.1533">
        <ele>85</ele>
        <time>2026-03-12T22:36:41Z</time>
      </trkpt>
      <trkpt lat="47.26681" lon="-0.15333">
        <ele>85</ele>
        <time>2026-03-12T22:36:43Z</time>
      </trkpt>
      <trkpt lat="47.26681" lon="-0.1534">
        <ele>85</ele>
        <time>2026-03-12T22:36:44Z</time>
      </trkpt>
      <trkpt lat="47.26678" lon="-0.15343">
        <ele>85</ele>
        <time>2026-03-12T22:36:44Z</time>
      </trkpt>
      <trkpt lat="47.26661" lon="-0.15343">
        <ele>85</ele>
        <time>2026-03-12T22:36:48Z</time>
      </trkpt>
      <trkpt lat="47.26657" lon="-0.15347">
        <ele>85</ele>
        <time>2026-03-12T22:36:50Z</time>
      </trkpt>
      <trkpt lat="47.26662" lon="-0.15397">
        <ele>87</ele>
        <time>2026-03-12T22:36:58Z</time>
      </trkpt>
      <trkpt lat="47.26663" lon="-0.15437">
        <ele>88</ele>
        <time>2026-03-12T22:37:04Z</time>
      </trkpt>
      <trkpt lat="47.2666" lon="-0.15459">
        <ele>88</ele>
        <time>2026-03-12T22:37:07Z</time>
      </trkpt>
      <trkpt lat="47.26663" lon="-0.15498">
        <ele>88</ele>
        <time>2026-03-12T22:37:14Z</time>
      </trkpt>
      <trkpt lat="47.26662" lon="-0.15513">
        <ele>87</ele>
        <time>2026-03-12T22:37:16Z</time>
      </trkpt>
      <trkpt lat="47.26678" lon="-0.1559">
        <ele>86</ele>
        <time>2026-03-12T22:37:29Z</time>
      </trkpt>
      <trkpt lat="47.26688" lon="-0.15612">
        <ele>87</ele>
        <time>2026-03-12T22:37:33Z</time>
      </trkpt>
      <trkpt lat="47.26699" lon="-0.15674">
        <ele>89</ele>
        <time>2026-03-12T22:37:43Z</time>
      </trkpt>
      <trkpt lat="47.26699" lon="-0.15737">
        <ele>88</ele>
        <time>2026-03-12T22:37:53Z</time>
      </trkpt>
      <trkpt lat="47.26694" lon="-0.15788">
        <ele>88</ele>
        <time>2026-03-12T22:38:01Z</time>
      </trkpt>
      <trkpt lat="47.26702" lon="-0.15835">
        <ele>88</ele>
        <time>2026-03-12T22:38:09Z</time>
      </trkpt>
      <trkpt lat="47.26709" lon="-0.15919">
        <ele>88</ele>
        <time>2026-03-12T22:38:22Z</time>
      </trkpt>
      <trkpt lat="47.26704" lon="-0.15951">
        <ele>87</ele>
        <time>2026-03-12T22:38:28Z</time>
      </trkpt>
      <trkpt lat="47.26694" lon="-0.1598">
        <ele>86</ele>
        <time>2026-03-12T22:38:33Z</time>
      </trkpt>
      <trkpt lat="47.26686" lon="-0.15992">
        <ele>85</ele>
        <time>2026-03-12T22:38:35Z</time>
      </trkpt>
      <trkpt lat="47.2663" lon="-0.16043">
        <ele>82</ele>
        <time>2026-03-12T22:38:51Z</time>
      </trkpt>
      <trkpt lat="47.26607" lon="-0.16085">
        <ele>81</ele>
        <time>2026-03-12T22:38:59Z</time>
      </trkpt>
      <trkpt lat="47.266" lon="-0.16111">
        <ele>80</ele>
        <time>2026-03-12T22:39:04Z</time>
      </trkpt>
      <trkpt lat="47.26579" lon="-0.16165">
        <ele>79</ele>
        <time>2026-03-12T22:39:14Z</time>
      </trkpt>
      <trkpt lat="47.26538" lon="-0.16233">
        <ele>73</ele>
        <time>2026-03-12T22:39:28Z</time>
      </trkpt>
      <trkpt lat="47.26527" lon="-0.16244">
        <ele>72</ele>
        <time>2026-03-12T22:39:31Z</time>
      </trkpt>
      <trkpt lat="47.26483" lon="-0.16269">
        <ele>71</ele>
        <time>2026-03-12T22:39:42Z</time>
      </trkpt>
      <trkpt lat="47.26431" lon="-0.16315">
        <ele>69</ele>
        <time>2026-03-12T22:39:56Z</time>
      </trkpt>
      <trkpt lat="47.26419" lon="-0.16331">
        <ele>68</ele>
        <time>2026-03-12T22:40:00Z</time>
      </trkpt>
      <trkpt lat="47.26395" lon="-0.16374">
        <ele>67</ele>
        <time>2026-03-12T22:40:09Z</time>
      </trkpt>
      <trkpt lat="47.26394" lon="-0.16384">
        <ele>67</ele>
        <time>2026-03-12T22:40:11Z</time>
      </trkpt>
      <trkpt lat="47.26401" lon="-0.1641">
        <ele>66</ele>
        <time>2026-03-12T22:40:15Z</time>
      </trkpt>
      <trkpt lat="47.26401" lon="-0.16439">
        <ele>66</ele>
        <time>2026-03-12T22:40:20Z</time>
      </trkpt>
      <trkpt lat="47.26396" lon="-0.16452">
        <ele>66</ele>
        <time>2026-03-12T22:40:22Z</time>
      </trkpt>
      <trkpt lat="47.26381" lon="-0.16474">
        <ele>67</ele>
        <time>2026-03-12T22:40:27Z</time>
      </trkpt>
      <trkpt lat="47.26375" lon="-0.16474">
        <ele>67</ele>
        <time>2026-03-12T22:40:28Z</time>
      </trkpt>
      <trkpt lat="47.2634" lon="-0.16428">
        <ele>67</ele>
        <time>2026-03-12T22:40:39Z</time>
      </trkpt>
      <trkpt lat="47.26336" lon="-0.16425">
        <ele>67</ele>
        <time>2026-03-12T22:40:40Z</time>
      </trkpt>
      <trkpt lat="47.26331" lon="-0.16425">
        <ele>67</ele>
        <time>2026-03-12T22:40:41Z</time>
      </trkpt>
      <trkpt lat="47.26281" lon="-0.16461">
        <ele>68</ele>
        <time>2026-03-12T22:40:54Z</time>
      </trkpt>
      <trkpt lat="47.26254" lon="-0.16497">
        <ele>69</ele>
        <time>2026-03-12T22:41:03Z</time>
      </trkpt>
      <trkpt lat="47.2625" lon="-0.16507">
        <ele>69</ele>
        <time>2026-03-12T22:41:05Z</time>
      </trkpt>
      <trkpt lat="47.26249" lon="-0.16529">
        <ele>69</ele>
        <time>2026-03-12T22:41:08Z</time>
      </trkpt>
      <trkpt lat="47.26246" lon="-0.16533">
        <ele>70</ele>
        <time>2026-03-12T22:41:09Z</time>
      </trkpt>
      <trkpt lat="47.26238" lon="-0.16536">
        <ele>70</ele>
        <time>2026-03-12T22:41:11Z</time>
      </trkpt>
      <trkpt lat="47.26206" lon="-0.16541">
        <ele>71</ele>
        <time>2026-03-12T22:41:19Z</time>
      </trkpt>
      <trkpt lat="47.26156" lon="-0.16554">
        <ele>74</ele>
        <time>2026-03-12T22:41:31Z</time>
      </trkpt>
      <trkpt lat="47.26087" lon="-0.1656">
        <ele>75</ele>
        <time>2026-03-12T22:41:47Z</time>
      </trkpt>
      <trkpt lat="47.26049" lon="-0.16567">
        <ele>74</ele>
        <time>2026-03-12T22:41:56Z</time>
      </trkpt>
      <trkpt lat="47.25825" lon="-0.16588">
        <ele>75</ele>
        <time>2026-03-12T22:42:48Z</time>
      </trkpt>
      <trkpt lat="47.25777" lon="-0.16596">
        <ele>75</ele>
        <time>2026-03-12T22:42:59Z</time>
      </trkpt>
      <trkpt lat="47.25689" lon="-0.16605">
        <ele>76</ele>
        <time>2026-03-12T22:43:20Z</time>
      </trkpt>
      <trkpt lat="47.25586" lon="-0.16611">
        <ele>74</ele>
        <time>2026-03-12T22:43:44Z</time>
      </trkpt>
      <trkpt lat="47.25511" lon="-0.16619">
        <ele>76</ele>
        <time>2026-03-12T22:44:02Z</time>
      </trkpt>
      <trkpt lat="47.25502" lon="-0.16615">
        <ele>76</ele>
        <time>2026-03-12T22:44:04Z</time>
      </trkpt>
      <trkpt lat="47.255" lon="-0.16604">
        <ele>75</ele>
        <time>2026-03-12T22:44:06Z</time>
      </trkpt>
      <trkpt lat="47.25502" lon="-0.16578">
        <ele>75</ele>
        <time>2026-03-12T22:44:10Z</time>
      </trkpt>
      <trkpt lat="47.25502" lon="-0.16473">
        <ele>73</ele>
        <time>2026-03-12T22:44:26Z</time>
      </trkpt>
      <trkpt lat="47.25496" lon="-0.16345">
        <ele>74</ele>
        <time>2026-03-12T22:44:47Z</time>
      </trkpt>
      <trkpt lat="47.25508" lon="-0.1613">
        <ele>72</ele>
        <time>2026-03-12T22:45:21Z</time>
      </trkpt>
      <trkpt lat="47.25514" lon="-0.16091">
        <ele>71</ele>
        <time>2026-03-12T22:45:27Z</time>
      </trkpt>
      <trkpt lat="47.25525" lon="-0.16046">
        <ele>71</ele>
        <time>2026-03-12T22:45:35Z</time>
      </trkpt>
      <trkpt lat="47.25532" lon="-0.15992">
        <ele>70</ele>
        <time>2026-03-12T22:45:44Z</time>
      </trkpt>
      <trkpt lat="47.25545" lon="-0.15924">
        <ele>71</ele>
        <time>2026-03-12T22:45:55Z</time>
      </trkpt>
      <trkpt lat="47.25564" lon="-0.1581">
        <ele>70</ele>
        <time>2026-03-12T22:46:13Z</time>
      </trkpt>
      <trkpt lat="47.25569" lon="-0.15765">
        <ele>69</ele>
        <time>2026-03-12T22:46:21Z</time>
      </trkpt>
      <trkpt lat="47.25578" lon="-0.15727">
        <ele>69</ele>
        <time>2026-03-12T22:46:27Z</time>
      </trkpt>
      <trkpt lat="47.25581" lon="-0.157">
        <ele>69</ele>
        <time>2026-03-12T22:46:31Z</time>
      </trkpt>
      <trkpt lat="47.25579" lon="-0.15644">
        <ele>69</ele>
        <time>2026-03-12T22:46:40Z</time>
      </trkpt>
      <trkpt lat="47.25552" lon="-0.15505">
        <ele>64</ele>
        <time>2026-03-12T22:47:03Z</time>
      </trkpt>
      <trkpt lat="47.25551" lon="-0.1549">
        <ele>63</ele>
        <time>2026-03-12T22:47:05Z</time>
      </trkpt>
      <trkpt lat="47.25553" lon="-0.15483">
        <ele>63</ele>
        <time>2026-03-12T22:47:07Z</time>
      </trkpt>
      <trkpt lat="47.25562" lon="-0.15471">
        <ele>63</ele>
        <time>2026-03-12T22:47:10Z</time>
      </trkpt>
      <trkpt lat="47.25596" lon="-0.15443">
        <ele>63</ele>
        <time>2026-03-12T22:47:19Z</time>
      </trkpt>
      <trkpt lat="47.25647" lon="-0.15354">
        <ele>64</ele>
        <time>2026-03-12T22:47:37Z</time>
      </trkpt>
      <trkpt lat="47.25659" lon="-0.15343">
        <ele>64</ele>
        <time>2026-03-12T22:47:40Z</time>
      </trkpt>
      <trkpt lat="47.25668" lon="-0.15344">
        <ele>64</ele>
        <time>2026-03-12T22:47:42Z</time>
      </trkpt>
      <trkpt lat="47.25688" lon="-0.15357">
        <ele>64</ele>
        <time>2026-03-12T22:47:48Z</time>
      </trkpt>
      <trkpt lat="47.2572" lon="-0.15369">
        <ele>65</ele>
        <time>2026-03-12T22:47:55Z</time>
      </trkpt>
      <trkpt lat="47.25774" lon="-0.15369">
        <ele>65</ele>
        <time>2026-03-12T22:48:08Z</time>
      </trkpt>
      <trkpt lat="47.25789" lon="-0.15365">
        <ele>65</ele>
        <time>2026-03-12T22:48:11Z</time>
      </trkpt>
      <trkpt lat="47.25817" lon="-0.15348">
        <ele>65</ele>
        <time>2026-03-12T22:48:19Z</time>
      </trkpt>
      <trkpt lat="47.25841" lon="-0.15337">
        <ele>65</ele>
        <time>2026-03-12T22:48:24Z</time>
      </trkpt>
      <trkpt lat="47.2586" lon="-0.15334">
        <ele>65</ele>
        <time>2026-03-12T22:48:29Z</time>
      </trkpt>
      <trkpt lat="47.25883" lon="-0.15334">
        <ele>65</ele>
        <time>2026-03-12T22:48:34Z</time>
      </trkpt>
      <trkpt lat="47.25917" lon="-0.15323">
        <ele>65</ele>
        <time>2026-03-12T22:48:42Z</time>
      </trkpt>
      <trkpt lat="47.25954" lon="-0.15298">
        <ele>66</ele>
        <time>2026-03-12T22:48:52Z</time>
      </trkpt>
      <trkpt lat="47.25972" lon="-0.15278">
        <ele>66</ele>
        <time>2026-03-12T22:48:57Z</time>
      </trkpt>
      <trkpt lat="47.2607" lon="-0.15151">
        <ele>66</ele>
        <time>2026-03-12T22:49:28Z</time>
      </trkpt>
      <trkpt lat="47.26099" lon="-0.15123">
        <ele>67</ele>
        <time>2026-03-12T22:49:36Z</time>
      </trkpt>
      <trkpt lat="47.26104" lon="-0.15113">
        <ele>68</ele>
        <time>2026-03-12T22:49:38Z</time>
      </trkpt>
      <trkpt lat="47.26126" lon="-0.15089">
        <ele>69</ele>
        <time>2026-03-12T22:49:44Z</time>
      </trkpt>
      <trkpt lat="47.26141" lon="-0.15078">
        <ele>69</ele>
        <time>2026-03-12T22:49:48Z</time>
      </trkpt>
      <trkpt lat="47.26156" lon="-0.15063">
        <ele>68</ele>
        <time>2026-03-12T22:49:52Z</time>
      </trkpt>
      <trkpt lat="47.2617" lon="-0.15057">
        <ele>68</ele>
        <time>2026-03-12T22:49:56Z</time>
      </trkpt>
      <trkpt lat="47.26185" lon="-0.15054">
        <ele>68</ele>
        <time>2026-03-12T22:49:59Z</time>
      </trkpt>
      <trkpt lat="47.26199" lon="-0.15046">
        <ele>69</ele>
        <time>2026-03-12T22:50:03Z</time>
      </trkpt>
      <trkpt lat="47.26212" lon="-0.15031">
        <ele>69</ele>
        <time>2026-03-12T22:50:07Z</time>
      </trkpt>
      <trkpt lat="47.26245" lon="-0.14984">
        <ele>72</ele>
        <time>2026-03-12T22:50:17Z</time>
      </trkpt>
      <trkpt lat="47.26275" lon="-0.14953">
        <ele>75</ele>
        <time>2026-03-12T22:50:26Z</time>
      </trkpt>
      <trkpt lat="47.26293" lon="-0.14942">
        <ele>77</ele>
        <time>2026-03-12T22:50:30Z</time>
      </trkpt>
      <trkpt lat="47.26387" lon="-0.14828">
        <ele>86</ele>
        <time>2026-03-12T22:50:59Z</time>
      </trkpt>
      <trkpt lat="47.26397" lon="-0.1482">
        <ele>87</ele>
        <time>2026-03-12T22:51:01Z</time>
      </trkpt>
      <trkpt lat="47.26408" lon="-0.14804">
        <ele>88</ele>
        <time>2026-03-12T22:51:05Z</time>
      </trkpt>
      <trkpt lat="47.26413" lon="-0.14789">
        <ele>89</ele>
        <time>2026-03-12T22:51:08Z</time>
      </trkpt>
      <trkpt lat="47.26439" lon="-0.14751">
        <ele>90</ele>
        <time>2026-03-12T22:51:16Z</time>
      </trkpt>
      <trkpt lat="47.26449" lon="-0.14743">
        <ele>90</ele>
        <time>2026-03-12T22:51:19Z</time>
      </trkpt>
      <trkpt lat="47.26459" lon="-0.14746">
        <ele>90</ele>
        <time>2026-03-12T22:51:21Z</time>
      </trkpt>
      <trkpt lat="47.2647" lon="-0.1474">
        <ele>90</ele>
        <time>2026-03-12T22:51:24Z</time>
      </trkpt>
      <trkpt lat="47.26482" lon="-0.14714">
        <ele>91</ele>
        <time>2026-03-12T22:51:29Z</time>
      </trkpt>
      <trkpt lat="47.26487" lon="-0.14697">
        <ele>91</ele>
        <time>2026-03-12T22:51:32Z</time>
      </trkpt>
      <trkpt lat="47.26592" lon="-0.14651">
        <ele>88</ele>
        <time>2026-03-12T22:51:58Z</time>
      </trkpt>
      <trkpt lat="47.26608" lon="-0.1464">
        <ele>87</ele>
        <time>2026-03-12T22:52:02Z</time>
      </trkpt>
      <trkpt lat="47.26688" lon="-0.14627">
        <ele>82</ele>
        <time>2026-03-12T22:52:20Z</time>
      </trkpt>
      <trkpt lat="47.26706" lon="-0.14622">
        <ele>81</ele>
        <time>2026-03-12T22:52:25Z</time>
      </trkpt>
      <trkpt lat="47.26715" lon="-0.14616">
        <ele>81</ele>
        <time>2026-03-12T22:52:27Z</time>
      </trkpt>
      <trkpt lat="47.26719" lon="-0.14607">
        <ele>81</ele>
        <time>2026-03-12T22:52:29Z</time>
      </trkpt>
      <trkpt lat="47.26721" lon="-0.146">
        <ele>81</ele>
        <time>2026-03-12T22:52:30Z</time>
      </trkpt>
      <trkpt lat="47.26718" lon="-0.14585">
        <ele>81</ele>
        <time>2026-03-12T22:52:32Z</time>
      </trkpt>
      <trkpt lat="47.26713" lon="-0.14458">
        <ele>82</ele>
        <time>2026-03-12T22:52:53Z</time>
      </trkpt>
      <trkpt lat="47.26716" lon="-0.14364">
        <ele>83</ele>
        <time>2026-03-12T22:53:08Z</time>
      </trkpt>
      <trkpt lat="47.26721" lon="-0.14347">
        <ele>82</ele>
        <time>2026-03-12T22:53:10Z</time>
      </trkpt>
      <trkpt lat="47.26797" lon="-0.14171">
        <ele>78</ele>
        <time>2026-03-12T22:53:43Z</time>
      </trkpt>
      <trkpt lat="47.26796" lon="-0.14136">
        <ele>78</ele>
        <time>2026-03-12T22:53:49Z</time>
      </trkpt>
      <trkpt lat="47.26803" lon="-0.1403">
        <ele>76</ele>
        <time>2026-03-12T22:54:06Z</time>
      </trkpt>
      <trkpt lat="47.26805" lon="-0.13939">
        <ele>75</ele>
        <time>2026-03-12T22:54:20Z</time>
      </trkpt>
      <trkpt lat="47.26818" lon="-0.13884">
        <ele>75</ele>
        <time>2026-03-12T22:54:30Z</time>
      </trkpt>
      <trkpt lat="47.26831" lon="-0.13806">
        <ele>74</ele>
        <time>2026-03-12T22:54:42Z</time>
      </trkpt>
      <trkpt lat="47.26842" lon="-0.13769">
        <ele>73</ele>
        <time>2026-03-12T22:54:49Z</time>
      </trkpt>
      <trkpt lat="47.26855" lon="-0.13738">
        <ele>72</ele>
        <time>2026-03-12T22:54:54Z</time>
      </trkpt>
      <trkpt lat="47.26851" lon="-0.13703">
        <ele>71</ele>
        <time>2026-03-12T22:55:00Z</time>
      </trkpt>
      <trkpt lat="47.26854" lon="-0.13686">
        <ele>70</ele>
        <time>2026-03-12T22:55:03Z</time>
      </trkpt>
      <trkpt lat="47.26859" lon="-0.13669">
        <ele>69</ele>
        <time>2026-03-12T22:55:06Z</time>
      </trkpt>
      <trkpt lat="47.26871" lon="-0.13646">
        <ele>68</ele>
        <time>2026-03-12T22:55:10Z</time>
      </trkpt>
      <trkpt lat="47.26874" lon="-0.13633">
        <ele>67</ele>
        <time>2026-03-12T22:55:13Z</time>
      </trkpt>
      <trkpt lat="47.26857" lon="-0.13596">
        <ele>68</ele>
        <time>2026-03-12T22:55:20Z</time>
      </trkpt>
      <trkpt lat="47.26821" lon="-0.13542">
        <ele>68</ele>
        <time>2026-03-12T22:55:32Z</time>
      </trkpt>
      <trkpt lat="47.26806" lon="-0.13534">
        <ele>69</ele>
        <time>2026-03-12T22:55:35Z</time>
      </trkpt>
      <trkpt lat="47.26774" lon="-0.13532">
        <ele>71</ele>
        <time>2026-03-12T22:55:43Z</time>
      </trkpt>
      <trkpt lat="47.26754" lon="-0.13516">
        <ele>73</ele>
        <time>2026-03-12T22:55:48Z</time>
      </trkpt>
      <trkpt lat="47.26754" lon="-0.13482">
        <ele>73</ele>
        <time>2026-03-12T22:55:54Z</time>
      </trkpt>
      <trkpt lat="47.26744" lon="-0.1343">
        <ele>73</ele>
        <time>2026-03-12T22:56:02Z</time>
      </trkpt>
      <trkpt lat="47.26738" lon="-0.13427">
        <ele>73</ele>
        <time>2026-03-12T22:56:04Z</time>
      </trkpt>
      <trkpt lat="47.26695" lon="-0.13431">
        <ele>75</ele>
        <time>2026-03-12T22:56:14Z</time>
      </trkpt>
      <trkpt lat="47.26662" lon="-0.1344">
        <ele>77</ele>
        <time>2026-03-12T22:56:22Z</time>
      </trkpt>
      <trkpt lat="47.26659" lon="-0.1344">
        <ele>77</ele>
        <time>2026-03-12T22:56:22Z</time>
      </trkpt>
      <trkpt lat="47.26657" lon="-0.13436">
        <ele>77</ele>
        <time>2026-03-12T22:56:23Z</time>
      </trkpt>
      <trkpt lat="47.26654" lon="-0.13395">
        <ele>76</ele>
        <time>2026-03-12T22:56:30Z</time>
      </trkpt>
      <trkpt lat="47.26663" lon="-0.13367">
        <ele>75</ele>
        <time>2026-03-12T22:56:34Z</time>
      </trkpt>
      <trkpt lat="47.26661" lon="-0.13335">
        <ele>74</ele>
        <time>2026-03-12T22:56:40Z</time>
      </trkpt>
      <trkpt lat="47.26664" lon="-0.13323">
        <ele>74</ele>
        <time>2026-03-12T22:56:42Z</time>
      </trkpt>
      <trkpt lat="47.26679" lon="-0.13303">
        <ele>73</ele>
        <time>2026-03-12T22:56:46Z</time>
      </trkpt>
      <trkpt lat="47.26701" lon="-0.13285">
        <ele>72</ele>
        <time>2026-03-12T22:56:52Z</time>
      </trkpt>
      <trkpt lat="47.26724" lon="-0.13252">
        <ele>72</ele>
        <time>2026-03-12T22:57:00Z</time>
      </trkpt>
      <trkpt lat="47.26729" lon="-0.13241">
        <ele>71</ele>
        <time>2026-03-12T22:57:02Z</time>
      </trkpt>
      <trkpt lat="47.26723" lon="-0.1316">
        <ele>69</ele>
        <time>2026-03-12T22:57:15Z</time>
      </trkpt>
      <trkpt lat="47.26728" lon="-0.1315">
        <ele>69</ele>
        <time>2026-03-12T22:57:17Z</time>
      </trkpt>
      <trkpt lat="47.26728" lon="-0.13145">
        <ele>69</ele>
        <time>2026-03-12T22:57:17Z</time>
      </trkpt>
      <trkpt lat="47.26717" lon="-0.13113">
        <ele>68</ele>
        <time>2026-03-12T22:57:23Z</time>
      </trkpt>
      <trkpt lat="47.26699" lon="-0.13094">
        <ele>69</ele>
        <time>2026-03-12T22:57:28Z</time>
      </trkpt>
      <trkpt lat="47.26697" lon="-0.13041">
        <ele>67</ele>
        <time>2026-03-12T22:57:37Z</time>
      </trkpt>
      <trkpt lat="47.26692" lon="-0.13037">
        <ele>68</ele>
        <time>2026-03-12T22:57:38Z</time>
      </trkpt>
      <trkpt lat="47.26685" lon="-0.13019">
        <ele>68</ele>
        <time>2026-03-12T22:57:41Z</time>
      </trkpt>
      <trkpt lat="47.26669" lon="-0.12992">
        <ele>69</ele>
        <time>2026-03-12T22:57:47Z</time>
      </trkpt>
      <trkpt lat="47.26658" lon="-0.1298">
        <ele>69</ele>
        <time>2026-03-12T22:57:50Z</time>
      </trkpt>
      <trkpt lat="47.26641" lon="-0.12983">
        <ele>70</ele>
        <time>2026-03-12T22:57:54Z</time>
      </trkpt>
      <trkpt lat="47.26628" lon="-0.1298">
        <ele>70</ele>
        <time>2026-03-12T22:57:57Z</time>
      </trkpt>
      <trkpt lat="47.26616" lon="-0.12964">
        <ele>71</ele>
        <time>2026-03-12T22:58:01Z</time>
      </trkpt>
      <trkpt lat="47.26616" lon="-0.12931">
        <ele>70</ele>
        <time>2026-03-12T22:58:06Z</time>
      </trkpt>
      <trkpt lat="47.26606" lon="-0.12914">
        <ele>71</ele>
        <time>2026-03-12T22:58:10Z</time>
      </trkpt>
      <trkpt lat="47.26601" lon="-0.12892">
        <ele>71</ele>
        <time>2026-03-12T22:58:14Z</time>
      </trkpt>
      <trkpt lat="47.26603" lon="-0.12886">
        <ele>70</ele>
        <time>2026-03-12T22:58:15Z</time>
      </trkpt>
      <trkpt lat="47.26608" lon="-0.12882">
        <ele>70</ele>
        <time>2026-03-12T22:58:16Z</time>
      </trkpt>
      <trkpt lat="47.26615" lon="-0.12882">
        <ele>70</ele>
        <time>2026-03-12T22:58:18Z</time>
      </trkpt>
      <trkpt lat="47.26625" lon="-0.12877">
        <ele>69</ele>
        <time>2026-03-12T22:58:20Z</time>
      </trkpt>
      <trkpt lat="47.26652" lon="-0.1281">
        <ele>66</ele>
        <time>2026-03-12T22:58:32Z</time>
      </trkpt>
      <trkpt lat="47.26663" lon="-0.12776">
        <ele>66</ele>
        <time>2026-03-12T22:58:38Z</time>
      </trkpt>
      <trkpt lat="47.26667" lon="-0.12769">
        <ele>66</ele>
        <time>2026-03-12T22:58:40Z</time>
      </trkpt>
      <trkpt lat="47.26675" lon="-0.12769">
        <ele>65</ele>
        <time>2026-03-12T22:58:42Z</time>
      </trkpt>
      <trkpt lat="47.26698" lon="-0.12794">
        <ele>63</ele>
        <time>2026-03-12T22:58:48Z</time>
      </trkpt>
      <trkpt lat="47.26701" lon="-0.128">
        <ele>63</ele>
        <time>2026-03-12T22:58:50Z</time>
      </trkpt>
      <trkpt lat="47.26709" lon="-0.12799">
        <ele>63</ele>
        <time>2026-03-12T22:58:51Z</time>
      </trkpt>
      <trkpt lat="47.26714" lon="-0.12805">
        <ele>62</ele>
        <time>2026-03-12T22:58:53Z</time>
      </trkpt>
      <trkpt lat="47.26715" lon="-0.12816">
        <ele>62</ele>
        <time>2026-03-12T22:58:55Z</time>
      </trkpt>
      <trkpt lat="47.26706" lon="-0.12848">
        <ele>63</ele>
        <time>2026-03-12T22:59:00Z</time>
      </trkpt>
      <trkpt lat="47.26709" lon="-0.12861">
        <ele>63</ele>
        <time>2026-03-12T22:59:02Z</time>
      </trkpt>
      <trkpt lat="47.26714" lon="-0.12866">
        <ele>63</ele>
        <time>2026-03-12T22:59:04Z</time>
      </trkpt>
      <trkpt lat="47.2674" lon="-0.12879">
        <ele>61</ele>
        <time>2026-03-12T22:59:10Z</time>
      </trkpt>
      <trkpt lat="47.26752" lon="-0.1289">
        <ele>61</ele>
        <time>2026-03-12T22:59:13Z</time>
      </trkpt>
      <trkpt lat="47.26763" lon="-0.12906">
        <ele>60</ele>
        <time>2026-03-12T22:59:17Z</time>
      </trkpt>
      <trkpt lat="47.26774" lon="-0.12917">
        <ele>60</ele>
        <time>2026-03-12T22:59:20Z</time>
      </trkpt>
      <trkpt lat="47.26783" lon="-0.12938">
        <ele>59</ele>
        <time>2026-03-12T22:59:24Z</time>
      </trkpt>
      <trkpt lat="47.26804" lon="-0.12931">
        <ele>58</ele>
        <time>2026-03-12T22:59:29Z</time>
      </trkpt>
      <trkpt lat="47.2682" lon="-0.12916">
        <ele>57</ele>
        <time>2026-03-12T22:59:34Z</time>
      </trkpt>
      <trkpt lat="47.26835" lon="-0.12893">
        <ele>56</ele>
        <time>2026-03-12T22:59:39Z</time>
      </trkpt>
      <trkpt lat="47.26841" lon="-0.1289">
        <ele>56</ele>
        <time>2026-03-12T22:59:40Z</time>
      </trkpt>
      <trkpt lat="47.2686" lon="-0.1291">
        <ele>57</ele>
        <time>2026-03-12T22:59:46Z</time>
      </trkpt>
      <trkpt lat="47.26872" lon="-0.12917">
        <ele>57</ele>
        <time>2026-03-12T22:59:49Z</time>
      </trkpt>
      <trkpt lat="47.26878" lon="-0.12928">
        <ele>57</ele>
        <time>2026-03-12T22:59:51Z</time>
      </trkpt>
      <trkpt lat="47.26882" lon="-0.12929">
        <ele>57</ele>
        <time>2026-03-12T22:59:52Z</time>
      </trkpt>
      <trkpt lat="47.26897" lon="-0.12925">
        <ele>57</ele>
        <time>2026-03-12T22:59:55Z</time>
      </trkpt>
      <trkpt lat="47.26903" lon="-0.12929">
        <ele>58</ele>
        <time>2026-03-12T22:59:57Z</time>
      </trkpt>
      <trkpt lat="47.26911" lon="-0.12938">
        <ele>58</ele>
        <time>2026-03-12T22:59:59Z</time>
      </trkpt>
      <trkpt lat="47.26915" lon="-0.12949">
        <ele>58</ele>
        <time>2026-03-12T23:00:01Z</time>
      </trkpt>
      <trkpt lat="47.26908" lon="-0.1301">
        <ele>57</ele>
        <time>2026-03-12T23:00:11Z</time>
      </trkpt>
      <trkpt lat="47.26921" lon="-0.13031">
        <ele>56</ele>
        <time>2026-03-12T23:00:15Z</time>
      </trkpt>
      <trkpt lat="47.26947" lon="-0.13047">
        <ele>56</ele>
        <time>2026-03-12T23:00:22Z</time>
      </trkpt>
      <trkpt lat="47.26955" lon="-0.13041">
        <ele>56</ele>
        <time>2026-03-12T23:00:24Z</time>
      </trkpt>
      <trkpt lat="47.26976" lon="-0.13014">
        <ele>57</ele>
        <time>2026-03-12T23:00:31Z</time>
      </trkpt>
      <trkpt lat="47.27007" lon="-0.12958">
        <ele>56</ele>
        <time>2026-03-12T23:00:42Z</time>
      </trkpt>
      <trkpt lat="47.27008" lon="-0.12952">
        <ele>56</ele>
        <time>2026-03-12T23:00:43Z</time>
      </trkpt>
      <trkpt lat="47.27016" lon="-0.12944">
        <ele>56</ele>
        <time>2026-03-12T23:00:45Z</time>
      </trkpt>
      <trkpt lat="47.27026" lon="-0.12939">
        <ele>56</ele>
        <time>2026-03-12T23:00:48Z</time>
      </trkpt>
      <trkpt lat="47.27046" lon="-0.12902">
        <ele>56</ele>
        <time>2026-03-12T23:00:55Z</time>
      </trkpt>
      <trkpt lat="47.27067" lon="-0.12911">
        <ele>55</ele>
        <time>2026-03-12T23:01:00Z</time>
      </trkpt>
      <trkpt lat="47.27081" lon="-0.12911">
        <ele>55</ele>
        <time>2026-03-12T23:01:04Z</time>
      </trkpt>
      <trkpt lat="47.27086" lon="-0.12907">
        <ele>55</ele>
        <time>2026-03-12T23:01:05Z</time>
      </trkpt>
      <trkpt lat="47.27098" lon="-0.12853">
        <ele>57</ele>
        <time>2026-03-12T23:01:14Z</time>
      </trkpt>
      <trkpt lat="47.27096" lon="-0.12819">
        <ele>58</ele>
        <time>2026-03-12T23:01:19Z</time>
      </trkpt>
      <trkpt lat="47.27082" lon="-0.12792">
        <ele>58</ele>
        <time>2026-03-12T23:01:25Z</time>
      </trkpt>
      <trkpt lat="47.27083" lon="-0.12774">
        <ele>59</ele>
        <time>2026-03-12T23:01:28Z</time>
      </trkpt>
      <trkpt lat="47.2709" lon="-0.1275">
        <ele>59</ele>
        <time>2026-03-12T23:01:32Z</time>
      </trkpt>
      <trkpt lat="47.27084" lon="-0.12738">
        <ele>58</ele>
        <time>2026-03-12T23:01:34Z</time>
      </trkpt>
      <trkpt lat="47.27068" lon="-0.12728">
        <ele>58</ele>
        <time>2026-03-12T23:01:38Z</time>
      </trkpt>
      <trkpt lat="47.27059" lon="-0.12736">
        <ele>58</ele>
        <time>2026-03-12T23:01:41Z</time>
      </trkpt>
      <trkpt lat="47.27052" lon="-0.12736">
        <ele>57</ele>
        <time>2026-03-12T23:01:42Z</time>
      </trkpt>
      <trkpt lat="47.27049" lon="-0.12734">
        <ele>57</ele>
        <time>2026-03-12T23:01:43Z</time>
      </trkpt>
      <trkpt lat="47.27045" lon="-0.12724">
        <ele>57</ele>
        <time>2026-03-12T23:01:45Z</time>
      </trkpt>
      <trkpt lat="47.2704" lon="-0.12721">
        <ele>57</ele>
        <time>2026-03-12T23:01:46Z</time>
      </trkpt>
      <trkpt lat="47.27023" lon="-0.12721">
        <ele>56</ele>
        <time>2026-03-12T23:01:50Z</time>
      </trkpt>
      <trkpt lat="47.27014" lon="-0.12725">
        <ele>56</ele>
        <time>2026-03-12T23:01:52Z</time>
      </trkpt>
      <trkpt lat="47.27009" lon="-0.12733">
        <ele>56</ele>
        <time>2026-03-12T23:01:54Z</time>
      </trkpt>
      <trkpt lat="47.27004" lon="-0.12734">
        <ele>56</ele>
        <time>2026-03-12T23:01:55Z</time>
      </trkpt>
      <trkpt lat="47.26995" lon="-0.12712">
        <ele>55</ele>
        <time>2026-03-12T23:01:59Z</time>
      </trkpt>
      <trkpt lat="47.2697" lon="-0.12699">
        <ele>54</ele>
        <time>2026-03-12T23:02:06Z</time>
      </trkpt>
      <trkpt lat="47.26961" lon="-0.12699">
        <ele>54</ele>
        <time>2026-03-12T23:02:08Z</time>
      </trkpt>
      <trkpt lat="47.26948" lon="-0.12685">
        <ele>53</ele>
        <time>2026-03-12T23:02:11Z</time>
      </trkpt>
      <trkpt lat="47.2694" lon="-0.12664">
        <ele>53</ele>
        <time>2026-03-12T23:02:15Z</time>
      </trkpt>
      <trkpt lat="47.26928" lon="-0.12647">
        <ele>52</ele>
        <time>2026-03-12T23:02:19Z</time>
      </trkpt>
      <trkpt lat="47.26912" lon="-0.12635">
        <ele>51</ele>
        <time>2026-03-12T23:02:23Z</time>
      </trkpt>
      <trkpt lat="47.26903" lon="-0.12615">
        <ele>51</ele>
        <time>2026-03-12T23:02:27Z</time>
      </trkpt>
      <trkpt lat="47.26878" lon="-0.12585">
        <ele>51</ele>
        <time>2026-03-12T23:02:35Z</time>
      </trkpt>
      <trkpt lat="47.26872" lon="-0.12589">
        <ele>52</ele>
        <time>2026-03-12T23:02:36Z</time>
      </trkpt>
      <trkpt lat="47.26859" lon="-0.12627">
        <ele>52</ele>
        <time>2026-03-12T23:02:43Z</time>
      </trkpt>
      <trkpt lat="47.26842" lon="-0.12651">
        <ele>52</ele>
        <time>2026-03-12T23:02:48Z</time>
      </trkpt>
      <trkpt lat="47.26833" lon="-0.12668">
        <ele>52</ele>
        <time>2026-03-12T23:02:52Z</time>
      </trkpt>
      <trkpt lat="47.26806" lon="-0.12705">
        <ele>55</ele>
        <time>2026-03-12T23:03:00Z</time>
      </trkpt>
      <trkpt lat="47.26775" lon="-0.12742">
        <ele>58</ele>
        <time>2026-03-12T23:03:10Z</time>
      </trkpt>
      <trkpt lat="47.26768" lon="-0.12742">
        <ele>58</ele>
        <time>2026-03-12T23:03:11Z</time>
      </trkpt>
      <trkpt lat="47.26762" lon="-0.12738">
        <ele>59</ele>
        <time>2026-03-12T23:03:13Z</time>
      </trkpt>
      <trkpt lat="47.26696" lon="-0.12682">
        <ele>61</ele>
        <time>2026-03-12T23:03:31Z</time>
      </trkpt>
      <trkpt lat="47.26679" lon="-0.12653">
        <ele>61</ele>
        <time>2026-03-12T23:03:37Z</time>
      </trkpt>
      <trkpt lat="47.26672" lon="-0.12651">
        <ele>61</ele>
        <time>2026-03-12T23:03:38Z</time>
      </trkpt>
      <trkpt lat="47.2666" lon="-0.12654">
        <ele>62</ele>
        <time>2026-03-12T23:03:41Z</time>
      </trkpt>
      <trkpt lat="47.26649" lon="-0.12652">
        <ele>62</ele>
        <time>2026-03-12T23:03:44Z</time>
      </trkpt>
      <trkpt lat="47.26631" lon="-0.12667">
        <ele>65</ele>
        <time>2026-03-12T23:03:49Z</time>
      </trkpt>
      <trkpt lat="47.26626" lon="-0.12679">
        <ele>65</ele>
        <time>2026-03-12T23:03:51Z</time>
      </trkpt>
      <trkpt lat="47.26617" lon="-0.12691">
        <ele>67</ele>
        <time>2026-03-12T23:03:54Z</time>
      </trkpt>
      <trkpt lat="47.26607" lon="-0.12719">
        <ele>68</ele>
        <time>2026-03-12T23:03:59Z</time>
      </trkpt>
      <trkpt lat="47.2659" lon="-0.12737">
        <ele>70</ele>
        <time>2026-03-12T23:04:04Z</time>
      </trkpt>
      <trkpt lat="47.26589" lon="-0.12772">
        <ele>71</ele>
        <time>2026-03-12T23:04:09Z</time>
      </trkpt>
      <trkpt lat="47.26585" lon="-0.12789">
        <ele>71</ele>
        <time>2026-03-12T23:04:12Z</time>
      </trkpt>
      <trkpt lat="47.26571" lon="-0.12811">
        <ele>71</ele>
        <time>2026-03-12T23:04:17Z</time>
      </trkpt>
      <trkpt lat="47.26556" lon="-0.12823">
        <ele>72</ele>
        <time>2026-03-12T23:04:21Z</time>
      </trkpt>
      <trkpt lat="47.26553" lon="-0.1283">
        <ele>72</ele>
        <time>2026-03-12T23:04:22Z</time>
      </trkpt>
      <trkpt lat="47.26549" lon="-0.12848">
        <ele>72</ele>
        <time>2026-03-12T23:04:25Z</time>
      </trkpt>
      <trkpt lat="47.2656" lon="-0.12907">
        <ele>72</ele>
        <time>2026-03-12T23:04:35Z</time>
      </trkpt>
      <trkpt lat="47.26557" lon="-0.12909">
        <ele>72</ele>
        <time>2026-03-12T23:04:36Z</time>
      </trkpt>
      <trkpt lat="47.26533" lon="-0.12911">
        <ele>72</ele>
        <time>2026-03-12T23:04:41Z</time>
      </trkpt>
      <trkpt lat="47.26515" lon="-0.1292">
        <ele>72</ele>
        <time>2026-03-12T23:04:46Z</time>
      </trkpt>
      <trkpt lat="47.26508" lon="-0.1292">
        <ele>72</ele>
        <time>2026-03-12T23:04:47Z</time>
      </trkpt>
      <trkpt lat="47.26493" lon="-0.129">
        <ele>72</ele>
        <time>2026-03-12T23:04:52Z</time>
      </trkpt>
      <trkpt lat="47.26492" lon="-0.12873">
        <ele>72</ele>
        <time>2026-03-12T23:04:56Z</time>
      </trkpt>
      <trkpt lat="47.26502" lon="-0.12868">
        <ele>73</ele>
        <time>2026-03-12T23:04:59Z</time>
      </trkpt>
      <trkpt lat="47.2651" lon="-0.12856">
        <ele>73</ele>
        <time>2026-03-12T23:05:01Z</time>
      </trkpt>
      <trkpt lat="47.26522" lon="-0.12847">
        <ele>72</ele>
        <time>2026-03-12T23:05:05Z</time>
      </trkpt>
      <trkpt lat="47.26525" lon="-0.12838">
        <ele>72</ele>
        <time>2026-03-12T23:05:06Z</time>
      </trkpt>
      <trkpt lat="47.26533" lon="-0.12829">
        <ele>72</ele>
        <time>2026-03-12T23:05:09Z</time>
      </trkpt>
      <trkpt lat="47.26535" lon="-0.12819">
        <ele>72</ele>
        <time>2026-03-12T23:05:10Z</time>
      </trkpt>
      <trkpt lat="47.26535" lon="-0.12785">
        <ele>72</ele>
        <time>2026-03-12T23:05:16Z</time>
      </trkpt>
      <trkpt lat="47.26533" lon="-0.12775">
        <ele>72</ele>
        <time>2026-03-12T23:05:17Z</time>
      </trkpt>
      <trkpt lat="47.26535" lon="-0.12767">
        <ele>72</ele>
        <time>2026-03-12T23:05:19Z</time>
      </trkpt>
      <trkpt lat="47.26545" lon="-0.12754">
        <ele>71</ele>
        <time>2026-03-12T23:05:22Z</time>
      </trkpt>
      <trkpt lat="47.26542" lon="-0.12745">
        <ele>71</ele>
        <time>2026-03-12T23:05:23Z</time>
      </trkpt>
      <trkpt lat="47.26534" lon="-0.12745">
        <ele>71</ele>
        <time>2026-03-12T23:05:25Z</time>
      </trkpt>
      <trkpt lat="47.26523" lon="-0.12751">
        <ele>72</ele>
        <time>2026-03-12T23:05:28Z</time>
      </trkpt>
      <trkpt lat="47.26512" lon="-0.12753">
        <ele>72</ele>
        <time>2026-03-12T23:05:30Z</time>
      </trkpt>
      <trkpt lat="47.26508" lon="-0.12749">
        <ele>72</ele>
        <time>2026-03-12T23:05:32Z</time>
      </trkpt>
      <trkpt lat="47.2649" lon="-0.12749">
        <ele>72</ele>
        <time>2026-03-12T23:05:36Z</time>
      </trkpt>
      <trkpt lat="47.26484" lon="-0.12757">
        <ele>72</ele>
        <time>2026-03-12T23:05:38Z</time>
      </trkpt>
      <trkpt lat="47.26474" lon="-0.12764">
        <ele>71</ele>
        <time>2026-03-12T23:05:40Z</time>
      </trkpt>
      <trkpt lat="47.26474" lon="-0.1278">
        <ele>71</ele>
        <time>2026-03-12T23:05:43Z</time>
      </trkpt>
      <trkpt lat="47.26455" lon="-0.12788">
        <ele>71</ele>
        <time>2026-03-12T23:05:47Z</time>
      </trkpt>
      <trkpt lat="47.26444" lon="-0.12799">
        <ele>71</ele>
        <time>2026-03-12T23:05:51Z</time>
      </trkpt>
      <trkpt lat="47.26437" lon="-0.12801">
        <ele>70</ele>
        <time>2026-03-12T23:05:52Z</time>
      </trkpt>
      <trkpt lat="47.26411" lon="-0.12782">
        <ele>69</ele>
        <time>2026-03-12T23:05:59Z</time>
      </trkpt>
      <trkpt lat="47.26407" lon="-0.12773">
        <ele>69</ele>
        <time>2026-03-12T23:06:01Z</time>
      </trkpt>
      <trkpt lat="47.26387" lon="-0.12766">
        <ele>68</ele>
        <time>2026-03-12T23:06:05Z</time>
      </trkpt>
      <trkpt lat="47.26382" lon="-0.12755">
        <ele>67</ele>
        <time>2026-03-12T23:06:08Z</time>
      </trkpt>
      <trkpt lat="47.26369" lon="-0.12744">
        <ele>66</ele>
        <time>2026-03-12T23:06:11Z</time>
      </trkpt>
      <trkpt lat="47.26362" lon="-0.1272">
        <ele>65</ele>
        <time>2026-03-12T23:06:15Z</time>
      </trkpt>
      <trkpt lat="47.2636" lon="-0.12695">
        <ele>64</ele>
        <time>2026-03-12T23:06:19Z</time>
      </trkpt>
      <trkpt lat="47.26363" lon="-0.12616">
        <ele>62</ele>
        <time>2026-03-12T23:06:32Z</time>
      </trkpt>
      <trkpt lat="47.26366" lon="-0.12593">
        <ele>61</ele>
        <time>2026-03-12T23:06:35Z</time>
      </trkpt>
      <trkpt lat="47.26398" lon="-0.12483">
        <ele>58</ele>
        <time>2026-03-12T23:06:54Z</time>
      </trkpt>
      <trkpt lat="47.26428" lon="-0.12416">
        <ele>57</ele>
        <time>2026-03-12T23:07:07Z</time>
      </trkpt>
      <trkpt lat="47.26461" lon="-0.12328">
        <ele>53</ele>
        <time>2026-03-12T23:07:23Z</time>
      </trkpt>
      <trkpt lat="47.26474" lon="-0.12264">
        <ele>51</ele>
        <time>2026-03-12T23:07:34Z</time>
      </trkpt>
      <trkpt lat="47.26477" lon="-0.12216">
        <ele>49</ele>
        <time>2026-03-12T23:07:41Z</time>
      </trkpt>
      <trkpt lat="47.26476" lon="-0.12177">
        <ele>49</ele>
        <time>2026-03-12T23:07:47Z</time>
      </trkpt>
      <trkpt lat="47.26472" lon="-0.12031">
        <ele>47</ele>
        <time>2026-03-12T23:08:11Z</time>
      </trkpt>
      <trkpt lat="47.26466" lon="-0.11953">
        <ele>48</ele>
        <time>2026-03-12T23:08:23Z</time>
      </trkpt>
      <trkpt lat="47.26472" lon="-0.11858">
        <ele>50</ele>
        <time>2026-03-12T23:08:38Z</time>
      </trkpt>
      <trkpt lat="47.26486" lon="-0.1181">
        <ele>51</ele>
        <time>2026-03-12T23:08:46Z</time>
      </trkpt>
      <trkpt lat="47.26492" lon="-0.11799">
        <ele>51</ele>
        <time>2026-03-12T23:08:49Z</time>
      </trkpt>
      <trkpt lat="47.26495" lon="-0.11797">
        <ele>51</ele>
        <time>2026-03-12T23:08:49Z</time>
      </trkpt>
      <trkpt lat="47.26499" lon="-0.11799">
        <ele>51</ele>
        <time>2026-03-12T23:08:50Z</time>
      </trkpt>
      <trkpt lat="47.26501" lon="-0.11808">
        <ele>51</ele>
        <time>2026-03-12T23:08:52Z</time>
      </trkpt>
      <trkpt lat="47.26491" lon="-0.11833">
        <ele>50</ele>
        <time>2026-03-12T23:08:57Z</time>
      </trkpt>
      <trkpt lat="47.26487" lon="-0.1185">
        <ele>50</ele>
        <time>2026-03-12T23:08:59Z</time>
      </trkpt>
      <trkpt lat="47.2648" lon="-0.11907">
        <ele>48</ele>
        <time>2026-03-12T23:09:09Z</time>
      </trkpt>
      <trkpt lat="47.26483" lon="-0.11984">
        <ele>46</ele>
        <time>2026-03-12T23:09:21Z</time>
      </trkpt>
      <trkpt lat="47.26487" lon="-0.11997">
        <ele>46</ele>
        <time>2026-03-12T23:09:23Z</time>
      </trkpt>
      <trkpt lat="47.26495" lon="-0.12003">
        <ele>45</ele>
        <time>2026-03-12T23:09:25Z</time>
      </trkpt>
      <trkpt lat="47.26521" lon="-0.11996">
        <ele>45</ele>
        <time>2026-03-12T23:09:31Z</time>
      </trkpt>
      <trkpt lat="47.26632" lon="-0.11952">
        <ele>45</ele>
        <time>2026-03-12T23:09:58Z</time>
      </trkpt>
      <trkpt lat="47.26696" lon="-0.11935">
        <ele>44</ele>
        <time>2026-03-12T23:10:13Z</time>
      </trkpt>
      <trkpt lat="47.26796" lon="-0.119">
        <ele>45</ele>
        <time>2026-03-12T23:10:37Z</time>
      </trkpt>
      <trkpt lat="47.26839" lon="-0.11881">
        <ele>45</ele>
        <time>2026-03-12T23:10:48Z</time>
      </trkpt>
      <trkpt lat="47.2692" lon="-0.11836">
        <ele>45</ele>
        <time>2026-03-12T23:11:08Z</time>
      </trkpt>
      <trkpt lat="47.26944" lon="-0.1182">
        <ele>45</ele>
        <time>2026-03-12T23:11:14Z</time>
      </trkpt>
      <trkpt lat="47.26946" lon="-0.11815">
        <ele>45</ele>
        <time>2026-03-12T23:11:15Z</time>
      </trkpt>
      <trkpt lat="47.26944" lon="-0.11802">
        <ele>45</ele>
        <time>2026-03-12T23:11:17Z</time>
      </trkpt>
      <trkpt lat="47.26921" lon="-0.11774">
        <ele>46</ele>
        <time>2026-03-12T23:11:24Z</time>
      </trkpt>
      <trkpt lat="47.26904" lon="-0.11742">
        <ele>48</ele>
        <time>2026-03-12T23:11:31Z</time>
      </trkpt>
      <trkpt lat="47.26894" lon="-0.1171">
        <ele>49</ele>
        <time>2026-03-12T23:11:36Z</time>
      </trkpt>
      <trkpt lat="47.269" lon="-0.11702">
        <ele>49</ele>
        <time>2026-03-12T23:11:38Z</time>
      </trkpt>
      <trkpt lat="47.26973" lon="-0.11651">
        <ele>54</ele>
        <time>2026-03-12T23:11:57Z</time>
      </trkpt>
      <trkpt lat="47.26979" lon="-0.11642">
        <ele>55</ele>
        <time>2026-03-12T23:11:59Z</time>
      </trkpt>
      <trkpt lat="47.26981" lon="-0.1163">
        <ele>55</ele>
        <time>2026-03-12T23:12:01Z</time>
      </trkpt>
      <trkpt lat="47.26977" lon="-0.11529">
        <ele>58</ele>
        <time>2026-03-12T23:12:17Z</time>
      </trkpt>
      <trkpt lat="47.26982" lon="-0.1149">
        <ele>59</ele>
        <time>2026-03-12T23:12:23Z</time>
      </trkpt>
      <trkpt lat="47.26989" lon="-0.11463">
        <ele>59</ele>
        <time>2026-03-12T23:12:28Z</time>
      </trkpt>
      <trkpt lat="47.2701" lon="-0.11433">
        <ele>60</ele>
        <time>2026-03-12T23:12:35Z</time>
      </trkpt>
      <trkpt lat="47.27018" lon="-0.11417">
        <ele>61</ele>
        <time>2026-03-12T23:12:38Z</time>
      </trkpt>
      <trkpt lat="47.27024" lon="-0.11393">
        <ele>62</ele>
        <time>2026-03-12T23:12:42Z</time>
      </trkpt>
      <trkpt lat="47.27025" lon="-0.11379">
        <ele>62</ele>
        <time>2026-03-12T23:12:44Z</time>
      </trkpt>
      <trkpt lat="47.27017" lon="-0.11339">
        <ele>62</ele>
        <time>2026-03-12T23:12:51Z</time>
      </trkpt>
      <trkpt lat="47.27008" lon="-0.11328">
        <ele>62</ele>
        <time>2026-03-12T23:12:53Z</time>
      </trkpt>
      <trkpt lat="47.26992" lon="-0.11316">
        <ele>62</ele>
        <time>2026-03-12T23:12:58Z</time>
      </trkpt>
      <trkpt lat="47.2698" lon="-0.11301">
        <ele>63</ele>
        <time>2026-03-12T23:13:01Z</time>
      </trkpt>
      <trkpt lat="47.26968" lon="-0.1127">
        <ele>64</ele>
        <time>2026-03-12T23:13:07Z</time>
      </trkpt>
      <trkpt lat="47.26948" lon="-0.11228">
        <ele>65</ele>
        <time>2026-03-12T23:13:15Z</time>
      </trkpt>
      <trkpt lat="47.2694" lon="-0.11216">
        <ele>65</ele>
        <time>2026-03-12T23:13:18Z</time>
      </trkpt>
      <trkpt lat="47.26939" lon="-0.11205">
        <ele>65</ele>
        <time>2026-03-12T23:13:20Z</time>
      </trkpt>
      <trkpt lat="47.26995" lon="-0.1114">
        <ele>66</ele>
        <time>2026-03-12T23:13:36Z</time>
      </trkpt>
      <trkpt lat="47.27039" lon="-0.11048">
        <ele>66</ele>
        <time>2026-03-12T23:13:54Z</time>
      </trkpt>
      <trkpt lat="47.27059" lon="-0.10994">
        <ele>63</ele>
        <time>2026-03-12T23:14:04Z</time>
      </trkpt>
      <trkpt lat="47.27086" lon="-0.1094">
        <ele>59</ele>
        <time>2026-03-12T23:14:14Z</time>
        <extensions>
          <visugpx:TrkExtension xmlns:visugpx="https://www.visugpx.com/editgpx/">
            <visugpx:node>1</visugpx:node>
            </visugpx:TrkExtension>
        </extensions>
      </trkpt>
      <trkpt lat="47.27086" lon="-0.1094">
        <ele>59</ele>
        <time>2026-03-12T20:13:16Z</time>
      </trkpt>
      <trkpt lat="47.27105" lon="-0.10959">
        <ele>59</ele>
        <time>2026-03-12T20:13:22Z</time>
      </trkpt>
      <trkpt lat="47.27178" lon="-0.11073">
        <ele>56</ele>
        <time>2026-03-12T20:13:47Z</time>
      </trkpt>
      <trkpt lat="47.27199" lon="-0.1111">
        <ele>55</ele>
        <time>2026-03-12T20:13:54Z</time>
      </trkpt>
      <trkpt lat="47.27214" lon="-0.11129">
        <ele>54</ele>
        <time>2026-03-12T20:13:59Z</time>
      </trkpt>
      <trkpt lat="47.27252" lon="-0.11147">
        <ele>51</ele>
        <time>2026-03-12T20:14:08Z</time>
      </trkpt>
      <trkpt lat="47.27277" lon="-0.1115">
        <ele>48</ele>
        <time>2026-03-12T20:14:14Z</time>
      </trkpt>
      <trkpt lat="47.27309" lon="-0.11161">
        <ele>45</ele>
        <time>2026-03-12T20:14:22Z</time>
      </trkpt>
      <trkpt lat="47.27358" lon="-0.11183">
        <ele>40</ele>
        <time>2026-03-12T20:14:34Z</time>
      </trkpt>
      <trkpt lat="47.27376" lon="-0.11198">
        <ele>38</ele>
        <time>2026-03-12T20:14:39Z</time>
      </trkpt>
      <trkpt lat="47.27414" lon="-0.11237">
        <ele>32</ele>
        <time>2026-03-12T20:14:49Z</time>
      </trkpt>
      <trkpt lat="47.27427" lon="-0.11253">
        <ele>31</ele>
        <time>2026-03-12T20:14:53Z</time>
      </trkpt>
      <trkpt lat="47.27451" lon="-0.1129">
        <ele>29</ele>
        <time>2026-03-12T20:15:01Z</time>
      </trkpt>
      <trkpt lat="47.2745" lon="-0.11306">
        <ele>29</ele>
        <time>2026-03-12T20:15:04Z</time>
      </trkpt>
      <trkpt lat="47.27429" lon="-0.11343">
        <ele>29</ele>
        <time>2026-03-12T20:15:12Z</time>
      </trkpt>
      <trkpt lat="47.27391" lon="-0.11424">
        <ele>33</ele>
        <time>2026-03-12T20:15:27Z</time>
      </trkpt>
      <trkpt lat="47.2735" lon="-0.11559">
        <ele>34</ele>
        <time>2026-03-12T20:15:51Z</time>
      </trkpt>
      <trkpt lat="47.2735" lon="-0.11574">
        <ele>33</ele>
        <time>2026-03-12T20:15:53Z</time>
      </trkpt>
      <trkpt lat="47.27359" lon="-0.1159">
        <ele>33</ele>
        <time>2026-03-12T20:15:56Z</time>
      </trkpt>
      <trkpt lat="47.27429" lon="-0.11677">
        <ele>38</ele>
        <time>2026-03-12T20:16:18Z</time>
      </trkpt>
      <trkpt lat="47.27439" lon="-0.11697">
        <ele>40</ele>
        <time>2026-03-12T20:16:22Z</time>
      </trkpt>
      <trkpt lat="47.2746" lon="-0.11755">
        <ele>42</ele>
        <time>2026-03-12T20:16:32Z</time>
      </trkpt>
      <trkpt lat="47.27521" lon="-0.11866">
        <ele>43</ele>
        <time>2026-03-12T20:16:55Z</time>
      </trkpt>
      <trkpt lat="47.27568" lon="-0.11936">
        <ele>45</ele>
        <time>2026-03-12T20:17:10Z</time>
      </trkpt>
      <trkpt lat="47.27612" lon="-0.11994">
        <ele>46</ele>
        <time>2026-03-12T20:17:24Z</time>
      </trkpt>
      <trkpt lat="47.27618" lon="-0.11994">
        <ele>46</ele>
        <time>2026-03-12T20:17:26Z</time>
      </trkpt>
      <trkpt lat="47.27634" lon="-0.11975">
        <ele>48</ele>
        <time>2026-03-12T20:17:30Z</time>
      </trkpt>
      <trkpt lat="47.27663" lon="-0.11948">
        <ele>51</ele>
        <time>2026-03-12T20:17:38Z</time>
      </trkpt>
      <trkpt lat="47.27665" lon="-0.11943">
        <ele>51</ele>
        <time>2026-03-12T20:17:39Z</time>
      </trkpt>
      <trkpt lat="47.27663" lon="-0.11935">
        <ele>51</ele>
        <time>2026-03-12T20:17:41Z</time>
      </trkpt>
      <trkpt lat="47.27646" lon="-0.11889">
        <ele>53</ele>
        <time>2026-03-12T20:17:49Z</time>
      </trkpt>
      <trkpt lat="47.27638" lon="-0.11878">
        <ele>53</ele>
        <time>2026-03-12T20:17:51Z</time>
      </trkpt>
      <trkpt lat="47.27628" lon="-0.11846">
        <ele>55</ele>
        <time>2026-03-12T20:17:57Z</time>
      </trkpt>
      <trkpt lat="47.27631" lon="-0.11821">
        <ele>57</ele>
        <time>2026-03-12T20:18:01Z</time>
      </trkpt>
      <trkpt lat="47.27625" lon="-0.11785">
        <ele>57</ele>
        <time>2026-03-12T20:18:07Z</time>
      </trkpt>
      <trkpt lat="47.2763" lon="-0.11768">
        <ele>57</ele>
        <time>2026-03-12T20:18:10Z</time>
      </trkpt>
      <trkpt lat="47.27617" lon="-0.11742">
        <ele>56</ele>
        <time>2026-03-12T20:18:15Z</time>
      </trkpt>
      <trkpt lat="47.27617" lon="-0.11714">
        <ele>55</ele>
        <time>2026-03-12T20:18:19Z</time>
      </trkpt>
      <trkpt lat="47.2762" lon="-0.11689">
        <ele>54</ele>
        <time>2026-03-12T20:18:23Z</time>
      </trkpt>
      <trkpt lat="47.27618" lon="-0.11672">
        <ele>53</ele>
        <time>2026-03-12T20:18:26Z</time>
      </trkpt>
      <trkpt lat="47.27603" lon="-0.11622">
        <ele>47</ele>
        <time>2026-03-12T20:18:35Z</time>
      </trkpt>
      <trkpt lat="47.27561" lon="-0.11554">
        <ele>41</ele>
        <time>2026-03-12T20:18:49Z</time>
      </trkpt>
      <trkpt lat="47.27553" lon="-0.11537">
        <ele>40</ele>
        <time>2026-03-12T20:18:53Z</time>
      </trkpt>
      <trkpt lat="47.27554" lon="-0.11498">
        <ele>39</ele>
        <time>2026-03-12T20:18:59Z</time>
      </trkpt>
      <trkpt lat="47.27542" lon="-0.11471">
        <ele>37</ele>
        <time>2026-03-12T20:19:04Z</time>
      </trkpt>
      <trkpt lat="47.27523" lon="-0.11417">
        <ele>33</ele>
        <time>2026-03-12T20:19:14Z</time>
      </trkpt>
      <trkpt lat="47.27514" lon="-0.11367">
        <ele>31</ele>
        <time>2026-03-12T20:19:22Z</time>
      </trkpt>
      <trkpt lat="47.27515" lon="-0.11354">
        <ele>30</ele>
        <time>2026-03-12T20:19:24Z</time>
      </trkpt>
      <trkpt lat="47.27551" lon="-0.1133">
        <ele>30</ele>
        <time>2026-03-12T20:19:33Z</time>
      </trkpt>
      <trkpt lat="47.27563" lon="-0.11326">
        <ele>30</ele>
        <time>2026-03-12T20:19:36Z</time>
      </trkpt>
      <trkpt lat="47.27575" lon="-0.11329">
        <ele>30</ele>
        <time>2026-03-12T20:19:39Z</time>
      </trkpt>
      <trkpt lat="47.27596" lon="-0.11341">
        <ele>30</ele>
        <time>2026-03-12T20:19:44Z</time>
      </trkpt>
      <trkpt lat="47.27606" lon="-0.11341">
        <ele>29</ele>
        <time>2026-03-12T20:19:46Z</time>
      </trkpt>
      <trkpt lat="47.27651" lon="-0.1129">
        <ele>27</ele>
        <time>2026-03-12T20:20:00Z</time>
      </trkpt>
      <trkpt lat="47.27664" lon="-0.11282">
        <ele>26</ele>
        <time>2026-03-12T20:20:03Z</time>
      </trkpt>
      <trkpt lat="47.27689" lon="-0.11285">
        <ele>27</ele>
        <time>2026-03-12T20:20:09Z</time>
      </trkpt>
      <trkpt lat="47.27721" lon="-0.11294">
        <ele>28</ele>
        <time>2026-03-12T20:20:16Z</time>
      </trkpt>
      <trkpt lat="47.27747" lon="-0.1131">
        <ele>29</ele>
        <time>2026-03-12T20:20:23Z</time>
      </trkpt>
      <trkpt lat="47.27764" lon="-0.11316">
        <ele>29</ele>
        <time>2026-03-12T20:20:27Z</time>
      </trkpt>
      <trkpt lat="47.27804" lon="-0.11317">
        <ele>31</ele>
        <time>2026-03-12T20:20:36Z</time>
      </trkpt>
      <trkpt lat="47.27833" lon="-0.11312">
        <ele>31</ele>
        <time>2026-03-12T20:20:43Z</time>
      </trkpt>
      <trkpt lat="47.27873" lon="-0.11309">
        <ele>30</ele>
        <time>2026-03-12T20:20:53Z</time>
      </trkpt>
      <trkpt lat="47.27882" lon="-0.11302">
        <ele>29</ele>
        <time>2026-03-12T20:20:55Z</time>
      </trkpt>
      <trkpt lat="47.27895" lon="-0.11284">
        <ele>28</ele>
        <time>2026-03-12T20:20:59Z</time>
      </trkpt>
      <trkpt lat="47.27911" lon="-0.11273">
        <ele>27</ele>
        <time>2026-03-12T20:21:03Z</time>
      </trkpt>
      <trkpt lat="47.27933" lon="-0.11252">
        <ele>26</ele>
        <time>2026-03-12T20:21:09Z</time>
      </trkpt>
      <trkpt lat="47.27961" lon="-0.11216">
        <ele>27</ele>
        <time>2026-03-12T20:21:18Z</time>
      </trkpt>
      <trkpt lat="47.27996" lon="-0.11177">
        <ele>29</ele>
        <time>2026-03-12T20:21:28Z</time>
      </trkpt>
      <trkpt lat="47.28033" lon="-0.11116">
        <ele>27</ele>
        <time>2026-03-12T20:21:41Z</time>
      </trkpt>
      <trkpt lat="47.28046" lon="-0.11106">
        <ele>25</ele>
        <time>2026-03-12T20:21:45Z</time>
      </trkpt>
      <trkpt lat="47.28059" lon="-0.11109">
        <ele>24</ele>
        <time>2026-03-12T20:21:48Z</time>
      </trkpt>
      <trkpt lat="47.28075" lon="-0.11128">
        <ele>24</ele>
        <time>2026-03-12T20:21:53Z</time>
      </trkpt>
      <trkpt lat="47.28091" lon="-0.11162">
        <ele>26</ele>
        <time>2026-03-12T20:21:59Z</time>
      </trkpt>
      <trkpt lat="47.28107" lon="-0.11173">
        <ele>25</ele>
        <time>2026-03-12T20:22:03Z</time>
      </trkpt>
      <trkpt lat="47.28115" lon="-0.11198">
        <ele>24</ele>
        <time>2026-03-12T20:22:08Z</time>
      </trkpt>
      <trkpt lat="47.28124" lon="-0.11209">
        <ele>24</ele>
        <time>2026-03-12T20:22:10Z</time>
      </trkpt>
      <trkpt lat="47.28135" lon="-0.1123">
        <ele>24</ele>
        <time>2026-03-12T20:22:15Z</time>
      </trkpt>
      <trkpt lat="47.28167" lon="-0.11267">
        <ele>25</ele>
        <time>2026-03-12T20:22:24Z</time>
      </trkpt>
      <trkpt lat="47.28187" lon="-0.11296">
        <ele>25</ele>
        <time>2026-03-12T20:22:31Z</time>
      </trkpt>
      <trkpt lat="47.2827" lon="-0.11507">
        <ele>26</ele>
        <time>2026-03-12T20:23:09Z</time>
      </trkpt>
      <trkpt lat="47.28297" lon="-0.11562">
        <ele>27</ele>
        <time>2026-03-12T20:23:20Z</time>
      </trkpt>
      <trkpt lat="47.28407" lon="-0.11729">
        <ele>23</ele>
        <time>2026-03-12T20:23:57Z</time>
      </trkpt>
      <trkpt lat="47.28462" lon="-0.11804">
        <ele>23</ele>
        <time>2026-03-12T20:24:14Z</time>
      </trkpt>
      <trkpt lat="47.28552" lon="-0.11939">
        <ele>24</ele>
        <time>2026-03-12T20:24:44Z</time>
      </trkpt>
      <trkpt lat="47.28592" lon="-0.1202">
        <ele>25</ele>
        <time>2026-03-12T20:25:00Z</time>
      </trkpt>
      <trkpt lat="47.2866" lon="-0.12186">
        <ele>23</ele>
        <time>2026-03-12T20:25:31Z</time>
      </trkpt>
      <trkpt lat="47.28745" lon="-0.12361">
        <ele>24</ele>
        <time>2026-03-12T20:26:05Z</time>
      </trkpt>
      <trkpt lat="47.28831" lon="-0.12529">
        <ele>27</ele>
        <time>2026-03-12T20:26:38Z</time>
      </trkpt>
      <trkpt lat="47.28832" lon="-0.12543">
        <ele>28</ele>
        <time>2026-03-12T20:26:41Z</time>
      </trkpt>
      <trkpt lat="47.28827" lon="-0.12556">
        <ele>29</ele>
        <time>2026-03-12T20:26:43Z</time>
      </trkpt>
      <trkpt lat="47.2879" lon="-0.12617">
        <ele>28</ele>
        <time>2026-03-12T20:26:56Z</time>
      </trkpt>
      <trkpt lat="47.2874" lon="-0.12679">
        <ele>28</ele>
        <time>2026-03-12T20:27:11Z</time>
      </trkpt>
      <trkpt lat="47.2862" lon="-0.12812">
        <ele>26</ele>
        <time>2026-03-12T20:27:46Z</time>
      </trkpt>
      <trkpt lat="47.28621" lon="-0.1282">
        <ele>26</ele>
        <time>2026-03-12T20:27:48Z</time>
      </trkpt>
      <trkpt lat="47.28668" lon="-0.12901">
        <ele>26</ele>
        <time>2026-03-12T20:28:04Z</time>
      </trkpt>
      <trkpt lat="47.28672" lon="-0.12916">
        <ele>26</ele>
        <time>2026-03-12T20:28:07Z</time>
      </trkpt>
      <trkpt lat="47.2867" lon="-0.12927">
        <ele>27</ele>
        <time>2026-03-12T20:28:09Z</time>
      </trkpt>
      <trkpt lat="47.28643" lon="-0.1296">
        <ele>32</ele>
        <time>2026-03-12T20:28:17Z</time>
      </trkpt>
      <trkpt lat="47.28609" lon="-0.1302">
        <ele>39</ele>
        <time>2026-03-12T20:28:29Z</time>
      </trkpt>
      <trkpt lat="47.28609" lon="-0.13029">
        <ele>41</ele>
        <time>2026-03-12T20:28:31Z</time>
      </trkpt>
      <trkpt lat="47.28603" lon="-0.13046">
        <ele>43</ele>
        <time>2026-03-12T20:28:34Z</time>
      </trkpt>
      <trkpt lat="47.28599" lon="-0.13083">
        <ele>49</ele>
        <time>2026-03-12T20:28:40Z</time>
      </trkpt>
      <trkpt lat="47.28615" lon="-0.1312">
        <ele>57</ele>
        <time>2026-03-12T20:28:47Z</time>
      </trkpt>
      <trkpt lat="47.28643" lon="-0.13163">
        <ele>66</ele>
        <time>2026-03-12T20:28:56Z</time>
      </trkpt>
      <trkpt lat="47.28661" lon="-0.13201">
        <ele>69</ele>
        <time>2026-03-12T20:29:04Z</time>
      </trkpt>
      <trkpt lat="47.28678" lon="-0.13249">
        <ele>73</ele>
        <time>2026-03-12T20:29:12Z</time>
      </trkpt>
      <trkpt lat="47.28696" lon="-0.13278">
        <ele>74</ele>
        <time>2026-03-12T20:29:18Z</time>
      </trkpt>
      <trkpt lat="47.28697" lon="-0.13286">
        <ele>74</ele>
        <time>2026-03-12T20:29:20Z</time>
      </trkpt>
      <trkpt lat="47.28691" lon="-0.13321">
        <ele>75</ele>
        <time>2026-03-12T20:29:25Z</time>
      </trkpt>
      <trkpt lat="47.28688" lon="-0.13366">
        <ele>75</ele>
        <time>2026-03-12T20:29:32Z</time>
      </trkpt>
      <trkpt lat="47.28681" lon="-0.13405">
        <ele>74</ele>
        <time>2026-03-12T20:29:39Z</time>
      </trkpt>
      <trkpt lat="47.28689" lon="-0.13438">
        <ele>74</ele>
        <time>2026-03-12T20:29:44Z</time>
      </trkpt>
      <trkpt lat="47.28698" lon="-0.1346">
        <ele>74</ele>
        <time>2026-03-12T20:29:49Z</time>
      </trkpt>
      <trkpt lat="47.28749" lon="-0.1351">
        <ele>75</ele>
        <time>2026-03-12T20:30:03Z</time>
      </trkpt>
      <trkpt lat="47.28781" lon="-0.13546">
        <ele>73</ele>
        <time>2026-03-12T20:30:12Z</time>
      </trkpt>
      <trkpt lat="47.28795" lon="-0.13574">
        <ele>73</ele>
        <time>2026-03-12T20:30:18Z</time>
      </trkpt>
      <trkpt lat="47.28824" lon="-0.13654">
        <ele>74</ele>
        <time>2026-03-12T20:30:32Z</time>
      </trkpt>
      <trkpt lat="47.28838" lon="-0.13674">
        <ele>74</ele>
        <time>2026-03-12T20:30:37Z</time>
      </trkpt>
      <trkpt lat="47.28851" lon="-0.13683">
        <ele>73</ele>
        <time>2026-03-12T20:30:40Z</time>
      </trkpt>
      <trkpt lat="47.28864" lon="-0.13679">
        <ele>73</ele>
        <time>2026-03-12T20:30:43Z</time>
      </trkpt>
      <trkpt lat="47.28882" lon="-0.13665">
        <ele>72</ele>
        <time>2026-03-12T20:30:48Z</time>
      </trkpt>
      <trkpt lat="47.28912" lon="-0.1365">
        <ele>68</ele>
        <time>2026-03-12T20:30:55Z</time>
      </trkpt>
      <trkpt lat="47.28931" lon="-0.13632">
        <ele>64</ele>
        <time>2026-03-12T20:31:01Z</time>
      </trkpt>
      <trkpt lat="47.28937" lon="-0.13615">
        <ele>61</ele>
        <time>2026-03-12T20:31:04Z</time>
      </trkpt>
      <trkpt lat="47.28942" lon="-0.13577">
        <ele>55</ele>
        <time>2026-03-12T20:31:10Z</time>
      </trkpt>
      <trkpt lat="47.28958" lon="-0.13529">
        <ele>48</ele>
        <time>2026-03-12T20:31:18Z</time>
      </trkpt>
      <trkpt lat="47.28973" lon="-0.13512">
        <ele>43</ele>
        <time>2026-03-12T20:31:23Z</time>
      </trkpt>
      <trkpt lat="47.2898" lon="-0.13509">
        <ele>41</ele>
        <time>2026-03-12T20:31:24Z</time>
      </trkpt>
      <trkpt lat="47.28988" lon="-0.13509">
        <ele>40</ele>
        <time>2026-03-12T20:31:26Z</time>
      </trkpt>
      <trkpt lat="47.29002" lon="-0.1352">
        <ele>39</ele>
        <time>2026-03-12T20:31:30Z</time>
      </trkpt>
      <trkpt lat="47.29008" lon="-0.13502">
        <ele>36</ele>
        <time>2026-03-12T20:31:33Z</time>
      </trkpt>
      <trkpt lat="47.29019" lon="-0.13484">
        <ele>34</ele>
        <time>2026-03-12T20:31:37Z</time>
      </trkpt>
      <trkpt lat="47.29029" lon="-0.13456">
        <ele>31</ele>
        <time>2026-03-12T20:31:42Z</time>
      </trkpt>
      <trkpt lat="47.29035" lon="-0.13449">
        <ele>31</ele>
        <time>2026-03-12T20:31:44Z</time>
      </trkpt>
      <trkpt lat="47.29042" lon="-0.1345">
        <ele>30</ele>
        <time>2026-03-12T20:31:45Z</time>
      </trkpt>
      <trkpt lat="47.29133" lon="-0.13545">
        <ele>30</ele>
        <time>2026-03-12T20:32:11Z</time>
      </trkpt>
      <trkpt lat="47.29162" lon="-0.13567">
        <ele>29</ele>
        <time>2026-03-12T20:32:19Z</time>
      </trkpt>
      <trkpt lat="47.29191" lon="-0.13585">
        <ele>28</ele>
        <time>2026-03-12T20:32:26Z</time>
      </trkpt>
      <trkpt lat="47.2926" lon="-0.13637">
        <ele>30</ele>
        <time>2026-03-12T20:32:44Z</time>
      </trkpt>
      <trkpt lat="47.29324" lon="-0.13689">
        <ele>31</ele>
        <time>2026-03-12T20:33:01Z</time>
      </trkpt>
      <trkpt lat="47.29333" lon="-0.1369">
        <ele>30</ele>
        <time>2026-03-12T20:33:04Z</time>
      </trkpt>
      <trkpt lat="47.29337" lon="-0.13687">
        <ele>30</ele>
        <time>2026-03-12T20:33:05Z</time>
      </trkpt>
      <trkpt lat="47.29369" lon="-0.13646">
        <ele>27</ele>
        <time>2026-03-12T20:33:15Z</time>
      </trkpt>
      <trkpt lat="47.29343" lon="-0.13675">
        <ele>29</ele>
        <time>2026-03-12T20:33:22Z</time>
      </trkpt>
      <trkpt lat="47.29342" lon="-0.1368">
        <ele>29</ele>
        <time>2026-03-12T20:33:23Z</time>
      </trkpt>
      <trkpt lat="47.29345" lon="-0.13688">
        <ele>29</ele>
        <time>2026-03-12T20:33:24Z</time>
      </trkpt>
      <trkpt lat="47.29425" lon="-0.13751">
        <ele>27</ele>
        <time>2026-03-12T20:33:46Z</time>
      </trkpt>
      <trkpt lat="47.29513" lon="-0.13826">
        <ele>29</ele>
        <time>2026-03-12T20:34:09Z</time>
      </trkpt>
      <trkpt lat="47.2957" lon="-0.13871">
        <ele>27</ele>
        <time>2026-03-12T20:34:24Z</time>
      </trkpt>
      <trkpt lat="47.29606" lon="-0.13909">
        <ele>26</ele>
        <time>2026-03-12T20:34:35Z</time>
      </trkpt>
      <trkpt lat="47.2964" lon="-0.13936">
        <ele>27</ele>
        <time>2026-03-12T20:34:44Z</time>
      </trkpt>
      <trkpt lat="47.29646" lon="-0.13945">
        <ele>28</ele>
        <time>2026-03-12T20:34:46Z</time>
      </trkpt>
      <trkpt lat="47.29648" lon="-0.13957">
        <ele>29</ele>
        <time>2026-03-12T20:34:48Z</time>
      </trkpt>
      <trkpt lat="47.2964" lon="-0.13986">
        <ele>31</ele>
        <time>2026-03-12T20:34:53Z</time>
      </trkpt>
      <trkpt lat="47.29627" lon="-0.14084">
        <ele>47</ele>
        <time>2026-03-12T20:35:09Z</time>
      </trkpt>
      <trkpt lat="47.29617" lon="-0.14126">
        <ele>52</ele>
        <time>2026-03-12T20:35:16Z</time>
      </trkpt>
      <trkpt lat="47.29593" lon="-0.14186">
        <ele>56</ele>
        <time>2026-03-12T20:35:27Z</time>
      </trkpt>
      <trkpt lat="47.29591" lon="-0.14204">
        <ele>57</ele>
        <time>2026-03-12T20:35:29Z</time>
      </trkpt>
      <trkpt lat="47.29593" lon="-0.14212">
        <ele>58</ele>
        <time>2026-03-12T20:35:31Z</time>
      </trkpt>
      <trkpt lat="47.2959" lon="-0.14227">
        <ele>59</ele>
        <time>2026-03-12T20:35:33Z</time>
      </trkpt>
      <trkpt lat="47.29607" lon="-0.14291">
        <ele>67</ele>
        <time>2026-03-12T20:35:44Z</time>
      </trkpt>
      <trkpt lat="47.29605" lon="-0.14315">
        <ele>68</ele>
        <time>2026-03-12T20:35:48Z</time>
      </trkpt>
      <trkpt lat="47.29606" lon="-0.14327">
        <ele>69</ele>
        <time>2026-03-12T20:35:50Z</time>
      </trkpt>
      <trkpt lat="47.29611" lon="-0.1434">
        <ele>70</ele>
        <time>2026-03-12T20:35:52Z</time>
      </trkpt>
      <trkpt lat="47.29601" lon="-0.14372">
        <ele>71</ele>
        <time>2026-03-12T20:35:58Z</time>
      </trkpt>
      <trkpt lat="47.29598" lon="-0.14403">
        <ele>73</ele>
        <time>2026-03-12T20:36:03Z</time>
      </trkpt>
      <trkpt lat="47.29622" lon="-0.1436">
        <ele>72</ele>
        <time>2026-03-12T20:36:12Z</time>
      </trkpt>
      <trkpt lat="47.2963" lon="-0.14352">
        <ele>73</ele>
        <time>2026-03-12T20:36:14Z</time>
      </trkpt>
      <trkpt lat="47.29634" lon="-0.14353">
        <ele>73</ele>
        <time>2026-03-12T20:36:15Z</time>
      </trkpt>
      <trkpt lat="47.297" lon="-0.14444">
        <ele>78</ele>
        <time>2026-03-12T20:36:36Z</time>
      </trkpt>
      <trkpt lat="47.29761" lon="-0.14502">
        <ele>80</ele>
        <time>2026-03-12T20:36:53Z</time>
      </trkpt>
      <trkpt lat="47.29867" lon="-0.14666">
        <ele>82</ele>
        <time>2026-03-12T20:37:29Z</time>
      </trkpt>
      <trkpt lat="47.3006" lon="-0.1494">
        <ele>83</ele>
        <time>2026-03-12T20:38:31Z</time>
      </trkpt>
      <trkpt lat="47.30066" lon="-0.14953">
        <ele>83</ele>
        <time>2026-03-12T20:38:34Z</time>
      </trkpt>
      <trkpt lat="47.30065" lon="-0.1499">
        <ele>83</ele>
        <time>2026-03-12T20:38:40Z</time>
      </trkpt>
      <trkpt lat="47.30102" lon="-0.1505">
        <ele>84</ele>
        <time>2026-03-12T20:38:53Z</time>
      </trkpt>
      <trkpt lat="47.30132" lon="-0.15089">
        <ele>84</ele>
        <time>2026-03-12T20:39:02Z</time>
      </trkpt>
      <trkpt lat="47.30142" lon="-0.1511">
        <ele>83</ele>
        <time>2026-03-12T20:39:06Z</time>
      </trkpt>
      <trkpt lat="47.30146" lon="-0.15126">
        <ele>83</ele>
        <time>2026-03-12T20:39:09Z</time>
      </trkpt>
      <trkpt lat="47.30156" lon="-0.15208">
        <ele>83</ele>
        <time>2026-03-12T20:39:22Z</time>
      </trkpt>
      <trkpt lat="47.3017" lon="-0.15252">
        <ele>83</ele>
        <time>2026-03-12T20:39:30Z</time>
      </trkpt>
      <trkpt lat="47.30182" lon="-0.15272">
        <ele>83</ele>
        <time>2026-03-12T20:39:34Z</time>
      </trkpt>
      <trkpt lat="47.30215" lon="-0.15293">
        <ele>82</ele>
        <time>2026-03-12T20:39:42Z</time>
      </trkpt>
      <trkpt lat="47.30274" lon="-0.15293">
        <ele>82</ele>
        <time>2026-03-12T20:39:56Z</time>
      </trkpt>
      <trkpt lat="47.303" lon="-0.15297">
        <ele>81</ele>
        <time>2026-03-12T20:40:02Z</time>
      </trkpt>
      <trkpt lat="47.3031" lon="-0.15289">
        <ele>81</ele>
        <time>2026-03-12T20:40:05Z</time>
      </trkpt>
      <trkpt lat="47.30338" lon="-0.1525">
        <ele>81</ele>
        <time>2026-03-12T20:40:14Z</time>
      </trkpt>
      <trkpt lat="47.30363" lon="-0.15275">
        <ele>80</ele>
        <time>2026-03-12T20:40:21Z</time>
      </trkpt>
      <trkpt lat="47.30404" lon="-0.15328">
        <ele>78</ele>
        <time>2026-03-12T20:40:34Z</time>
      </trkpt>
      <trkpt lat="47.304" lon="-0.15343">
        <ele>78</ele>
        <time>2026-03-12T20:40:36Z</time>
      </trkpt>
      <trkpt lat="47.30288" lon="-0.15548">
        <ele>80</ele>
        <time>2026-03-12T20:41:18Z</time>
      </trkpt>
      <trkpt lat="47.30252" lon="-0.15609">
        <ele>83</ele>
        <time>2026-03-12T20:41:31Z</time>
      </trkpt>
      <trkpt lat="47.30196" lon="-0.15719">
        <ele>83</ele>
        <time>2026-03-12T20:41:52Z</time>
      </trkpt>
      <trkpt lat="47.30179" lon="-0.15758">
        <ele>83</ele>
        <time>2026-03-12T20:42:00Z</time>
      </trkpt>
      <trkpt lat="47.30156" lon="-0.15831">
        <ele>83</ele>
        <time>2026-03-12T20:42:12Z</time>
      </trkpt>
      <trkpt lat="47.30107" lon="-0.15967">
        <ele>81</ele>
        <time>2026-03-12T20:42:37Z</time>
      </trkpt>
      <trkpt lat="47.30086" lon="-0.16019">
        <ele>81</ele>
        <time>2026-03-12T20:42:46Z</time>
      </trkpt>
      <trkpt lat="47.30068" lon="-0.16053">
        <ele>80</ele>
        <time>2026-03-12T20:42:53Z</time>
      </trkpt>
      <trkpt lat="47.30065" lon="-0.16063">
        <ele>80</ele>
        <time>2026-03-12T20:42:55Z</time>
      </trkpt>
      <trkpt lat="47.30078" lon="-0.16087">
        <ele>81</ele>
        <time>2026-03-12T20:43:00Z</time>
      </trkpt>
      <trkpt lat="47.3018" lon="-0.16224">
        <ele>78</ele>
        <time>2026-03-12T20:43:32Z</time>
      </trkpt>
      <trkpt lat="47.30231" lon="-0.1631">
        <ele>68</ele>
        <time>2026-03-12T20:43:50Z</time>
      </trkpt>
      <trkpt lat="47.30308" lon="-0.16392">
        <ele>59</ele>
        <time>2026-03-12T20:44:12Z</time>
      </trkpt>
      <trkpt lat="47.30324" lon="-0.16405">
        <ele>58</ele>
        <time>2026-03-12T20:44:17Z</time>
      </trkpt>
      <trkpt lat="47.30337" lon="-0.16411">
        <ele>57</ele>
        <time>2026-03-12T20:44:20Z</time>
      </trkpt>
      <trkpt lat="47.30368" lon="-0.16417">
        <ele>55</ele>
        <time>2026-03-12T20:44:27Z</time>
      </trkpt>
      <trkpt lat="47.30386" lon="-0.16414">
        <ele>55</ele>
        <time>2026-03-12T20:44:31Z</time>
      </trkpt>
      <trkpt lat="47.30394" lon="-0.16409">
        <ele>55</ele>
        <time>2026-03-12T20:44:33Z</time>
      </trkpt>
      <trkpt lat="47.30411" lon="-0.16392">
        <ele>55</ele>
        <time>2026-03-12T20:44:38Z</time>
      </trkpt>
      <trkpt lat="47.30416" lon="-0.16393">
        <ele>54</ele>
        <time>2026-03-12T20:44:39Z</time>
      </trkpt>
      <trkpt lat="47.30415" lon="-0.1641">
        <ele>53</ele>
        <time>2026-03-12T20:44:42Z</time>
      </trkpt>
      <trkpt lat="47.30396" lon="-0.16455">
        <ele>52</ele>
        <time>2026-03-12T20:44:50Z</time>
      </trkpt>
      <trkpt lat="47.30392" lon="-0.16474">
        <ele>51</ele>
        <time>2026-03-12T20:44:54Z</time>
      </trkpt>
      <trkpt lat="47.30393" lon="-0.16491">
        <ele>50</ele>
        <time>2026-03-12T20:44:56Z</time>
      </trkpt>
      <trkpt lat="47.304" lon="-0.1652">
        <ele>49</ele>
        <time>2026-03-12T20:45:01Z</time>
      </trkpt>
      <trkpt lat="47.30435" lon="-0.16608">
        <ele>51</ele>
        <time>2026-03-12T20:45:17Z</time>
      </trkpt>
      <trkpt lat="47.30439" lon="-0.1661">
        <ele>51</ele>
        <time>2026-03-12T20:45:18Z</time>
      </trkpt>
      <trkpt lat="47.30447" lon="-0.16607">
        <ele>52</ele>
        <time>2026-03-12T20:45:20Z</time>
      </trkpt>
      <trkpt lat="47.30494" lon="-0.16569">
        <ele>54</ele>
        <time>2026-03-12T20:45:33Z</time>
      </trkpt>
      <trkpt lat="47.30502" lon="-0.16561">
        <ele>55</ele>
        <time>2026-03-12T20:45:35Z</time>
      </trkpt>
      <trkpt lat="47.3051" lon="-0.16545">
        <ele>56</ele>
        <time>2026-03-12T20:45:38Z</time>
      </trkpt>
      <trkpt lat="47.30516" lon="-0.1654">
        <ele>57</ele>
        <time>2026-03-12T20:45:40Z</time>
      </trkpt>
      <trkpt lat="47.30523" lon="-0.1655">
        <ele>58</ele>
        <time>2026-03-12T20:45:42Z</time>
      </trkpt>
      <trkpt lat="47.30539" lon="-0.16587">
        <ele>61</ele>
        <time>2026-03-12T20:45:49Z</time>
      </trkpt>
      <trkpt lat="47.30546" lon="-0.16593">
        <ele>62</ele>
        <time>2026-03-12T20:45:51Z</time>
      </trkpt>
      <trkpt lat="47.30555" lon="-0.16596">
        <ele>63</ele>
        <time>2026-03-12T20:45:53Z</time>
      </trkpt>
      <trkpt lat="47.3059" lon="-0.16593">
        <ele>68</ele>
        <time>2026-03-12T20:46:01Z</time>
      </trkpt>
      <trkpt lat="47.3062" lon="-0.16598">
        <ele>72</ele>
        <time>2026-03-12T20:46:08Z</time>
      </trkpt>
      <trkpt lat="47.30659" lon="-0.16559">
        <ele>76</ele>
        <time>2026-03-12T20:46:19Z</time>
      </trkpt>
      <trkpt lat="47.30679" lon="-0.16507">
        <ele>77</ele>
        <time>2026-03-12T20:46:29Z</time>
      </trkpt>
      <trkpt lat="47.30714" lon="-0.16436">
        <ele>76</ele>
        <time>2026-03-12T20:46:43Z</time>
      </trkpt>
      <trkpt lat="47.30731" lon="-0.16396">
        <ele>76</ele>
        <time>2026-03-12T20:46:50Z</time>
      </trkpt>
      <trkpt lat="47.30761" lon="-0.16301">
        <ele>76</ele>
        <time>2026-03-12T20:47:07Z</time>
      </trkpt>
      <trkpt lat="47.30791" lon="-0.16182">
        <ele>69</ele>
        <time>2026-03-12T20:47:27Z</time>
      </trkpt>
      <trkpt lat="47.30799" lon="-0.16141">
        <ele>68</ele>
        <time>2026-03-12T20:47:34Z</time>
      </trkpt>
      <trkpt lat="47.30831" lon="-0.16045">
        <ele>72</ele>
        <time>2026-03-12T20:47:50Z</time>
      </trkpt>
      <trkpt lat="47.30839" lon="-0.16031">
        <ele>72</ele>
        <time>2026-03-12T20:47:53Z</time>
      </trkpt>
      <trkpt lat="47.30851" lon="-0.16026">
        <ele>72</ele>
        <time>2026-03-12T20:47:56Z</time>
      </trkpt>
      <trkpt lat="47.3089" lon="-0.1603">
        <ele>73</ele>
        <time>2026-03-12T20:48:05Z</time>
      </trkpt>
      <trkpt lat="47.30914" lon="-0.1604">
        <ele>74</ele>
        <time>2026-03-12T20:48:11Z</time>
      </trkpt>
      <trkpt lat="47.30932" lon="-0.16043">
        <ele>74</ele>
        <time>2026-03-12T20:48:15Z</time>
      </trkpt>
      <trkpt lat="47.30954" lon="-0.16037">
        <ele>74</ele>
        <time>2026-03-12T20:48:21Z</time>
      </trkpt>
      <trkpt lat="47.30977" lon="-0.16022">
        <ele>74</ele>
        <time>2026-03-12T20:48:27Z</time>
      </trkpt>
      <trkpt lat="47.30991" lon="-0.16017">
        <ele>74</ele>
        <time>2026-03-12T20:48:30Z</time>
      </trkpt>
      <trkpt lat="47.3102" lon="-0.16015">
        <ele>73</ele>
        <time>2026-03-12T20:48:37Z</time>
      </trkpt>
      <trkpt lat="47.31026" lon="-0.16017">
        <ele>73</ele>
        <time>2026-03-12T20:48:38Z</time>
      </trkpt>
      <trkpt lat="47.31029" lon="-0.16021">
        <ele>73</ele>
        <time>2026-03-12T20:48:39Z</time>
      </trkpt>
      <trkpt lat="47.31033" lon="-0.16052">
        <ele>73</ele>
        <time>2026-03-12T20:48:44Z</time>
      </trkpt>
      <trkpt lat="47.31065" lon="-0.16162">
        <ele>74</ele>
        <time>2026-03-12T20:49:03Z</time>
      </trkpt>
      <trkpt lat="47.31072" lon="-0.16196">
        <ele>74</ele>
        <time>2026-03-12T20:49:09Z</time>
      </trkpt>
      <trkpt lat="47.31088" lon="-0.16282">
        <ele>74</ele>
        <time>2026-03-12T20:49:23Z</time>
      </trkpt>
      <trkpt lat="47.31087" lon="-0.16303">
        <ele>75</ele>
        <time>2026-03-12T20:49:26Z</time>
      </trkpt>
      <trkpt lat="47.31053" lon="-0.16395">
        <ele>74</ele>
        <time>2026-03-12T20:49:43Z</time>
      </trkpt>
      <trkpt lat="47.3087" lon="-0.16945">
        <ele>76</ele>
        <time>2026-03-12T20:51:20Z</time>
      </trkpt>
      <trkpt lat="47.3079" lon="-0.17173">
        <ele>79</ele>
        <time>2026-03-12T20:52:00Z</time>
      </trkpt>
      <trkpt lat="47.30787" lon="-0.17188">
        <ele>80</ele>
        <time>2026-03-12T20:52:03Z</time>
      </trkpt>
      <trkpt lat="47.30787" lon="-0.17204">
        <ele>81</ele>
        <time>2026-03-12T20:52:05Z</time>
      </trkpt>
      <trkpt lat="47.30799" lon="-0.17248">
        <ele>83</ele>
        <time>2026-03-12T20:52:13Z</time>
      </trkpt>
      <trkpt lat="47.30902" lon="-0.17537">
        <ele>83</ele>
        <time>2026-03-12T20:53:05Z</time>
      </trkpt>
      <trkpt lat="47.30967" lon="-0.17686">
        <ele>82</ele>
        <time>2026-03-12T20:53:33Z</time>
      </trkpt>
      <trkpt lat="47.30994" lon="-0.17741">
        <ele>82</ele>
        <time>2026-03-12T20:53:43Z</time>
      </trkpt>
      <trkpt lat="47.31038" lon="-0.17803">
        <ele>81</ele>
        <time>2026-03-12T20:53:58Z</time>
      </trkpt>
      <trkpt lat="47.31061" lon="-0.17845">
        <ele>81</ele>
        <time>2026-03-12T20:54:06Z</time>
      </trkpt>
      <trkpt lat="47.31101" lon="-0.17931">
        <ele>82</ele>
        <time>2026-03-12T20:54:23Z</time>
      </trkpt>
      <trkpt lat="47.31147" lon="-0.18065">
        <ele>80</ele>
        <time>2026-03-12T20:54:46Z</time>
      </trkpt>
      <trkpt lat="47.31229" lon="-0.18215">
        <ele>79</ele>
        <time>2026-03-12T20:55:17Z</time>
      </trkpt>
      <trkpt lat="47.31278" lon="-0.18299">
        <ele>78</ele>
        <time>2026-03-12T20:55:35Z</time>
      </trkpt>
      <trkpt lat="47.31336" lon="-0.18425">
        <ele>76</ele>
        <time>2026-03-12T20:55:59Z</time>
      </trkpt>
      <trkpt lat="47.31344" lon="-0.18434">
        <ele>75</ele>
        <time>2026-03-12T20:56:01Z</time>
      </trkpt>
      <trkpt lat="47.31351" lon="-0.18434">
        <ele>75</ele>
        <time>2026-03-12T20:56:03Z</time>
      </trkpt>
      <trkpt lat="47.31538" lon="-0.18314">
        <ele>72</ele>
        <time>2026-03-12T20:56:50Z</time>
      </trkpt>
      <trkpt lat="47.31541" lon="-0.18309">
        <ele>72</ele>
        <time>2026-03-12T20:56:51Z</time>
      </trkpt>
      <trkpt lat="47.31542" lon="-0.18297">
        <ele>72</ele>
        <time>2026-03-12T20:56:53Z</time>
      </trkpt>
      <trkpt lat="47.31534" lon="-0.18263">
        <ele>72</ele>
        <time>2026-03-12T20:56:59Z</time>
      </trkpt>
      <trkpt lat="47.31544" lon="-0.1822">
        <ele>72</ele>
        <time>2026-03-12T20:57:06Z</time>
      </trkpt>
      <trkpt lat="47.31542" lon="-0.18204">
        <ele>72</ele>
        <time>2026-03-12T20:57:09Z</time>
      </trkpt>
      <trkpt lat="47.31525" lon="-0.18166">
        <ele>71</ele>
        <time>2026-03-12T20:57:16Z</time>
      </trkpt>
      <trkpt lat="47.31528" lon="-0.18151">
        <ele>71</ele>
        <time>2026-03-12T20:57:18Z</time>
      </trkpt>
      <trkpt lat="47.31582" lon="-0.18141">
        <ele>72</ele>
        <time>2026-03-12T20:57:31Z</time>
      </trkpt>
      <trkpt lat="47.31615" lon="-0.18118">
        <ele>71</ele>
        <time>2026-03-12T20:57:40Z</time>
      </trkpt>
      <trkpt lat="47.3163" lon="-0.181">
        <ele>70</ele>
        <time>2026-03-12T20:57:44Z</time>
      </trkpt>
      <trkpt lat="47.31658" lon="-0.1808">
        <ele>68</ele>
        <time>2026-03-12T20:57:51Z</time>
      </trkpt>
      <trkpt lat="47.31756" lon="-0.18036">
        <ele>62</ele>
        <time>2026-03-12T20:58:15Z</time>
      </trkpt>
      <trkpt lat="47.31782" lon="-0.18016">
        <ele>55</ele>
        <time>2026-03-12T20:58:22Z</time>
      </trkpt>
      <trkpt lat="47.31794" lon="-0.18014">
        <ele>53</ele>
        <time>2026-03-12T20:58:25Z</time>
      </trkpt>
      <trkpt lat="47.31803" lon="-0.18008">
        <ele>51</ele>
        <time>2026-03-12T20:58:27Z</time>
      </trkpt>
      <trkpt lat="47.3181" lon="-0.18008">
        <ele>50</ele>
        <time>2026-03-12T20:58:29Z</time>
      </trkpt>
      <trkpt lat="47.31819" lon="-0.18013">
        <ele>49</ele>
        <time>2026-03-12T20:58:31Z</time>
      </trkpt>
      <trkpt lat="47.31854" lon="-0.18043">
        <ele>47</ele>
        <time>2026-03-12T20:58:41Z</time>
      </trkpt>
      <trkpt lat="47.3187" lon="-0.18076">
        <ele>47</ele>
        <time>2026-03-12T20:58:47Z</time>
      </trkpt>
      <trkpt lat="47.31885" lon="-0.18093">
        <ele>45</ele>
        <time>2026-03-12T20:58:51Z</time>
      </trkpt>
      <trkpt lat="47.31926" lon="-0.18169">
        <ele>45</ele>
        <time>2026-03-12T20:59:07Z</time>
      </trkpt>
      <trkpt lat="47.31944" lon="-0.18196">
        <ele>43</ele>
        <time>2026-03-12T20:59:13Z</time>
      </trkpt>
      <trkpt lat="47.31956" lon="-0.18227">
        <ele>43</ele>
        <time>2026-03-12T20:59:18Z</time>
      </trkpt>
      <trkpt lat="47.31988" lon="-0.18292">
        <ele>35</ele>
        <time>2026-03-12T20:59:31Z</time>
      </trkpt>
      <trkpt lat="47.31994" lon="-0.18331">
        <ele>35</ele>
        <time>2026-03-12T20:59:38Z</time>
      </trkpt>
      <trkpt lat="47.32009" lon="-0.18391">
        <ele>33</ele>
        <time>2026-03-12T20:59:48Z</time>
      </trkpt>
      <trkpt lat="47.32008" lon="-0.18395">
        <ele>33</ele>
        <time>2026-03-12T20:59:48Z</time>
      </trkpt>
      <trkpt lat="47.32003" lon="-0.18399">
        <ele>33</ele>
        <time>2026-03-12T20:59:50Z</time>
      </trkpt>
      <trkpt lat="47.31971" lon="-0.1841">
        <ele>38</ele>
        <time>2026-03-12T20:59:57Z</time>
      </trkpt>
      <trkpt lat="47.31953" lon="-0.18428">
        <ele>41</ele>
        <time>2026-03-12T21:00:02Z</time>
      </trkpt>
      <trkpt lat="47.31951" lon="-0.18449">
        <ele>44</ele>
        <time>2026-03-12T21:00:06Z</time>
      </trkpt>
      <trkpt lat="47.3196" lon="-0.18464">
        <ele>44</ele>
        <time>2026-03-12T21:00:09Z</time>
      </trkpt>
      <trkpt lat="47.31968" lon="-0.18486">
        <ele>46</ele>
        <time>2026-03-12T21:00:13Z</time>
      </trkpt>
      <trkpt lat="47.31976" lon="-0.18493">
        <ele>47</ele>
        <time>2026-03-12T21:00:15Z</time>
      </trkpt>
      <trkpt lat="47.31988" lon="-0.18497">
        <ele>46</ele>
        <time>2026-03-12T21:00:18Z</time>
      </trkpt>
      <trkpt lat="47.31997" lon="-0.18498">
        <ele>46</ele>
        <time>2026-03-12T21:00:20Z</time>
      </trkpt>
      <trkpt lat="47.32034" lon="-0.18494">
        <ele>41</ele>
        <time>2026-03-12T21:00:29Z</time>
      </trkpt>
      <trkpt lat="47.32043" lon="-0.18497">
        <ele>40</ele>
        <time>2026-03-12T21:00:31Z</time>
      </trkpt>
      <trkpt lat="47.32062" lon="-0.18514">
        <ele>40</ele>
        <time>2026-03-12T21:00:36Z</time>
      </trkpt>
      <trkpt lat="47.32091" lon="-0.18526">
        <ele>38</ele>
        <time>2026-03-12T21:00:43Z</time>
      </trkpt>
      <trkpt lat="47.32115" lon="-0.18559">
        <ele>37</ele>
        <time>2026-03-12T21:00:51Z</time>
      </trkpt>
      <trkpt lat="47.32126" lon="-0.18568">
        <ele>36</ele>
        <time>2026-03-12T21:00:54Z</time>
      </trkpt>
      <trkpt lat="47.32129" lon="-0.18565">
        <ele>35</ele>
        <time>2026-03-12T21:00:55Z</time>
      </trkpt>
      <trkpt lat="47.32141" lon="-0.18522">
        <ele>30</ele>
        <time>2026-03-12T21:01:02Z</time>
      </trkpt>
      <trkpt lat="47.32146" lon="-0.18513">
        <ele>28</ele>
        <time>2026-03-12T21:01:04Z</time>
      </trkpt>
      <trkpt lat="47.32167" lon="-0.18534">
        <ele>26</ele>
        <time>2026-03-12T21:01:10Z</time>
      </trkpt>
      <trkpt lat="47.32181" lon="-0.18553">
        <ele>25</ele>
        <time>2026-03-12T21:01:14Z</time>
      </trkpt>
      <trkpt lat="47.32241" lon="-0.18652">
        <ele>26</ele>
        <time>2026-03-12T21:01:35Z</time>
      </trkpt>
      <trkpt lat="47.32284" lon="-0.18742">
        <ele>27</ele>
        <time>2026-03-12T21:01:53Z</time>
      </trkpt>
      <trkpt lat="47.32325" lon="-0.18817">
        <ele>30</ele>
        <time>2026-03-12T21:02:08Z</time>
      </trkpt>
      <trkpt lat="47.32448" lon="-0.19092">
        <ele>31</ele>
        <time>2026-03-12T21:03:00Z</time>
      </trkpt>
      <trkpt lat="47.32514" lon="-0.19191">
        <ele>38</ele>
        <time>2026-03-12T21:03:22Z</time>
      </trkpt>
      <trkpt lat="47.32551" lon="-0.19258">
        <ele>42</ele>
        <time>2026-03-12T21:03:36Z</time>
      </trkpt>
      <trkpt lat="47.32582" lon="-0.19323">
        <ele>39</ele>
        <time>2026-03-12T21:03:48Z</time>
      </trkpt>
      <trkpt lat="47.32614" lon="-0.19382">
        <ele>40</ele>
        <time>2026-03-12T21:04:00Z</time>
      </trkpt>
      <trkpt lat="47.3266" lon="-0.19483">
        <ele>34</ele>
        <time>2026-03-12T21:04:19Z</time>
      </trkpt>
      <trkpt lat="47.32662" lon="-0.19486">
        <ele>33</ele>
        <time>2026-03-12T21:04:20Z</time>
      </trkpt>
      <trkpt lat="47.32666" lon="-0.19485">
        <ele>32</ele>
        <time>2026-03-12T21:04:21Z</time>
      </trkpt>
      <trkpt lat="47.32682" lon="-0.19459">
        <ele>30</ele>
        <time>2026-03-12T21:04:27Z</time>
      </trkpt>
      <trkpt lat="47.32696" lon="-0.19474">
        <ele>29</ele>
        <time>2026-03-12T21:04:31Z</time>
      </trkpt>
      <trkpt lat="47.32732" lon="-0.19538">
        <ele>30</ele>
        <time>2026-03-12T21:04:44Z</time>
      </trkpt>
      <trkpt lat="47.32764" lon="-0.19577">
        <ele>30</ele>
        <time>2026-03-12T21:04:54Z</time>
      </trkpt>
      <trkpt lat="47.32797" lon="-0.19611">
        <ele>28</ele>
        <time>2026-03-12T21:05:03Z</time>
      </trkpt>
      <trkpt lat="47.32834" lon="-0.19669">
        <ele>25</ele>
        <time>2026-03-12T21:05:16Z</time>
      </trkpt>
      <trkpt lat="47.32864" lon="-0.19728">
        <ele>29</ele>
        <time>2026-03-12T21:05:27Z</time>
      </trkpt>
      <trkpt lat="47.3287" lon="-0.19747">
        <ele>31</ele>
        <time>2026-03-12T21:05:30Z</time>
      </trkpt>
      <trkpt lat="47.3287" lon="-0.19788">
        <ele>36</ele>
        <time>2026-03-12T21:05:37Z</time>
      </trkpt>
      <trkpt lat="47.3288" lon="-0.19823">
        <ele>38</ele>
        <time>2026-03-12T21:05:43Z</time>
      </trkpt>
      <trkpt lat="47.32901" lon="-0.19859">
        <ele>36</ele>
        <time>2026-03-12T21:05:51Z</time>
      </trkpt>
      <trkpt lat="47.32959" lon="-0.19929">
        <ele>30</ele>
        <time>2026-03-12T21:06:08Z</time>
      </trkpt>
      <trkpt lat="47.3298" lon="-0.19958">
        <ele>28</ele>
        <time>2026-03-12T21:06:15Z</time>
      </trkpt>
      <trkpt lat="47.32982" lon="-0.19966">
        <ele>29</ele>
        <time>2026-03-12T21:06:16Z</time>
      </trkpt>
      <trkpt lat="47.32978" lon="-0.19972">
        <ele>29</ele>
        <time>2026-03-12T21:06:17Z</time>
      </trkpt>
      <trkpt lat="47.32961" lon="-0.19968">
        <ele>31</ele>
        <time>2026-03-12T21:06:21Z</time>
      </trkpt>
      <trkpt lat="47.32954" lon="-0.19972">
        <ele>33</ele>
        <time>2026-03-12T21:06:23Z</time>
      </trkpt>
      <trkpt lat="47.32943" lon="-0.19993">
        <ele>35</ele>
        <time>2026-03-12T21:06:27Z</time>
      </trkpt>
      <trkpt lat="47.32942" lon="-0.20001">
        <ele>35</ele>
        <time>2026-03-12T21:06:29Z</time>
      </trkpt>
      <trkpt lat="47.32945" lon="-0.20012">
        <ele>35</ele>
        <time>2026-03-12T21:06:31Z</time>
      </trkpt>
      <trkpt lat="47.32966" lon="-0.20025">
        <ele>34</ele>
        <time>2026-03-12T21:06:36Z</time>
      </trkpt>
      <trkpt lat="47.3297" lon="-0.2003">
        <ele>34</ele>
        <time>2026-03-12T21:06:37Z</time>
      </trkpt>
      <trkpt lat="47.32983" lon="-0.20061">
        <ele>34</ele>
        <time>2026-03-12T21:06:43Z</time>
      </trkpt>
      <trkpt lat="47.32984" lon="-0.20089">
        <ele>36</ele>
        <time>2026-03-12T21:06:47Z</time>
      </trkpt>
      <trkpt lat="47.32978" lon="-0.20101">
        <ele>37</ele>
        <time>2026-03-12T21:06:50Z</time>
      </trkpt>
      <trkpt lat="47.32967" lon="-0.20112">
        <ele>38</ele>
        <time>2026-03-12T21:06:53Z</time>
      </trkpt>
      <trkpt lat="47.32958" lon="-0.20118">
        <ele>38</ele>
        <time>2026-03-12T21:06:55Z</time>
      </trkpt>
      <trkpt lat="47.32933" lon="-0.20128">
        <ele>40</ele>
        <time>2026-03-12T21:07:01Z</time>
      </trkpt>
      <trkpt lat="47.32923" lon="-0.2014">
        <ele>41</ele>
        <time>2026-03-12T21:07:04Z</time>
      </trkpt>
      <trkpt lat="47.32915" lon="-0.20159">
        <ele>42</ele>
        <time>2026-03-12T21:07:08Z</time>
      </trkpt>
      <trkpt lat="47.3291" lon="-0.20224">
        <ele>44</ele>
        <time>2026-03-12T21:07:18Z</time>
      </trkpt>
      <trkpt lat="47.32906" lon="-0.20231">
        <ele>44</ele>
        <time>2026-03-12T21:07:19Z</time>
      </trkpt>
      <trkpt lat="47.32891" lon="-0.20242">
        <ele>43</ele>
        <time>2026-03-12T21:07:23Z</time>
      </trkpt>
      <trkpt lat="47.32885" lon="-0.2026">
        <ele>43</ele>
        <time>2026-03-12T21:07:27Z</time>
      </trkpt>
      <trkpt lat="47.32886" lon="-0.20331">
        <ele>46</ele>
        <time>2026-03-12T21:07:38Z</time>
      </trkpt>
      <trkpt lat="47.32881" lon="-0.2036">
        <ele>47</ele>
        <time>2026-03-12T21:07:43Z</time>
      </trkpt>
      <trkpt lat="47.32886" lon="-0.20388">
        <ele>49</ele>
        <time>2026-03-12T21:07:47Z</time>
      </trkpt>
      <trkpt lat="47.32893" lon="-0.20409">
        <ele>50</ele>
        <time>2026-03-12T21:07:51Z</time>
      </trkpt>
      <trkpt lat="47.32937" lon="-0.20497">
        <ele>56</ele>
        <time>2026-03-12T21:08:08Z</time>
      </trkpt>
      <trkpt lat="47.32961" lon="-0.20569">
        <ele>61</ele>
        <time>2026-03-12T21:08:21Z</time>
      </trkpt>
      <trkpt lat="47.32973" lon="-0.20616">
        <ele>63</ele>
        <time>2026-03-12T21:08:29Z</time>
      </trkpt>
      <trkpt lat="47.32979" lon="-0.20651">
        <ele>64</ele>
        <time>2026-03-12T21:08:35Z</time>
      </trkpt>
      <trkpt lat="47.3297" lon="-0.2069">
        <ele>64</ele>
        <time>2026-03-12T21:08:41Z</time>
      </trkpt>
      <trkpt lat="47.32948" lon="-0.20823">
        <ele>65</ele>
        <time>2026-03-12T21:09:03Z</time>
      </trkpt>
      <trkpt lat="47.32924" lon="-0.20895">
        <ele>67</ele>
        <time>2026-03-12T21:09:15Z</time>
      </trkpt>
      <trkpt lat="47.3291" lon="-0.20966">
        <ele>71</ele>
        <time>2026-03-12T21:09:27Z</time>
      </trkpt>
      <trkpt lat="47.32876" lon="-0.2105">
        <ele>75</ele>
        <time>2026-03-12T21:09:43Z</time>
      </trkpt>
      <trkpt lat="47.32854" lon="-0.21112">
        <ele>76</ele>
        <time>2026-03-12T21:09:54Z</time>
      </trkpt>
      <trkpt lat="47.32848" lon="-0.21134">
        <ele>76</ele>
        <time>2026-03-12T21:09:57Z</time>
      </trkpt>
      <trkpt lat="47.32845" lon="-0.21157">
        <ele>76</ele>
        <time>2026-03-12T21:10:01Z</time>
      </trkpt>
      <trkpt lat="47.32845" lon="-0.21185">
        <ele>76</ele>
        <time>2026-03-12T21:10:06Z</time>
      </trkpt>
      <trkpt lat="47.32864" lon="-0.21359">
        <ele>77</ele>
        <time>2026-03-12T21:10:33Z</time>
      </trkpt>
      <trkpt lat="47.32869" lon="-0.21369">
        <ele>77</ele>
        <time>2026-03-12T21:10:35Z</time>
      </trkpt>
      <trkpt lat="47.32872" lon="-0.21383">
        <ele>77</ele>
        <time>2026-03-12T21:10:38Z</time>
      </trkpt>
      <trkpt lat="47.32862" lon="-0.21426">
        <ele>76</ele>
        <time>2026-03-12T21:10:45Z</time>
      </trkpt>
      <trkpt lat="47.32857" lon="-0.21465">
        <ele>75</ele>
        <time>2026-03-12T21:10:51Z</time>
      </trkpt>
      <trkpt lat="47.32851" lon="-0.21485">
        <ele>75</ele>
        <time>2026-03-12T21:10:55Z</time>
      </trkpt>
      <trkpt lat="47.32853" lon="-0.21493">
        <ele>75</ele>
        <time>2026-03-12T21:10:56Z</time>
      </trkpt>
      <trkpt lat="47.32874" lon="-0.21521">
        <ele>76</ele>
        <time>2026-03-12T21:11:03Z</time>
      </trkpt>
      <trkpt lat="47.32883" lon="-0.21542">
        <ele>76</ele>
        <time>2026-03-12T21:11:07Z</time>
      </trkpt>
      <trkpt lat="47.32885" lon="-0.21555">
        <ele>77</ele>
        <time>2026-03-12T21:11:09Z</time>
      </trkpt>
      <trkpt lat="47.32875" lon="-0.21566">
        <ele>77</ele>
        <time>2026-03-12T21:11:12Z</time>
      </trkpt>
      <trkpt lat="47.32883" lon="-0.21559">
        <ele>77</ele>
        <time>2026-03-12T21:11:14Z</time>
      </trkpt>
      <trkpt lat="47.32893" lon="-0.21573">
        <ele>77</ele>
        <time>2026-03-12T21:11:17Z</time>
      </trkpt>
      <trkpt lat="47.32925" lon="-0.21651">
        <ele>78</ele>
        <time>2026-03-12T21:11:31Z</time>
      </trkpt>
      <trkpt lat="47.32931" lon="-0.21661">
        <ele>78</ele>
        <time>2026-03-12T21:11:34Z</time>
      </trkpt>
      <trkpt lat="47.32945" lon="-0.21669">
        <ele>78</ele>
        <time>2026-03-12T21:11:37Z</time>
      </trkpt>
      <trkpt lat="47.32961" lon="-0.21667">
        <ele>77</ele>
        <time>2026-03-12T21:11:41Z</time>
      </trkpt>
      <trkpt lat="47.32974" lon="-0.21676">
        <ele>77</ele>
        <time>2026-03-12T21:11:44Z</time>
      </trkpt>
      <trkpt lat="47.32985" lon="-0.21676">
        <ele>77</ele>
        <time>2026-03-12T21:11:47Z</time>
      </trkpt>
      <trkpt lat="47.32994" lon="-0.21669">
        <ele>77</ele>
        <time>2026-03-12T21:11:49Z</time>
      </trkpt>
      <trkpt lat="47.33006" lon="-0.21652">
        <ele>77</ele>
        <time>2026-03-12T21:11:53Z</time>
      </trkpt>
      <trkpt lat="47.33007" lon="-0.21613">
        <ele>77</ele>
        <time>2026-03-12T21:11:59Z</time>
      </trkpt>
      <trkpt lat="47.33001" lon="-0.21582">
        <ele>77</ele>
        <time>2026-03-12T21:12:04Z</time>
      </trkpt>
      <trkpt lat="47.33002" lon="-0.21566">
        <ele>77</ele>
        <time>2026-03-12T21:12:07Z</time>
      </trkpt>
      <trkpt lat="47.33016" lon="-0.21532">
        <ele>77</ele>
        <time>2026-03-12T21:12:13Z</time>
      </trkpt>
      <trkpt lat="47.33025" lon="-0.21519">
        <ele>77</ele>
        <time>2026-03-12T21:12:16Z</time>
      </trkpt>
      <trkpt lat="47.33034" lon="-0.21511">
        <ele>77</ele>
        <time>2026-03-12T21:12:18Z</time>
      </trkpt>
      <trkpt lat="47.33048" lon="-0.21482">
        <ele>76</ele>
        <time>2026-03-12T21:12:24Z</time>
      </trkpt>
      <trkpt lat="47.33055" lon="-0.21477">
        <ele>76</ele>
        <time>2026-03-12T21:12:26Z</time>
      </trkpt>
      <trkpt lat="47.33058" lon="-0.21478">
        <ele>76</ele>
        <time>2026-03-12T21:12:27Z</time>
      </trkpt>
      <trkpt lat="47.33076" lon="-0.21511">
        <ele>76</ele>
        <time>2026-03-12T21:12:33Z</time>
      </trkpt>
      <trkpt lat="47.33088" lon="-0.21517">
        <ele>76</ele>
        <time>2026-03-12T21:12:36Z</time>
      </trkpt>
      <trkpt lat="47.33111" lon="-0.2154">
        <ele>76</ele>
        <time>2026-03-12T21:12:43Z</time>
      </trkpt>
      <trkpt lat="47.33126" lon="-0.21546">
        <ele>76</ele>
        <time>2026-03-12T21:12:46Z</time>
      </trkpt>
      <trkpt lat="47.3313" lon="-0.21545">
        <ele>76</ele>
        <time>2026-03-12T21:12:47Z</time>
      </trkpt>
      <trkpt lat="47.33144" lon="-0.21527">
        <ele>75</ele>
        <time>2026-03-12T21:12:52Z</time>
      </trkpt>
      <trkpt lat="47.33161" lon="-0.21514">
        <ele>74</ele>
        <time>2026-03-12T21:12:56Z</time>
      </trkpt>
      <trkpt lat="47.33187" lon="-0.21515">
        <ele>74</ele>
        <time>2026-03-12T21:13:02Z</time>
      </trkpt>
      <trkpt lat="47.33208" lon="-0.21505">
        <ele>73</ele>
        <time>2026-03-12T21:13:07Z</time>
      </trkpt>
      <trkpt lat="47.33224" lon="-0.21503">
        <ele>73</ele>
        <time>2026-03-12T21:13:11Z</time>
      </trkpt>
      <trkpt lat="47.33239" lon="-0.21493">
        <ele>73</ele>
        <time>2026-03-12T21:13:15Z</time>
      </trkpt>
      <trkpt lat="47.33251" lon="-0.21476">
        <ele>73</ele>
        <time>2026-03-12T21:13:19Z</time>
      </trkpt>
      <trkpt lat="47.33263" lon="-0.2143">
        <ele>72</ele>
        <time>2026-03-12T21:13:27Z</time>
      </trkpt>
      <trkpt lat="47.33269" lon="-0.2142">
        <ele>72</ele>
        <time>2026-03-12T21:13:29Z</time>
      </trkpt>
      <trkpt lat="47.33296" lon="-0.214">
        <ele>73</ele>
        <time>2026-03-12T21:13:36Z</time>
      </trkpt>
      <trkpt lat="47.33307" lon="-0.21399">
        <ele>73</ele>
        <time>2026-03-12T21:13:38Z</time>
      </trkpt>
      <trkpt lat="47.3331" lon="-0.21401">
        <ele>73</ele>
        <time>2026-03-12T21:13:39Z</time>
      </trkpt>
      <trkpt lat="47.33324" lon="-0.21418">
        <ele>73</ele>
        <time>2026-03-12T21:13:43Z</time>
      </trkpt>
      <trkpt lat="47.33361" lon="-0.21517">
        <ele>74</ele>
        <time>2026-03-12T21:14:01Z</time>
      </trkpt>
      <trkpt lat="47.33381" lon="-0.21559">
        <ele>74</ele>
        <time>2026-03-12T21:14:09Z</time>
      </trkpt>
      <trkpt lat="47.33397" lon="-0.21605">
        <ele>75</ele>
        <time>2026-03-12T21:14:18Z</time>
      </trkpt>
      <trkpt lat="47.33449" lon="-0.21731">
        <ele>75</ele>
        <time>2026-03-12T21:14:41Z</time>
      </trkpt>
      <trkpt lat="47.33474" lon="-0.21812">
        <ele>74</ele>
        <time>2026-03-12T21:14:55Z</time>
      </trkpt>
      <trkpt lat="47.33477" lon="-0.21813">
        <ele>74</ele>
        <time>2026-03-12T21:14:56Z</time>
      </trkpt>
      <trkpt lat="47.33485" lon="-0.21787">
        <ele>74</ele>
        <time>2026-03-12T21:15:00Z</time>
      </trkpt>
      <trkpt lat="47.33496" lon="-0.21766">
        <ele>74</ele>
        <time>2026-03-12T21:15:05Z</time>
      </trkpt>
      <trkpt lat="47.33518" lon="-0.21756">
        <ele>73</ele>
        <time>2026-03-12T21:15:10Z</time>
      </trkpt>
      <trkpt lat="47.33536" lon="-0.21758">
        <ele>72</ele>
        <time>2026-03-12T21:15:14Z</time>
      </trkpt>
      <trkpt lat="47.33553" lon="-0.21768">
        <ele>71</ele>
        <time>2026-03-12T21:15:18Z</time>
      </trkpt>
      <trkpt lat="47.33564" lon="-0.21762">
        <ele>70</ele>
        <time>2026-03-12T21:15:21Z</time>
      </trkpt>
      <trkpt lat="47.3357" lon="-0.21752">
        <ele>70</ele>
        <time>2026-03-12T21:15:23Z</time>
      </trkpt>
      <trkpt lat="47.33575" lon="-0.21751">
        <ele>70</ele>
        <time>2026-03-12T21:15:24Z</time>
      </trkpt>
      <trkpt lat="47.33588" lon="-0.21761">
        <ele>69</ele>
        <time>2026-03-12T21:15:28Z</time>
      </trkpt>
      <trkpt lat="47.33603" lon="-0.21761">
        <ele>67</ele>
        <time>2026-03-12T21:15:31Z</time>
      </trkpt>
      <trkpt lat="47.33608" lon="-0.21765">
        <ele>67</ele>
        <time>2026-03-12T21:15:33Z</time>
      </trkpt>
      <trkpt lat="47.33621" lon="-0.21768">
        <ele>66</ele>
        <time>2026-03-12T21:15:36Z</time>
      </trkpt>
      <trkpt lat="47.33626" lon="-0.21774">
        <ele>65</ele>
        <time>2026-03-12T21:15:37Z</time>
      </trkpt>
      <trkpt lat="47.33641" lon="-0.21807">
        <ele>65</ele>
        <time>2026-03-12T21:15:44Z</time>
      </trkpt>
      <trkpt lat="47.33654" lon="-0.21846">
        <ele>65</ele>
        <time>2026-03-12T21:15:50Z</time>
      </trkpt>
      <trkpt lat="47.33658" lon="-0.21868">
        <ele>65</ele>
        <time>2026-03-12T21:15:54Z</time>
      </trkpt>
      <trkpt lat="47.33657" lon="-0.21882">
        <ele>66</ele>
        <time>2026-03-12T21:15:56Z</time>
      </trkpt>
      <trkpt lat="47.3366" lon="-0.2189">
        <ele>66</ele>
        <time>2026-03-12T21:15:58Z</time>
      </trkpt>
      <trkpt lat="47.3367" lon="-0.21902">
        <ele>65</ele>
        <time>2026-03-12T21:16:01Z</time>
      </trkpt>
      <trkpt lat="47.33675" lon="-0.219">
        <ele>64</ele>
        <time>2026-03-12T21:16:02Z</time>
      </trkpt>
      <trkpt lat="47.33684" lon="-0.21905">
        <ele>63</ele>
        <time>2026-03-12T21:16:04Z</time>
      </trkpt>
      <trkpt lat="47.33692" lon="-0.21928">
        <ele>63</ele>
        <time>2026-03-12T21:16:08Z</time>
      </trkpt>
      <trkpt lat="47.33697" lon="-0.21965">
        <ele>63</ele>
        <time>2026-03-12T21:16:14Z</time>
      </trkpt>
      <trkpt lat="47.33704" lon="-0.21977">
        <ele>63</ele>
        <time>2026-03-12T21:16:17Z</time>
      </trkpt>
      <trkpt lat="47.33722" lon="-0.21978">
        <ele>61</ele>
        <time>2026-03-12T21:16:21Z</time>
      </trkpt>
      <trkpt lat="47.33737" lon="-0.22015">
        <ele>60</ele>
        <time>2026-03-12T21:16:28Z</time>
      </trkpt>
      <trkpt lat="47.33732" lon="-0.22028">
        <ele>59</ele>
        <time>2026-03-12T21:16:30Z</time>
      </trkpt>
      <trkpt lat="47.33717" lon="-0.22033">
        <ele>60</ele>
        <time>2026-03-12T21:16:34Z</time>
      </trkpt>
      <trkpt lat="47.33716" lon="-0.22025">
        <ele>60</ele>
        <time>2026-03-12T21:16:35Z</time>
      </trkpt>
      <trkpt lat="47.33712" lon="-0.22018">
        <ele>61</ele>
        <time>2026-03-12T21:16:36Z</time>
      </trkpt>
      <trkpt lat="47.33691" lon="-0.22">
        <ele>64</ele>
        <time>2026-03-12T21:16:42Z</time>
      </trkpt>
      <trkpt lat="47.33685" lon="-0.21998">
        <ele>65</ele>
        <time>2026-03-12T21:16:44Z</time>
      </trkpt>
      <trkpt lat="47.33682" lon="-0.22001">
        <ele>65</ele>
        <time>2026-03-12T21:16:44Z</time>
      </trkpt>
      <trkpt lat="47.33678" lon="-0.22019">
        <ele>64</ele>
        <time>2026-03-12T21:16:47Z</time>
      </trkpt>
      <trkpt lat="47.33684" lon="-0.22054">
        <ele>61</ele>
        <time>2026-03-12T21:16:53Z</time>
      </trkpt>
      <trkpt lat="47.33684" lon="-0.22078">
        <ele>59</ele>
        <time>2026-03-12T21:16:57Z</time>
      </trkpt>
      <trkpt lat="47.33694" lon="-0.22093">
        <ele>57</ele>
        <time>2026-03-12T21:17:00Z</time>
      </trkpt>
      <trkpt lat="47.33698" lon="-0.22106">
        <ele>56</ele>
        <time>2026-03-12T21:17:03Z</time>
      </trkpt>
      <trkpt lat="47.33697" lon="-0.22134">
        <ele>55</ele>
        <time>2026-03-12T21:17:07Z</time>
      </trkpt>
      <trkpt lat="47.33703" lon="-0.22185">
        <ele>54</ele>
        <time>2026-03-12T21:17:15Z</time>
      </trkpt>
      <trkpt lat="47.33714" lon="-0.22193">
        <ele>54</ele>
        <time>2026-03-12T21:17:18Z</time>
      </trkpt>
      <trkpt lat="47.33748" lon="-0.22181">
        <ele>51</ele>
        <time>2026-03-12T21:17:26Z</time>
      </trkpt>
      <trkpt lat="47.33756" lon="-0.22192">
        <ele>50</ele>
        <time>2026-03-12T21:17:29Z</time>
      </trkpt>
      <trkpt lat="47.33756" lon="-0.22204">
        <ele>51</ele>
        <time>2026-03-12T21:17:31Z</time>
      </trkpt>
      <trkpt lat="47.33752" lon="-0.22209">
        <ele>52</ele>
        <time>2026-03-12T21:17:32Z</time>
      </trkpt>
      <trkpt lat="47.33752" lon="-0.22216">
        <ele>52</ele>
        <time>2026-03-12T21:17:33Z</time>
      </trkpt>
      <trkpt lat="47.33743" lon="-0.22223">
        <ele>53</ele>
        <time>2026-03-12T21:17:35Z</time>
      </trkpt>
      <trkpt lat="47.33744" lon="-0.22229">
        <ele>53</ele>
        <time>2026-03-12T21:17:36Z</time>
      </trkpt>
      <trkpt lat="47.33726" lon="-0.22221">
        <ele>54</ele>
        <time>2026-03-12T21:17:41Z</time>
      </trkpt>
      <trkpt lat="47.33702" lon="-0.22224">
        <ele>56</ele>
        <time>2026-03-12T21:17:46Z</time>
      </trkpt>
      <trkpt lat="47.33696" lon="-0.22228">
        <ele>56</ele>
        <time>2026-03-12T21:17:48Z</time>
      </trkpt>
      <trkpt lat="47.33694" lon="-0.22236">
        <ele>57</ele>
        <time>2026-03-12T21:17:49Z</time>
      </trkpt>
      <trkpt lat="47.3367" lon="-0.22245">
        <ele>59</ele>
        <time>2026-03-12T21:17:55Z</time>
      </trkpt>
      <trkpt lat="47.33658" lon="-0.22245">
        <ele>59</ele>
        <time>2026-03-12T21:17:58Z</time>
      </trkpt>
      <trkpt lat="47.33644" lon="-0.22253">
        <ele>61</ele>
        <time>2026-03-12T21:18:01Z</time>
      </trkpt>
      <trkpt lat="47.33622" lon="-0.22254">
        <ele>62</ele>
        <time>2026-03-12T21:18:06Z</time>
      </trkpt>
      <trkpt lat="47.33616" lon="-0.22246">
        <ele>63</ele>
        <time>2026-03-12T21:18:08Z</time>
      </trkpt>
      <trkpt lat="47.33598" lon="-0.22246">
        <ele>64</ele>
        <time>2026-03-12T21:18:13Z</time>
      </trkpt>
      <trkpt lat="47.33578" lon="-0.2223">
        <ele>65</ele>
        <time>2026-03-12T21:18:18Z</time>
      </trkpt>
      <trkpt lat="47.33569" lon="-0.22227">
        <ele>65</ele>
        <time>2026-03-12T21:18:20Z</time>
      </trkpt>
      <trkpt lat="47.33561" lon="-0.22233">
        <ele>66</ele>
        <time>2026-03-12T21:18:22Z</time>
      </trkpt>
      <trkpt lat="47.3354" lon="-0.22232">
        <ele>67</ele>
        <time>2026-03-12T21:18:27Z</time>
      </trkpt>
      <trkpt lat="47.33531" lon="-0.22211">
        <ele>67</ele>
        <time>2026-03-12T21:18:31Z</time>
      </trkpt>
      <trkpt lat="47.33525" lon="-0.22206">
        <ele>67</ele>
        <time>2026-03-12T21:18:33Z</time>
      </trkpt>
      <trkpt lat="47.3351" lon="-0.22202">
        <ele>68</ele>
        <time>2026-03-12T21:18:36Z</time>
      </trkpt>
      <trkpt lat="47.33493" lon="-0.22191">
        <ele>69</ele>
        <time>2026-03-12T21:18:40Z</time>
      </trkpt>
      <trkpt lat="47.33484" lon="-0.22191">
        <ele>70</ele>
        <time>2026-03-12T21:18:43Z</time>
      </trkpt>
      <trkpt lat="47.33467" lon="-0.22198">
        <ele>70</ele>
        <time>2026-03-12T21:18:47Z</time>
      </trkpt>
      <trkpt lat="47.33461" lon="-0.22209">
        <ele>71</ele>
        <time>2026-03-12T21:18:49Z</time>
      </trkpt>
      <trkpt lat="47.33425" lon="-0.22225">
        <ele>72</ele>
        <time>2026-03-12T21:18:58Z</time>
      </trkpt>
      <trkpt lat="47.33416" lon="-0.22239">
        <ele>72</ele>
        <time>2026-03-12T21:19:01Z</time>
      </trkpt>
      <trkpt lat="47.33413" lon="-0.22256">
        <ele>72</ele>
        <time>2026-03-12T21:19:04Z</time>
      </trkpt>
      <trkpt lat="47.33408" lon="-0.22264">
        <ele>72</ele>
        <time>2026-03-12T21:19:05Z</time>
      </trkpt>
      <trkpt lat="47.33398" lon="-0.22259">
        <ele>72</ele>
        <time>2026-03-12T21:19:08Z</time>
      </trkpt>
      <trkpt lat="47.33371" lon="-0.22234">
        <ele>73</ele>
        <time>2026-03-12T21:19:15Z</time>
      </trkpt>
      <trkpt lat="47.33324" lon="-0.22184">
        <ele>72</ele>
        <time>2026-03-12T21:19:29Z</time>
      </trkpt>
      <trkpt lat="47.33316" lon="-0.22184">
        <ele>72</ele>
        <time>2026-03-12T21:19:31Z</time>
      </trkpt>
      <trkpt lat="47.33304" lon="-0.22194">
        <ele>72</ele>
        <time>2026-03-12T21:19:34Z</time>
      </trkpt>
      <trkpt lat="47.33262" lon="-0.22239">
        <ele>74</ele>
        <time>2026-03-12T21:19:46Z</time>
      </trkpt>
      <trkpt lat="47.33225" lon="-0.22283">
        <ele>75</ele>
        <time>2026-03-12T21:19:57Z</time>
      </trkpt>
      <trkpt lat="47.33212" lon="-0.22294">
        <ele>75</ele>
        <time>2026-03-12T21:20:00Z</time>
      </trkpt>
      <trkpt lat="47.33203" lon="-0.22299">
        <ele>75</ele>
        <time>2026-03-12T21:20:03Z</time>
      </trkpt>
      <trkpt lat="47.33164" lon="-0.22309">
        <ele>75</ele>
        <time>2026-03-12T21:20:12Z</time>
      </trkpt>
      <trkpt lat="47.33151" lon="-0.22317">
        <ele>74</ele>
        <time>2026-03-12T21:20:15Z</time>
      </trkpt>
      <trkpt lat="47.33119" lon="-0.22323">
        <ele>73</ele>
        <time>2026-03-12T21:20:23Z</time>
      </trkpt>
      <trkpt lat="47.33079" lon="-0.22343">
        <ele>71</ele>
        <time>2026-03-12T21:20:33Z</time>
      </trkpt>
      <trkpt lat="47.33075" lon="-0.22355">
        <ele>71</ele>
        <time>2026-03-12T21:20:35Z</time>
      </trkpt>
      <trkpt lat="47.33078" lon="-0.22385">
        <ele>68</ele>
        <time>2026-03-12T21:20:40Z</time>
      </trkpt>
      <trkpt lat="47.33096" lon="-0.22506">
        <ele>60</ele>
        <time>2026-03-12T21:20:59Z</time>
      </trkpt>
      <trkpt lat="47.33107" lon="-0.22545">
        <ele>60</ele>
        <time>2026-03-12T21:21:06Z</time>
      </trkpt>
      <trkpt lat="47.33136" lon="-0.22611">
        <ele>61</ele>
        <time>2026-03-12T21:21:18Z</time>
      </trkpt>
      <trkpt lat="47.33136" lon="-0.22622">
        <ele>60</ele>
        <time>2026-03-12T21:21:20Z</time>
      </trkpt>
      <trkpt lat="47.33133" lon="-0.22628">
        <ele>60</ele>
        <time>2026-03-12T21:21:21Z</time>
      </trkpt>
      <trkpt lat="47.33123" lon="-0.22637">
        <ele>60</ele>
        <time>2026-03-12T21:21:24Z</time>
      </trkpt>
      <trkpt lat="47.33041" lon="-0.2267">
        <ele>60</ele>
        <time>2026-03-12T21:21:44Z</time>
      </trkpt>
      <trkpt lat="47.33019" lon="-0.22681">
        <ele>61</ele>
        <time>2026-03-12T21:21:49Z</time>
      </trkpt>
      <trkpt lat="47.3296" lon="-0.22703">
        <ele>64</ele>
        <time>2026-03-12T21:22:03Z</time>
      </trkpt>
      <trkpt lat="47.32954" lon="-0.22706">
        <ele>64</ele>
        <time>2026-03-12T21:22:05Z</time>
      </trkpt>
      <trkpt lat="47.32951" lon="-0.22713">
        <ele>65</ele>
        <time>2026-03-12T21:22:06Z</time>
      </trkpt>
      <trkpt lat="47.32972" lon="-0.22818">
        <ele>70</ele>
        <time>2026-03-12T21:22:24Z</time>
      </trkpt>
      <trkpt lat="47.32974" lon="-0.22845">
        <ele>70</ele>
        <time>2026-03-12T21:22:28Z</time>
      </trkpt>
      <trkpt lat="47.32978" lon="-0.22856">
        <ele>71</ele>
        <time>2026-03-12T21:22:30Z</time>
      </trkpt>
      <trkpt lat="47.32993" lon="-0.22877">
        <ele>72</ele>
        <time>2026-03-12T21:22:35Z</time>
      </trkpt>
      <trkpt lat="47.33013" lon="-0.2294">
        <ele>71</ele>
        <time>2026-03-12T21:22:46Z</time>
      </trkpt>
      <trkpt lat="47.33013" lon="-0.22972">
        <ele>70</ele>
        <time>2026-03-12T21:22:51Z</time>
      </trkpt>
      <trkpt lat="47.33017" lon="-0.22994">
        <ele>70</ele>
        <time>2026-03-12T21:22:54Z</time>
      </trkpt>
      <trkpt lat="47.33016" lon="-0.23023">
        <ele>70</ele>
        <time>2026-03-12T21:22:59Z</time>
      </trkpt>
      <trkpt lat="47.33019" lon="-0.23077">
        <ele>70</ele>
        <time>2026-03-12T21:23:08Z</time>
      </trkpt>
      <trkpt lat="47.33032" lon="-0.2315">
        <ele>70</ele>
        <time>2026-03-12T21:23:19Z</time>
      </trkpt>
      <trkpt lat="47.33053" lon="-0.23226">
        <ele>70</ele>
        <time>2026-03-12T21:23:32Z</time>
      </trkpt>
      <trkpt lat="47.33057" lon="-0.23234">
        <ele>70</ele>
        <time>2026-03-12T21:23:34Z</time>
      </trkpt>
      <trkpt lat="47.3308" lon="-0.2325">
        <ele>69</ele>
        <time>2026-03-12T21:23:40Z</time>
      </trkpt>
      <trkpt lat="47.33097" lon="-0.23283">
        <ele>69</ele>
        <time>2026-03-12T21:23:47Z</time>
      </trkpt>
      <trkpt lat="47.3311" lon="-0.23339">
        <ele>69</ele>
        <time>2026-03-12T21:23:56Z</time>
      </trkpt>
      <trkpt lat="47.33114" lon="-0.23381">
        <ele>71</ele>
        <time>2026-03-12T21:24:03Z</time>
      </trkpt>
      <trkpt lat="47.33126" lon="-0.23434">
        <ele>73</ele>
        <time>2026-03-12T21:24:11Z</time>
      </trkpt>
      <trkpt lat="47.33156" lon="-0.23475">
        <ele>73</ele>
        <time>2026-03-12T21:24:21Z</time>
      </trkpt>
      <trkpt lat="47.33171" lon="-0.23487">
        <ele>73</ele>
        <time>2026-03-12T21:24:25Z</time>
      </trkpt>
      <trkpt lat="47.33165" lon="-0.23508">
        <ele>73</ele>
        <time>2026-03-12T21:24:29Z</time>
      </trkpt>
      <trkpt lat="47.33156" lon="-0.23528">
        <ele>72</ele>
        <time>2026-03-12T21:24:32Z</time>
      </trkpt>
      <trkpt lat="47.33156" lon="-0.23535">
        <ele>72</ele>
        <time>2026-03-12T21:24:34Z</time>
      </trkpt>
      <trkpt lat="47.33157" lon="-0.23556">
        <ele>72</ele>
        <time>2026-03-12T21:24:37Z</time>
      </trkpt>
      <trkpt lat="47.33167" lon="-0.2359">
        <ele>71</ele>
        <time>2026-03-12T21:24:43Z</time>
      </trkpt>
      <trkpt lat="47.33168" lon="-0.23618">
        <ele>71</ele>
        <time>2026-03-12T21:24:47Z</time>
      </trkpt>
      <trkpt lat="47.33179" lon="-0.23706">
        <ele>70</ele>
        <time>2026-03-12T21:25:01Z</time>
      </trkpt>
      <trkpt lat="47.33182" lon="-0.23899">
        <ele>74</ele>
        <time>2026-03-12T21:25:32Z</time>
      </trkpt>
      <trkpt lat="47.3318" lon="-0.23997">
        <ele>75</ele>
        <time>2026-03-12T21:25:47Z</time>
      </trkpt>
      <trkpt lat="47.33182" lon="-0.24033">
        <ele>73</ele>
        <time>2026-03-12T21:25:53Z</time>
      </trkpt>
      <trkpt lat="47.33185" lon="-0.24065">
        <ele>71</ele>
        <time>2026-03-12T21:25:58Z</time>
      </trkpt>
      <trkpt lat="47.33192" lon="-0.24101">
        <ele>69</ele>
        <time>2026-03-12T21:26:04Z</time>
      </trkpt>
      <trkpt lat="47.33227" lon="-0.24247">
        <ele>63</ele>
        <time>2026-03-12T21:26:29Z</time>
      </trkpt>
      <trkpt lat="47.33224" lon="-0.24258">
        <ele>63</ele>
        <time>2026-03-12T21:26:31Z</time>
      </trkpt>
      <trkpt lat="47.33156" lon="-0.24222">
        <ele>65</ele>
        <time>2026-03-12T21:26:47Z</time>
      </trkpt>
      <trkpt lat="47.33143" lon="-0.24212">
        <ele>65</ele>
        <time>2026-03-12T21:26:51Z</time>
      </trkpt>
      <trkpt lat="47.33095" lon="-0.24184">
        <ele>66</ele>
        <time>2026-03-12T21:27:03Z</time>
      </trkpt>
      <trkpt lat="47.33026" lon="-0.2413">
        <ele>68</ele>
        <time>2026-03-12T21:27:21Z</time>
      </trkpt>
      <trkpt lat="47.33008" lon="-0.24112">
        <ele>69</ele>
        <time>2026-03-12T21:27:26Z</time>
      </trkpt>
      <trkpt lat="47.32974" lon="-0.24084">
        <ele>71</ele>
        <time>2026-03-12T21:27:35Z</time>
      </trkpt>
      <trkpt lat="47.32927" lon="-0.24037">
        <ele>72</ele>
        <time>2026-03-12T21:27:49Z</time>
      </trkpt>
      <trkpt lat="47.32858" lon="-0.23999">
        <ele>73</ele>
        <time>2026-03-12T21:28:06Z</time>
      </trkpt>
      <trkpt lat="47.32839" lon="-0.23983">
        <ele>73</ele>
        <time>2026-03-12T21:28:11Z</time>
      </trkpt>
      <trkpt lat="47.328" lon="-0.23965">
        <ele>74</ele>
        <time>2026-03-12T21:28:20Z</time>
      </trkpt>
      <trkpt lat="47.32785" lon="-0.23953">
        <ele>74</ele>
        <time>2026-03-12T21:28:24Z</time>
      </trkpt>
      <trkpt lat="47.32768" lon="-0.23947">
        <ele>74</ele>
        <time>2026-03-12T21:28:28Z</time>
      </trkpt>
      <trkpt lat="47.32756" lon="-0.23932">
        <ele>75</ele>
        <time>2026-03-12T21:28:32Z</time>
      </trkpt>
      <trkpt lat="47.32735" lon="-0.23922">
        <ele>75</ele>
        <time>2026-03-12T21:28:37Z</time>
      </trkpt>
      <trkpt lat="47.32714" lon="-0.23903">
        <ele>76</ele>
        <time>2026-03-12T21:28:43Z</time>
      </trkpt>
      <trkpt lat="47.32698" lon="-0.23884">
        <ele>76</ele>
        <time>2026-03-12T21:28:48Z</time>
      </trkpt>
      <trkpt lat="47.3264" lon="-0.23794">
        <ele>77</ele>
        <time>2026-03-12T21:29:08Z</time>
      </trkpt>
      <trkpt lat="47.32609" lon="-0.23758">
        <ele>77</ele>
        <time>2026-03-12T21:29:17Z</time>
      </trkpt>
      <trkpt lat="47.32591" lon="-0.23733">
        <ele>78</ele>
        <time>2026-03-12T21:29:22Z</time>
      </trkpt>
      <trkpt lat="47.32558" lon="-0.23672">
        <ele>77</ele>
        <time>2026-03-12T21:29:35Z</time>
      </trkpt>
      <trkpt lat="47.3255" lon="-0.23661">
        <ele>77</ele>
        <time>2026-03-12T21:29:37Z</time>
      </trkpt>
      <trkpt lat="47.32541" lon="-0.23651">
        <ele>77</ele>
        <time>2026-03-12T21:29:40Z</time>
      </trkpt>
      <trkpt lat="47.32526" lon="-0.2364">
        <ele>76</ele>
        <time>2026-03-12T21:29:44Z</time>
      </trkpt>
      <trkpt lat="47.3247" lon="-0.23614">
        <ele>77</ele>
        <time>2026-03-12T21:29:58Z</time>
      </trkpt>
      <trkpt lat="47.32451" lon="-0.23599">
        <ele>77</ele>
        <time>2026-03-12T21:30:03Z</time>
      </trkpt>
      <trkpt lat="47.32432" lon="-0.23571">
        <ele>77</ele>
        <time>2026-03-12T21:30:09Z</time>
      </trkpt>
      <trkpt lat="47.32405" lon="-0.23502">
        <ele>75</ele>
        <time>2026-03-12T21:30:22Z</time>
      </trkpt>
      <trkpt lat="47.32386" lon="-0.23467">
        <ele>74</ele>
        <time>2026-03-12T21:30:29Z</time>
      </trkpt>
      <trkpt lat="47.32367" lon="-0.23446">
        <ele>74</ele>
        <time>2026-03-12T21:30:34Z</time>
      </trkpt>
      <trkpt lat="47.32312" lon="-0.23406">
        <ele>74</ele>
        <time>2026-03-12T21:30:49Z</time>
      </trkpt>
      <trkpt lat="47.32285" lon="-0.23382">
        <ele>73</ele>
        <time>2026-03-12T21:30:56Z</time>
      </trkpt>
      <trkpt lat="47.32273" lon="-0.23363">
        <ele>73</ele>
        <time>2026-03-12T21:31:00Z</time>
      </trkpt>
      <trkpt lat="47.32261" lon="-0.23332">
        <ele>73</ele>
        <time>2026-03-12T21:31:06Z</time>
      </trkpt>
      <trkpt lat="47.32261" lon="-0.23315">
        <ele>72</ele>
        <time>2026-03-12T21:31:08Z</time>
      </trkpt>
      <trkpt lat="47.32273" lon="-0.23237">
        <ele>70</ele>
        <time>2026-03-12T21:31:21Z</time>
      </trkpt>
      <trkpt lat="47.32287" lon="-0.23162">
        <ele>68</ele>
        <time>2026-03-12T21:31:33Z</time>
      </trkpt>
      <trkpt lat="47.32301" lon="-0.23116">
        <ele>69</ele>
        <time>2026-03-12T21:31:41Z</time>
      </trkpt>
      <trkpt lat="47.32312" lon="-0.23086">
        <ele>69</ele>
        <time>2026-03-12T21:31:47Z</time>
      </trkpt>
      <trkpt lat="47.32323" lon="-0.23064">
        <ele>70</ele>
        <time>2026-03-12T21:31:51Z</time>
      </trkpt>
      <trkpt lat="47.32341" lon="-0.23032">
        <ele>70</ele>
        <time>2026-03-12T21:31:58Z</time>
      </trkpt>
      <trkpt lat="47.3237" lon="-0.2299">
        <ele>71</ele>
        <time>2026-03-12T21:32:07Z</time>
      </trkpt>
      <trkpt lat="47.32396" lon="-0.22935">
        <ele>71</ele>
        <time>2026-03-12T21:32:18Z</time>
      </trkpt>
      <trkpt lat="47.32401" lon="-0.22932">
        <ele>70</ele>
        <time>2026-03-12T21:32:19Z</time>
        <extensions>
          <visugpx:TrkExtension xmlns:visugpx="https://www.visugpx.com/editgpx/">
            <visugpx:node>2</visugpx:node>
            </visugpx:TrkExtension>
        </extensions>
      </trkpt>
    </trkseg>
  </trk>
</gpx>